<?xml version="1.0" encoding="UTF-8"?>
<gpx xmlns="http://www.topografix.com/GPX/1/1" xmlns:gpsies="http://www.gpsies.com/GPX/1/0" creator="GPSies http://www.gpsies.com - &amp;#1042;&amp;#1076;&amp;#1086;&amp;#1083;&amp;#1100; &amp;#1044;&amp;#1086;&amp;#1085;&amp;#1072; 2016 2" version="1.1" xmlns:xsi="http://www.w3.org/2001/XMLSchema-instance" xsi:schemaLocation="http://www.topografix.com/GPX/1/1 http://www.topografix.com/GPX/1/1/gpx.xsd http://www.gpsies.com/GPX/1/0 http://www.gpsies.com/gpsies.xsd">
  <metadata>
    <name>Вдоль Дона 2016 2</name>
    <link href="http://www.gpsies.com/">
      <text>Вдоль Дона 2016 2 on GPSies.com</text>
    </link>
    <time>2016-04-04T20:59:25Z</time>
  </metadata>
  <trk>
    <name>Вдоль Дона 2016 2 on GPSies.com</name>
    <trkseg>
      <trkpt lat="50.99072969" lon="39.19891863">
        <ele>0.0000000</ele>
        <time>2010-01-01T00:00:00Z</time>
      </trkpt>
      <trkpt lat="50.99111463" lon="39.19880061">
        <ele>0.0000000</ele>
        <time>2010-01-01T00:00:15Z</time>
      </trkpt>
      <trkpt lat="50.99170890" lon="39.19899373">
        <ele>0.0000000</ele>
        <time>2010-01-01T00:00:39Z</time>
      </trkpt>
      <trkpt lat="50.99266783" lon="39.19945507">
        <ele>0.0000000</ele>
        <time>2010-01-01T00:01:20Z</time>
      </trkpt>
      <trkpt lat="50.99349168" lon="39.19979840">
        <ele>0.0000000</ele>
        <time>2010-01-01T00:01:54Z</time>
      </trkpt>
      <trkpt lat="50.99396775" lon="39.20000761">
        <ele>0.0000000</ele>
        <time>2010-01-01T00:02:13Z</time>
      </trkpt>
      <trkpt lat="50.99438642" lon="39.20015245">
        <ele>0.0000000</ele>
        <time>2010-01-01T00:02:31Z</time>
      </trkpt>
      <trkpt lat="50.99507857" lon="39.20047968">
        <ele>0.0000000</ele>
        <time>2010-01-01T00:03:00Z</time>
      </trkpt>
      <trkpt lat="50.99560527" lon="39.20070498">
        <ele>0.0000000</ele>
        <time>2010-01-01T00:03:21Z</time>
      </trkpt>
      <trkpt lat="50.99692199" lon="39.20126825">
        <ele>0.0000000</ele>
        <time>2010-01-01T00:04:16Z</time>
      </trkpt>
      <trkpt lat="50.99746892" lon="39.20154183">
        <ele>0.0000000</ele>
        <time>2010-01-01T00:04:39Z</time>
      </trkpt>
      <trkpt lat="50.99904217" lon="39.20226066">
        <ele>0.0000000</ele>
        <time>2010-01-01T00:05:44Z</time>
      </trkpt>
      <trkpt lat="50.99996043" lon="39.20258253">
        <ele>0.0000000</ele>
        <time>2010-01-01T00:06:22Z</time>
      </trkpt>
      <trkpt lat="51.00054109" lon="39.20265763">
        <ele>0.0000000</ele>
        <time>2010-01-01T00:06:45Z</time>
      </trkpt>
      <trkpt lat="51.00110149" lon="39.20267909">
        <ele>0.0000000</ele>
        <time>2010-01-01T00:07:08Z</time>
      </trkpt>
      <trkpt lat="51.00162137" lon="39.20268982">
        <ele>0.0000000</ele>
        <time>2010-01-01T00:07:29Z</time>
      </trkpt>
      <trkpt lat="51.00214799" lon="39.20262544">
        <ele>0.0000000</ele>
        <time>2010-01-01T00:07:50Z</time>
      </trkpt>
      <trkpt lat="51.00334300" lon="39.20267909">
        <ele>0.0000000</ele>
        <time>2010-01-01T00:08:38Z</time>
      </trkpt>
      <trkpt lat="51.00527386" lon="39.20258253">
        <ele>0.0000000</ele>
        <time>2010-01-01T00:09:55Z</time>
      </trkpt>
      <trkpt lat="51.00638778" lon="39.20255034">
        <ele>0.0000000</ele>
        <time>2010-01-01T00:10:40Z</time>
      </trkpt>
      <trkpt lat="51.00790672" lon="39.20260399">
        <ele>0.0000000</ele>
        <time>2010-01-01T00:11:40Z</time>
      </trkpt>
      <trkpt lat="51.00936485" lon="39.20351594">
        <ele>0.0000000</ele>
        <time>2010-01-01T00:12:43Z</time>
      </trkpt>
      <trkpt lat="51.01069468" lon="39.20450299">
        <ele>0.0000000</ele>
        <time>2010-01-01T00:13:42Z</time>
      </trkpt>
      <trkpt lat="51.01399547" lon="39.20722812">
        <ele>0.0000000</ele>
        <time>2010-01-01T00:16:11Z</time>
      </trkpt>
      <trkpt lat="51.01578414" lon="39.20864432">
        <ele>0.0000000</ele>
        <time>2010-01-01T00:17:31Z</time>
      </trkpt>
      <trkpt lat="51.01636460" lon="39.20909493">
        <ele>0.0000000</ele>
        <time>2010-01-01T00:17:57Z</time>
      </trkpt>
      <trkpt lat="51.01660759" lon="39.20923441">
        <ele>0.0000000</ele>
        <time>2010-01-01T00:18:07Z</time>
      </trkpt>
      <trkpt lat="51.01669533" lon="39.20916467">
        <ele>0.0000000</ele>
        <time>2010-01-01T00:18:11Z</time>
      </trkpt>
      <trkpt lat="51.01674932" lon="39.20903056">
        <ele>0.0000000</ele>
        <time>2010-01-01T00:18:15Z</time>
      </trkpt>
      <trkpt lat="51.01679826" lon="39.20882135">
        <ele>0.0000000</ele>
        <time>2010-01-01T00:18:20Z</time>
      </trkpt>
      <trkpt lat="51.01680501" lon="39.20866041">
        <ele>0.0000000</ele>
        <time>2010-01-01T00:18:25Z</time>
      </trkpt>
      <trkpt lat="51.01685900" lon="39.20855849">
        <ele>0.0000000</ele>
        <time>2010-01-01T00:18:28Z</time>
      </trkpt>
      <trkpt lat="51.01693156" lon="39.20847266">
        <ele>0.0000000</ele>
        <time>2010-01-01T00:18:32Z</time>
      </trkpt>
      <trkpt lat="51.01701930" lon="39.20841365">
        <ele>0.0000000</ele>
        <time>2010-01-01T00:18:35Z</time>
      </trkpt>
      <trkpt lat="51.01716272" lon="39.20830636">
        <ele>0.0000000</ele>
        <time>2010-01-01T00:18:42Z</time>
      </trkpt>
      <trkpt lat="51.01728928" lon="39.20823394">
        <ele>0.0000000</ele>
        <time>2010-01-01T00:18:47Z</time>
      </trkpt>
      <trkpt lat="51.01785116" lon="39.20800596">
        <ele>0.0000000</ele>
        <time>2010-01-01T00:19:10Z</time>
      </trkpt>
      <trkpt lat="51.01839953" lon="39.20779943">
        <ele>0.0000000</ele>
        <time>2010-01-01T00:19:33Z</time>
      </trkpt>
      <trkpt lat="51.01926848" lon="39.20767068">
        <ele>0.0000000</ele>
        <time>2010-01-01T00:20:08Z</time>
      </trkpt>
      <trkpt lat="51.01970042" lon="39.20746415">
        <ele>0.0000000</ele>
        <time>2010-01-01T00:20:26Z</time>
      </trkpt>
      <trkpt lat="51.02000244" lon="39.20730053">
        <ele>0.0000000</ele>
        <time>2010-01-01T00:20:39Z</time>
      </trkpt>
      <trkpt lat="51.02012392" lon="39.20723080">
        <ele>0.0000000</ele>
        <time>2010-01-01T00:20:44Z</time>
      </trkpt>
      <trkpt lat="51.02029939" lon="39.20717447">
        <ele>0.0000000</ele>
        <time>2010-01-01T00:20:51Z</time>
      </trkpt>
      <trkpt lat="51.02045124" lon="39.20718520">
        <ele>0.0000000</ele>
        <time>2010-01-01T00:20:57Z</time>
      </trkpt>
      <trkpt lat="51.02055585" lon="39.20719861">
        <ele>0.0000000</ele>
        <time>2010-01-01T00:21:01Z</time>
      </trkpt>
      <trkpt lat="51.02066721" lon="39.20712351">
        <ele>0.0000000</ele>
        <time>2010-01-01T00:21:06Z</time>
      </trkpt>
      <trkpt lat="51.02079712" lon="39.20704573">
        <ele>0.0000000</ele>
        <time>2010-01-01T00:21:12Z</time>
      </trkpt>
      <trkpt lat="51.02095741" lon="39.20697867">
        <ele>0.0000000</ele>
        <time>2010-01-01T00:21:18Z</time>
      </trkpt>
      <trkpt lat="51.02124761" lon="39.20685797">
        <ele>0.0000000</ele>
        <time>2010-01-01T00:21:30Z</time>
      </trkpt>
      <trkpt lat="51.02163397" lon="39.20667290">
        <ele>0.0000000</ele>
        <time>2010-01-01T00:21:46Z</time>
      </trkpt>
      <trkpt lat="51.02188367" lon="39.20657902">
        <ele>0.0000000</ele>
        <time>2010-01-01T00:21:57Z</time>
      </trkpt>
      <trkpt lat="51.02214181" lon="39.20654147">
        <ele>0.0000000</ele>
        <time>2010-01-01T00:22:07Z</time>
      </trkpt>
      <trkpt lat="51.02227510" lon="39.20648783">
        <ele>0.0000000</ele>
        <time>2010-01-01T00:22:13Z</time>
      </trkpt>
      <trkpt lat="51.02258891" lon="39.20651465">
        <ele>0.0000000</ele>
        <time>2010-01-01T00:22:25Z</time>
      </trkpt>
      <trkpt lat="51.02295333" lon="39.20654415">
        <ele>0.0000000</ele>
        <time>2010-01-01T00:22:40Z</time>
      </trkpt>
      <trkpt lat="51.02325195" lon="39.20658707">
        <ele>0.0000000</ele>
        <time>2010-01-01T00:22:52Z</time>
      </trkpt>
      <trkpt lat="51.02353539" lon="39.20658170">
        <ele>0.0000000</ele>
        <time>2010-01-01T00:23:03Z</time>
      </trkpt>
      <trkpt lat="51.02384244" lon="39.20656829">
        <ele>0.0000000</ele>
        <time>2010-01-01T00:23:15Z</time>
      </trkpt>
      <trkpt lat="51.02411406" lon="39.20649855">
        <ele>0.0000000</ele>
        <time>2010-01-01T00:23:26Z</time>
      </trkpt>
      <trkpt lat="51.02442449" lon="39.20639395">
        <ele>0.0000000</ele>
        <time>2010-01-01T00:23:39Z</time>
      </trkpt>
      <trkpt lat="51.02475515" lon="39.20620619">
        <ele>0.0000000</ele>
        <time>2010-01-01T00:23:53Z</time>
      </trkpt>
      <trkpt lat="51.02509425" lon="39.20602112">
        <ele>0.0000000</ele>
        <time>2010-01-01T00:24:08Z</time>
      </trkpt>
      <trkpt lat="51.02537936" lon="39.20590310">
        <ele>0.0000000</ele>
        <time>2010-01-01T00:24:19Z</time>
      </trkpt>
      <trkpt lat="51.02577750" lon="39.20577168">
        <ele>0.0000000</ele>
        <time>2010-01-01T00:24:36Z</time>
      </trkpt>
      <trkpt lat="51.02606936" lon="39.20570462">
        <ele>0.0000000</ele>
        <time>2010-01-01T00:24:47Z</time>
      </trkpt>
      <trkpt lat="51.02651136" lon="39.20558929">
        <ele>0.0000000</ele>
        <time>2010-01-01T00:25:05Z</time>
      </trkpt>
      <trkpt lat="51.02686225" lon="39.20551150">
        <ele>0.0000000</ele>
        <time>2010-01-01T00:25:20Z</time>
      </trkpt>
      <trkpt lat="51.02750162" lon="39.20534789">
        <ele>0.0000000</ele>
        <time>2010-01-01T00:25:45Z</time>
      </trkpt>
      <trkpt lat="51.02785251" lon="39.20524865">
        <ele>0.0000000</ele>
        <time>2010-01-01T00:26:00Z</time>
      </trkpt>
      <trkpt lat="51.02835184" lon="39.20500188">
        <ele>0.0000000</ele>
        <time>2010-01-01T00:26:21Z</time>
      </trkpt>
      <trkpt lat="51.02889841" lon="39.20468002">
        <ele>0.0000000</ele>
        <time>2010-01-01T00:26:44Z</time>
      </trkpt>
      <trkpt lat="51.02945171" lon="39.20437961">
        <ele>0.0000000</ele>
        <time>2010-01-01T00:27:07Z</time>
      </trkpt>
      <trkpt lat="51.03003200" lon="39.20415430">
        <ele>0.0000000</ele>
        <time>2010-01-01T00:27:31Z</time>
      </trkpt>
      <trkpt lat="51.03038624" lon="39.20407920">
        <ele>0.0000000</ele>
        <time>2010-01-01T00:27:46Z</time>
      </trkpt>
      <trkpt lat="51.03055156" lon="39.20397728">
        <ele>0.0000000</ele>
        <time>2010-01-01T00:27:53Z</time>
      </trkpt>
      <trkpt lat="51.03081470" lon="39.20395046">
        <ele>0.0000000</ele>
        <time>2010-01-01T00:28:03Z</time>
      </trkpt>
      <trkpt lat="51.03151643" lon="39.20388072">
        <ele>0.0000000</ele>
        <time>2010-01-01T00:28:31Z</time>
      </trkpt>
      <trkpt lat="51.03221814" lon="39.20373051">
        <ele>0.0000000</ele>
        <time>2010-01-01T00:29:00Z</time>
      </trkpt>
      <trkpt lat="51.03263646" lon="39.20369296">
        <ele>0.0000000</ele>
        <time>2010-01-01T00:29:17Z</time>
      </trkpt>
      <trkpt lat="51.03296033" lon="39.20357495">
        <ele>0.0000000</ele>
        <time>2010-01-01T00:29:30Z</time>
      </trkpt>
      <trkpt lat="51.03333141" lon="39.20355349">
        <ele>0.0000000</ele>
        <time>2010-01-01T00:29:45Z</time>
      </trkpt>
      <trkpt lat="51.03365864" lon="39.20326917">
        <ele>0.0000000</ele>
        <time>2010-01-01T00:30:00Z</time>
      </trkpt>
      <trkpt lat="51.03406683" lon="39.20293658">
        <ele>0.0000000</ele>
        <time>2010-01-01T00:30:18Z</time>
      </trkpt>
      <trkpt lat="51.03441767" lon="39.20253425">
        <ele>0.0000000</ele>
        <time>2010-01-01T00:30:35Z</time>
      </trkpt>
      <trkpt lat="51.03466393" lon="39.20213192">
        <ele>0.0000000</ele>
        <time>2010-01-01T00:30:49Z</time>
      </trkpt>
      <trkpt lat="51.03477525" lon="39.20190661">
        <ele>0.0000000</ele>
        <time>2010-01-01T00:30:57Z</time>
      </trkpt>
      <trkpt lat="51.03512609" lon="39.20148282">
        <ele>0.0000000</ele>
        <time>2010-01-01T00:31:14Z</time>
      </trkpt>
      <trkpt lat="51.03544993" lon="39.20104831">
        <ele>0.0000000</ele>
        <time>2010-01-01T00:31:31Z</time>
      </trkpt>
      <trkpt lat="51.03576028" lon="39.20070498">
        <ele>0.0000000</ele>
        <time>2010-01-01T00:31:46Z</time>
      </trkpt>
      <trkpt lat="51.03601328" lon="39.20062452">
        <ele>0.0000000</ele>
        <time>2010-01-01T00:31:57Z</time>
      </trkpt>
      <trkpt lat="51.03623254" lon="39.20062452">
        <ele>0.0000000</ele>
        <time>2010-01-01T00:32:05Z</time>
      </trkpt>
      <trkpt lat="51.03644506" lon="39.20067280">
        <ele>0.0000000</ele>
        <time>2010-01-01T00:32:14Z</time>
      </trkpt>
      <trkpt lat="51.03664746" lon="39.20074253">
        <ele>0.0000000</ele>
        <time>2010-01-01T00:32:22Z</time>
      </trkpt>
      <trkpt lat="51.03694768" lon="39.20081227">
        <ele>0.0000000</ele>
        <time>2010-01-01T00:32:34Z</time>
      </trkpt>
      <trkpt lat="51.03784495" lon="39.20093565">
        <ele>0.0000000</ele>
        <time>2010-01-01T00:33:11Z</time>
      </trkpt>
      <trkpt lat="51.03828346" lon="39.20095711">
        <ele>0.0000000</ele>
        <time>2010-01-01T00:33:28Z</time>
      </trkpt>
      <trkpt lat="51.04035116" lon="39.20137554">
        <ele>0.0000000</ele>
        <time>2010-01-01T00:34:52Z</time>
      </trkpt>
      <trkpt lat="51.04208485" lon="39.20170813">
        <ele>0.0000000</ele>
        <time>2010-01-01T00:36:01Z</time>
      </trkpt>
      <trkpt lat="51.04805445" lon="39.20266300">
        <ele>0.0000000</ele>
        <time>2010-01-01T00:40:02Z</time>
      </trkpt>
      <trkpt lat="51.05392213" lon="39.20373588">
        <ele>0.0000000</ele>
        <time>2010-01-01T00:43:58Z</time>
      </trkpt>
      <trkpt lat="51.05813695" lon="39.20454054">
        <ele>0.0000000</ele>
        <time>2010-01-01T00:46:48Z</time>
      </trkpt>
      <trkpt lat="51.05830554" lon="39.20566707">
        <ele>0.0000000</ele>
        <time>2010-01-01T00:47:17Z</time>
      </trkpt>
      <trkpt lat="51.05831902" lon="39.20613914">
        <ele>0.0000000</ele>
        <time>2010-01-01T00:47:29Z</time>
      </trkpt>
      <trkpt lat="51.05835948" lon="39.20642882">
        <ele>0.0000000</ele>
        <time>2010-01-01T00:47:36Z</time>
      </trkpt>
      <trkpt lat="51.05838646" lon="39.20665412">
        <ele>0.0000000</ele>
        <time>2010-01-01T00:47:42Z</time>
      </trkpt>
      <trkpt lat="51.05842692" lon="39.20677214">
        <ele>0.0000000</ele>
        <time>2010-01-01T00:47:46Z</time>
      </trkpt>
      <trkpt lat="51.05860899" lon="39.20698672">
        <ele>0.0000000</ele>
        <time>2010-01-01T00:47:55Z</time>
      </trkpt>
      <trkpt lat="51.05875734" lon="39.20699745">
        <ele>0.0000000</ele>
        <time>2010-01-01T00:48:01Z</time>
      </trkpt>
      <trkpt lat="51.05899336" lon="39.20696526">
        <ele>0.0000000</ele>
        <time>2010-01-01T00:48:10Z</time>
      </trkpt>
      <trkpt lat="51.05926309" lon="39.20701890">
        <ele>0.0000000</ele>
        <time>2010-01-01T00:48:21Z</time>
      </trkpt>
      <trkpt lat="51.05946538" lon="39.20708328">
        <ele>0.0000000</ele>
        <time>2010-01-01T00:48:29Z</time>
      </trkpt>
      <trkpt lat="51.05981603" lon="39.20709400">
        <ele>0.0000000</ele>
        <time>2010-01-01T00:48:43Z</time>
      </trkpt>
      <trkpt lat="51.06018690" lon="39.20717984">
        <ele>0.0000000</ele>
        <time>2010-01-01T00:48:58Z</time>
      </trkpt>
      <trkpt lat="51.06060497" lon="39.20733004">
        <ele>0.0000000</ele>
        <time>2010-01-01T00:49:15Z</time>
      </trkpt>
      <trkpt lat="51.06095561" lon="39.20744806">
        <ele>0.0000000</ele>
        <time>2010-01-01T00:49:30Z</time>
      </trkpt>
      <trkpt lat="51.06119499" lon="39.20763045">
        <ele>0.0000000</ele>
        <time>2010-01-01T00:49:40Z</time>
      </trkpt>
      <trkpt lat="51.06137368" lon="39.20770018">
        <ele>0.0000000</ele>
        <time>2010-01-01T00:49:48Z</time>
      </trkpt>
      <trkpt lat="51.06149842" lon="39.20782357">
        <ele>0.0000000</ele>
        <time>2010-01-01T00:49:54Z</time>
      </trkpt>
      <trkpt lat="51.06162991" lon="39.20801668">
        <ele>0.0000000</ele>
        <time>2010-01-01T00:50:01Z</time>
      </trkpt>
      <trkpt lat="51.06167036" lon="39.20816152">
        <ele>0.0000000</ele>
        <time>2010-01-01T00:50:05Z</time>
      </trkpt>
      <trkpt lat="51.06174791" lon="39.20846193">
        <ele>0.0000000</ele>
        <time>2010-01-01T00:50:13Z</time>
      </trkpt>
      <trkpt lat="51.06182545" lon="39.20878380">
        <ele>0.0000000</ele>
        <time>2010-01-01T00:50:22Z</time>
      </trkpt>
      <trkpt lat="51.06191985" lon="39.20922368">
        <ele>0.0000000</ele>
        <time>2010-01-01T00:50:33Z</time>
      </trkpt>
      <trkpt lat="51.06203111" lon="39.20964747">
        <ele>0.0000000</ele>
        <time>2010-01-01T00:50:45Z</time>
      </trkpt>
      <trkpt lat="51.06210191" lon="39.20993715">
        <ele>0.0000000</ele>
        <time>2010-01-01T00:50:53Z</time>
      </trkpt>
      <trkpt lat="51.06217608" lon="39.21022682">
        <ele>0.0000000</ele>
        <time>2010-01-01T00:51:01Z</time>
      </trkpt>
      <trkpt lat="51.06223676" lon="39.21045213">
        <ele>0.0000000</ele>
        <time>2010-01-01T00:51:07Z</time>
      </trkpt>
      <trkpt lat="51.06228059" lon="39.21067744">
        <ele>0.0000000</ele>
        <time>2010-01-01T00:51:13Z</time>
      </trkpt>
      <trkpt lat="51.06232779" lon="39.21089738">
        <ele>0.0000000</ele>
        <time>2010-01-01T00:51:19Z</time>
      </trkpt>
      <trkpt lat="51.06235476" lon="39.21109586">
        <ele>0.0000000</ele>
        <time>2010-01-01T00:51:24Z</time>
      </trkpt>
      <trkpt lat="51.06233453" lon="39.21136408">
        <ele>0.0000000</ele>
        <time>2010-01-01T00:51:30Z</time>
      </trkpt>
      <trkpt lat="51.06235476" lon="39.21156257">
        <ele>0.0000000</ele>
        <time>2010-01-01T00:51:36Z</time>
      </trkpt>
      <trkpt lat="51.06241545" lon="39.21162694">
        <ele>0.0000000</ele>
        <time>2010-01-01T00:51:38Z</time>
      </trkpt>
      <trkpt lat="51.06248625" lon="39.21163767">
        <ele>0.0000000</ele>
        <time>2010-01-01T00:51:41Z</time>
      </trkpt>
      <trkpt lat="51.06262110" lon="39.21161084">
        <ele>0.0000000</ele>
        <time>2010-01-01T00:51:47Z</time>
      </trkpt>
      <trkpt lat="51.06283013" lon="39.21163230">
        <ele>0.0000000</ele>
        <time>2010-01-01T00:51:55Z</time>
      </trkpt>
      <trkpt lat="51.06311332" lon="39.21164303">
        <ele>0.0000000</ele>
        <time>2010-01-01T00:52:06Z</time>
      </trkpt>
      <trkpt lat="51.06376061" lon="39.21162694">
        <ele>0.0000000</ele>
        <time>2010-01-01T00:52:32Z</time>
      </trkpt>
      <trkpt lat="51.06442475" lon="39.21168595">
        <ele>0.0000000</ele>
        <time>2010-01-01T00:52:59Z</time>
      </trkpt>
      <trkpt lat="51.06493381" lon="39.21179324">
        <ele>0.0000000</ele>
        <time>2010-01-01T00:53:20Z</time>
      </trkpt>
      <trkpt lat="51.06550017" lon="39.21183615">
        <ele>0.0000000</ele>
        <time>2010-01-01T00:53:42Z</time>
      </trkpt>
      <trkpt lat="51.06596539" lon="39.21175568">
        <ele>0.0000000</ele>
        <time>2010-01-01T00:54:01Z</time>
      </trkpt>
      <trkpt lat="51.06619463" lon="39.21173423">
        <ele>0.0000000</ele>
        <time>2010-01-01T00:54:10Z</time>
      </trkpt>
      <trkpt lat="51.06690930" lon="39.21154647">
        <ele>0.0000000</ele>
        <time>2010-01-01T00:54:39Z</time>
      </trkpt>
      <trkpt lat="51.06765430" lon="39.21141773">
        <ele>0.0000000</ele>
        <time>2010-01-01T00:55:09Z</time>
      </trkpt>
      <trkpt lat="51.06815320" lon="39.21141236">
        <ele>0.0000000</ele>
        <time>2010-01-01T00:55:29Z</time>
      </trkpt>
      <trkpt lat="51.06878694" lon="39.21137481">
        <ele>0.0000000</ele>
        <time>2010-01-01T00:55:55Z</time>
      </trkpt>
      <trkpt lat="51.06941056" lon="39.21126752">
        <ele>0.0000000</ele>
        <time>2010-01-01T00:56:20Z</time>
      </trkpt>
      <trkpt lat="51.06976450" lon="39.21126752">
        <ele>0.0000000</ele>
        <time>2010-01-01T00:56:34Z</time>
      </trkpt>
      <trkpt lat="51.06999372" lon="39.21141236">
        <ele>0.0000000</ele>
        <time>2010-01-01T00:56:44Z</time>
      </trkpt>
      <trkpt lat="51.07020271" lon="39.21164303">
        <ele>0.0000000</ele>
        <time>2010-01-01T00:56:54Z</time>
      </trkpt>
      <trkpt lat="51.07057350" lon="39.21186297">
        <ele>0.0000000</ele>
        <time>2010-01-01T00:57:10Z</time>
      </trkpt>
      <trkpt lat="51.07153754" lon="39.21228676">
        <ele>0.0000000</ele>
        <time>2010-01-01T00:57:50Z</time>
      </trkpt>
      <trkpt lat="51.07223865" lon="39.21276419">
        <ele>0.0000000</ele>
        <time>2010-01-01T00:58:20Z</time>
      </trkpt>
      <trkpt lat="51.07281503" lon="39.21325236">
        <ele>0.0000000</ele>
        <time>2010-01-01T00:58:46Z</time>
      </trkpt>
      <trkpt lat="51.07318580" lon="39.21356886">
        <ele>0.0000000</ele>
        <time>2010-01-01T00:59:03Z</time>
      </trkpt>
      <trkpt lat="51.07333748" lon="39.21373515">
        <ele>0.0000000</ele>
        <time>2010-01-01T00:59:11Z</time>
      </trkpt>
      <trkpt lat="51.07340152" lon="39.21394437">
        <ele>0.0000000</ele>
        <time>2010-01-01T00:59:16Z</time>
      </trkpt>
      <trkpt lat="51.07344534" lon="39.21403556">
        <ele>0.0000000</ele>
        <time>2010-01-01T00:59:19Z</time>
      </trkpt>
      <trkpt lat="51.07362061" lon="39.21419649">
        <ele>0.0000000</ele>
        <time>2010-01-01T00:59:27Z</time>
      </trkpt>
      <trkpt lat="51.07375880" lon="39.21430378">
        <ele>0.0000000</ele>
        <time>2010-01-01T00:59:34Z</time>
      </trkpt>
      <trkpt lat="51.07391722" lon="39.21441644">
        <ele>0.0000000</ele>
        <time>2010-01-01T00:59:41Z</time>
      </trkpt>
      <trkpt lat="51.07414641" lon="39.21465247">
        <ele>0.0000000</ele>
        <time>2010-01-01T00:59:51Z</time>
      </trkpt>
      <trkpt lat="51.07446998" lon="39.21474903">
        <ele>0.0000000</ele>
        <time>2010-01-01T01:00:05Z</time>
      </trkpt>
      <trkpt lat="51.07474299" lon="39.21486973">
        <ele>0.0000000</ele>
        <time>2010-01-01T01:00:16Z</time>
      </trkpt>
      <trkpt lat="51.07495028" lon="39.21486973">
        <ele>0.0000000</ele>
        <time>2010-01-01T01:00:24Z</time>
      </trkpt>
      <trkpt lat="51.07512723" lon="39.21492069">
        <ele>0.0000000</ele>
        <time>2010-01-01T01:00:31Z</time>
      </trkpt>
      <trkpt lat="51.07534968" lon="39.21506553">
        <ele>0.0000000</ele>
        <time>2010-01-01T01:00:41Z</time>
      </trkpt>
      <trkpt lat="51.07556539" lon="39.21522110">
        <ele>0.0000000</ele>
        <time>2010-01-01T01:00:51Z</time>
      </trkpt>
      <trkpt lat="51.07571200" lon="39.21533107">
        <ele>0.0000000</ele>
        <time>2010-01-01T01:00:57Z</time>
      </trkpt>
      <trkpt lat="51.07593108" lon="39.21548395">
        <ele>0.0000000</ele>
        <time>2010-01-01T01:01:07Z</time>
      </trkpt>
      <trkpt lat="51.07624790" lon="39.21571462">
        <ele>0.0000000</ele>
        <time>2010-01-01T01:01:21Z</time>
      </trkpt>
      <trkpt lat="51.07651079" lon="39.21590238">
        <ele>0.0000000</ele>
        <time>2010-01-01T01:01:32Z</time>
      </trkpt>
      <trkpt lat="51.07671469" lon="39.21615182">
        <ele>0.0000000</ele>
        <time>2010-01-01T01:01:42Z</time>
      </trkpt>
      <trkpt lat="51.07685456" lon="39.21637981">
        <ele>0.0000000</ele>
        <time>2010-01-01T01:01:50Z</time>
      </trkpt>
      <trkpt lat="51.07698769" lon="39.21657561">
        <ele>0.0000000</ele>
        <time>2010-01-01T01:01:58Z</time>
      </trkpt>
      <trkpt lat="51.07710397" lon="39.21673118">
        <ele>0.0000000</ele>
        <time>2010-01-01T01:02:04Z</time>
      </trkpt>
      <trkpt lat="51.07722530" lon="39.21689748">
        <ele>0.0000000</ele>
        <time>2010-01-01T01:02:10Z</time>
      </trkpt>
      <trkpt lat="51.07728765" lon="39.21699940">
        <ele>0.0000000</ele>
        <time>2010-01-01T01:02:14Z</time>
      </trkpt>
      <trkpt lat="51.07745448" lon="39.21725421">
        <ele>0.0000000</ele>
        <time>2010-01-01T01:02:23Z</time>
      </trkpt>
      <trkpt lat="51.07767355" lon="39.21766727">
        <ele>0.0000000</ele>
        <time>2010-01-01T01:02:37Z</time>
      </trkpt>
      <trkpt lat="51.07780499" lon="39.21798377">
        <ele>0.0000000</ele>
        <time>2010-01-01T01:02:46Z</time>
      </trkpt>
      <trkpt lat="51.07791284" lon="39.21829491">
        <ele>0.0000000</ele>
        <time>2010-01-01T01:02:55Z</time>
      </trkpt>
      <trkpt lat="51.07795328" lon="39.21856313">
        <ele>0.0000000</ele>
        <time>2010-01-01T01:03:02Z</time>
      </trkpt>
      <trkpt lat="51.07793980" lon="39.21874552">
        <ele>0.0000000</ele>
        <time>2010-01-01T01:03:07Z</time>
      </trkpt>
      <trkpt lat="51.07789936" lon="39.21905129">
        <ele>0.0000000</ele>
        <time>2010-01-01T01:03:15Z</time>
      </trkpt>
      <trkpt lat="51.07788925" lon="39.21929806">
        <ele>0.0000000</ele>
        <time>2010-01-01T01:03:21Z</time>
      </trkpt>
      <trkpt lat="51.07787576" lon="39.21949654">
        <ele>0.0000000</ele>
        <time>2010-01-01T01:03:26Z</time>
      </trkpt>
      <trkpt lat="51.07782521" lon="39.21977012">
        <ele>0.0000000</ele>
        <time>2010-01-01T01:03:33Z</time>
      </trkpt>
      <trkpt lat="51.07774432" lon="39.22000616">
        <ele>0.0000000</ele>
        <time>2010-01-01T01:03:40Z</time>
      </trkpt>
      <trkpt lat="51.07763310" lon="39.22019928">
        <ele>0.0000000</ele>
        <time>2010-01-01T01:03:46Z</time>
      </trkpt>
      <trkpt lat="51.07753537" lon="39.22035485">
        <ele>0.0000000</ele>
        <time>2010-01-01T01:03:52Z</time>
      </trkpt>
      <trkpt lat="51.07740730" lon="39.22056406">
        <ele>0.0000000</ele>
        <time>2010-01-01T01:03:59Z</time>
      </trkpt>
      <trkpt lat="51.07730619" lon="39.22081082">
        <ele>0.0000000</ele>
        <time>2010-01-01T01:04:07Z</time>
      </trkpt>
      <trkpt lat="51.07721856" lon="39.22110586">
        <ele>0.0000000</ele>
        <time>2010-01-01T01:04:15Z</time>
      </trkpt>
      <trkpt lat="51.07712419" lon="39.22150283">
        <ele>0.0000000</ele>
        <time>2010-01-01T01:04:25Z</time>
      </trkpt>
      <trkpt lat="51.07708374" lon="39.22186761">
        <ele>0.0000000</ele>
        <time>2010-01-01T01:04:35Z</time>
      </trkpt>
      <trkpt lat="51.07709723" lon="39.22206073">
        <ele>0.0000000</ele>
        <time>2010-01-01T01:04:40Z</time>
      </trkpt>
      <trkpt lat="51.07720845" lon="39.22231286">
        <ele>0.0000000</ele>
        <time>2010-01-01T01:04:47Z</time>
      </trkpt>
      <trkpt lat="51.07725226" lon="39.22249525">
        <ele>0.0000000</ele>
        <time>2010-01-01T01:04:52Z</time>
      </trkpt>
      <trkpt lat="51.07729270" lon="39.22266691">
        <ele>0.0000000</ele>
        <time>2010-01-01T01:04:57Z</time>
      </trkpt>
      <trkpt lat="51.07735337" lon="39.22286003">
        <ele>0.0000000</ele>
        <time>2010-01-01T01:05:02Z</time>
      </trkpt>
      <trkpt lat="51.07742415" lon="39.22299950">
        <ele>0.0000000</ele>
        <time>2010-01-01T01:05:07Z</time>
      </trkpt>
      <trkpt lat="51.07747133" lon="39.22316580">
        <ele>0.0000000</ele>
        <time>2010-01-01T01:05:11Z</time>
      </trkpt>
      <trkpt lat="51.07750166" lon="39.22330528">
        <ele>0.0000000</ele>
        <time>2010-01-01T01:05:15Z</time>
      </trkpt>
      <trkpt lat="51.07752863" lon="39.22350376">
        <ele>0.0000000</ele>
        <time>2010-01-01T01:05:20Z</time>
      </trkpt>
      <trkpt lat="51.07755896" lon="39.22372370">
        <ele>0.0000000</ele>
        <time>2010-01-01T01:05:26Z</time>
      </trkpt>
      <trkpt lat="51.07759940" lon="39.22390073">
        <ele>0.0000000</ele>
        <time>2010-01-01T01:05:31Z</time>
      </trkpt>
      <trkpt lat="51.07762973" lon="39.22407775">
        <ele>0.0000000</ele>
        <time>2010-01-01T01:05:35Z</time>
      </trkpt>
      <trkpt lat="51.07764996" lon="39.22419577">
        <ele>0.0000000</ele>
        <time>2010-01-01T01:05:38Z</time>
      </trkpt>
      <trkpt lat="51.07766344" lon="39.22431379">
        <ele>0.0000000</ele>
        <time>2010-01-01T01:05:41Z</time>
      </trkpt>
      <trkpt lat="51.07767692" lon="39.22448008">
        <ele>0.0000000</ele>
        <time>2010-01-01T01:05:46Z</time>
      </trkpt>
      <trkpt lat="51.07771399" lon="39.22465175">
        <ele>0.0000000</ele>
        <time>2010-01-01T01:05:50Z</time>
      </trkpt>
      <trkpt lat="51.07772410" lon="39.22472148">
        <ele>0.0000000</ele>
        <time>2010-01-01T01:05:52Z</time>
      </trkpt>
      <trkpt lat="51.07771399" lon="39.22491460">
        <ele>0.0000000</ele>
        <time>2010-01-01T01:05:57Z</time>
      </trkpt>
      <trkpt lat="51.07769714" lon="39.22507017">
        <ele>0.0000000</ele>
        <time>2010-01-01T01:06:01Z</time>
      </trkpt>
      <trkpt lat="51.07754548" lon="39.22532766">
        <ele>0.0000000</ele>
        <time>2010-01-01T01:06:10Z</time>
      </trkpt>
      <trkpt lat="51.07746796" lon="39.22539740">
        <ele>0.0000000</ele>
        <time>2010-01-01T01:06:13Z</time>
      </trkpt>
      <trkpt lat="51.07742078" lon="39.22550469">
        <ele>0.0000000</ele>
        <time>2010-01-01T01:06:17Z</time>
      </trkpt>
      <trkpt lat="51.07733652" lon="39.22564416">
        <ele>0.0000000</ele>
        <time>2010-01-01T01:06:21Z</time>
      </trkpt>
      <trkpt lat="51.07721856" lon="39.22597676">
        <ele>0.0000000</ele>
        <time>2010-01-01T01:06:31Z</time>
      </trkpt>
      <trkpt lat="51.07721519" lon="39.22612696">
        <ele>0.0000000</ele>
        <time>2010-01-01T01:06:35Z</time>
      </trkpt>
      <trkpt lat="51.07722530" lon="39.22626107">
        <ele>0.0000000</ele>
        <time>2010-01-01T01:06:38Z</time>
      </trkpt>
      <trkpt lat="51.07726237" lon="39.22642737">
        <ele>0.0000000</ele>
        <time>2010-01-01T01:06:43Z</time>
      </trkpt>
      <trkpt lat="51.07729608" lon="39.22658830">
        <ele>0.0000000</ele>
        <time>2010-01-01T01:06:47Z</time>
      </trkpt>
      <trkpt lat="51.07736011" lon="39.22682433">
        <ele>0.0000000</ele>
        <time>2010-01-01T01:06:53Z</time>
      </trkpt>
      <trkpt lat="51.07740730" lon="39.22697454">
        <ele>0.0000000</ele>
        <time>2010-01-01T01:06:58Z</time>
      </trkpt>
      <trkpt lat="51.07748144" lon="39.22722130">
        <ele>0.0000000</ele>
        <time>2010-01-01T01:07:04Z</time>
      </trkpt>
      <trkpt lat="51.07754885" lon="39.22738760">
        <ele>0.0000000</ele>
        <time>2010-01-01T01:07:09Z</time>
      </trkpt>
      <trkpt lat="51.07758929" lon="39.22761290">
        <ele>0.0000000</ele>
        <time>2010-01-01T01:07:15Z</time>
      </trkpt>
      <trkpt lat="51.07765670" lon="39.22778457">
        <ele>0.0000000</ele>
        <time>2010-01-01T01:07:20Z</time>
      </trkpt>
      <trkpt lat="51.07772073" lon="39.22795623">
        <ele>0.0000000</ele>
        <time>2010-01-01T01:07:25Z</time>
      </trkpt>
      <trkpt lat="51.07840826" lon="39.22995179">
        <ele>0.0000000</ele>
        <time>2010-01-01T01:08:23Z</time>
      </trkpt>
      <trkpt lat="51.07892728" lon="39.23160940">
        <ele>0.0000000</ele>
        <time>2010-01-01T01:09:09Z</time>
      </trkpt>
      <trkpt lat="51.07907219" lon="39.23207074">
        <ele>0.0000000</ele>
        <time>2010-01-01T01:09:22Z</time>
      </trkpt>
      <trkpt lat="51.07915308" lon="39.23230141">
        <ele>0.0000000</ele>
        <time>2010-01-01T01:09:29Z</time>
      </trkpt>
      <trkpt lat="51.07919015" lon="39.23238724">
        <ele>0.0000000</ele>
        <time>2010-01-01T01:09:31Z</time>
      </trkpt>
      <trkpt lat="51.07925081" lon="39.23245161">
        <ele>0.0000000</ele>
        <time>2010-01-01T01:09:34Z</time>
      </trkpt>
      <trkpt lat="51.07932833" lon="39.23243015">
        <ele>0.0000000</ele>
        <time>2010-01-01T01:09:38Z</time>
      </trkpt>
      <trkpt lat="51.07939910" lon="39.23234968">
        <ele>0.0000000</ele>
        <time>2010-01-01T01:09:41Z</time>
      </trkpt>
      <trkpt lat="51.07947661" lon="39.23229604">
        <ele>0.0000000</ele>
        <time>2010-01-01T01:09:44Z</time>
      </trkpt>
      <trkpt lat="51.07954065" lon="39.23224240">
        <ele>0.0000000</ele>
        <time>2010-01-01T01:09:47Z</time>
      </trkpt>
      <trkpt lat="51.07964849" lon="39.23223167">
        <ele>0.0000000</ele>
        <time>2010-01-01T01:09:52Z</time>
      </trkpt>
      <trkpt lat="51.07974286" lon="39.23234432">
        <ele>0.0000000</ele>
        <time>2010-01-01T01:09:56Z</time>
      </trkpt>
      <trkpt lat="51.07986081" lon="39.23266619">
        <ele>0.0000000</ele>
        <time>2010-01-01T01:10:06Z</time>
      </trkpt>
      <trkpt lat="51.07995180" lon="39.23289149">
        <ele>0.0000000</ele>
        <time>2010-01-01T01:10:12Z</time>
      </trkpt>
      <trkpt lat="51.08004617" lon="39.23310607">
        <ele>0.0000000</ele>
        <time>2010-01-01T01:10:19Z</time>
      </trkpt>
      <trkpt lat="51.08010683" lon="39.23329382">
        <ele>0.0000000</ele>
        <time>2010-01-01T01:10:24Z</time>
      </trkpt>
      <trkpt lat="51.08016412" lon="39.23351376">
        <ele>0.0000000</ele>
        <time>2010-01-01T01:10:30Z</time>
      </trkpt>
      <trkpt lat="51.08019782" lon="39.23375516">
        <ele>0.0000000</ele>
        <time>2010-01-01T01:10:37Z</time>
      </trkpt>
      <trkpt lat="51.08020119" lon="39.23412531">
        <ele>0.0000000</ele>
        <time>2010-01-01T01:10:46Z</time>
      </trkpt>
      <trkpt lat="51.08014390" lon="39.23437743">
        <ele>0.0000000</ele>
        <time>2010-01-01T01:10:53Z</time>
      </trkpt>
      <trkpt lat="51.08015064" lon="39.23463493">
        <ele>0.0000000</ele>
        <time>2010-01-01T01:10:59Z</time>
      </trkpt>
      <trkpt lat="51.08023826" lon="39.23523574">
        <ele>0.0000000</ele>
        <time>2010-01-01T01:11:15Z</time>
      </trkpt>
      <trkpt lat="51.08027533" lon="39.23545568">
        <ele>0.0000000</ele>
        <time>2010-01-01T01:11:20Z</time>
      </trkpt>
      <trkpt lat="51.08036970" lon="39.23564880">
        <ele>0.0000000</ele>
        <time>2010-01-01T01:11:26Z</time>
      </trkpt>
      <trkpt lat="51.08048428" lon="39.23598140">
        <ele>0.0000000</ele>
        <time>2010-01-01T01:11:36Z</time>
      </trkpt>
      <trkpt lat="51.08064267" lon="39.23593848">
        <ele>0.0000000</ele>
        <time>2010-01-01T01:11:42Z</time>
      </trkpt>
      <trkpt lat="51.08082466" lon="39.23577218">
        <ele>0.0000000</ele>
        <time>2010-01-01T01:11:51Z</time>
      </trkpt>
      <trkpt lat="51.08104371" lon="39.23559516">
        <ele>0.0000000</ele>
        <time>2010-01-01T01:12:01Z</time>
      </trkpt>
      <trkpt lat="51.08130320" lon="39.23535376">
        <ele>0.0000000</ele>
        <time>2010-01-01T01:12:13Z</time>
      </trkpt>
      <trkpt lat="51.08161661" lon="39.23515528">
        <ele>0.0000000</ele>
        <time>2010-01-01T01:12:26Z</time>
      </trkpt>
      <trkpt lat="51.08190980" lon="39.23499971">
        <ele>0.0000000</ele>
        <time>2010-01-01T01:12:39Z</time>
      </trkpt>
      <trkpt lat="51.08211200" lon="39.23503189">
        <ele>0.0000000</ele>
        <time>2010-01-01T01:12:47Z</time>
      </trkpt>
      <trkpt lat="51.08228724" lon="39.23545032">
        <ele>0.0000000</ele>
        <time>2010-01-01T01:12:59Z</time>
      </trkpt>
      <trkpt lat="51.08247595" lon="39.23584729">
        <ele>0.0000000</ele>
        <time>2010-01-01T01:13:12Z</time>
      </trkpt>
      <trkpt lat="51.08261749" lon="39.23634081">
        <ele>0.0000000</ele>
        <time>2010-01-01T01:13:26Z</time>
      </trkpt>
      <trkpt lat="51.08269837" lon="39.23682361">
        <ele>0.0000000</ele>
        <time>2010-01-01T01:13:38Z</time>
      </trkpt>
      <trkpt lat="51.08278598" lon="39.23720985">
        <ele>0.0000000</ele>
        <time>2010-01-01T01:13:48Z</time>
      </trkpt>
      <trkpt lat="51.08288034" lon="39.23748880">
        <ele>0.0000000</ele>
        <time>2010-01-01T01:13:56Z</time>
      </trkpt>
      <trkpt lat="51.08301514" lon="39.23785358">
        <ele>0.0000000</ele>
        <time>2010-01-01T01:14:07Z</time>
      </trkpt>
      <trkpt lat="51.08317015" lon="39.23825054">
        <ele>0.0000000</ele>
        <time>2010-01-01T01:14:19Z</time>
      </trkpt>
      <trkpt lat="51.08339930" lon="39.23861533">
        <ele>0.0000000</ele>
        <time>2010-01-01T01:14:32Z</time>
      </trkpt>
      <trkpt lat="51.08363519" lon="39.23900156">
        <ele>0.0000000</ele>
        <time>2010-01-01T01:14:45Z</time>
      </trkpt>
      <trkpt lat="51.08377673" lon="39.23931270">
        <ele>0.0000000</ele>
        <time>2010-01-01T01:14:55Z</time>
      </trkpt>
      <trkpt lat="51.08391152" lon="39.23961311">
        <ele>0.0000000</ele>
        <time>2010-01-01T01:15:04Z</time>
      </trkpt>
      <trkpt lat="51.08435634" lon="39.24084692">
        <ele>0.0000000</ele>
        <time>2010-01-01T01:15:40Z</time>
      </trkpt>
      <trkpt lat="51.08477419" lon="39.24167304">
        <ele>0.0000000</ele>
        <time>2010-01-01T01:16:07Z</time>
      </trkpt>
      <trkpt lat="51.08529987" lon="39.24254208">
        <ele>0.0000000</ele>
        <time>2010-01-01T01:16:37Z</time>
      </trkpt>
      <trkpt lat="51.08571097" lon="39.24303561">
        <ele>0.0000000</ele>
        <time>2010-01-01T01:16:58Z</time>
      </trkpt>
      <trkpt lat="51.08600077" lon="39.24352913">
        <ele>0.0000000</ele>
        <time>2010-01-01T01:17:15Z</time>
      </trkpt>
      <trkpt lat="51.08618947" lon="39.24382954">
        <ele>0.0000000</ele>
        <time>2010-01-01T01:17:25Z</time>
      </trkpt>
      <trkpt lat="51.08658709" lon="39.24421578">
        <ele>0.0000000</ele>
        <time>2010-01-01T01:17:44Z</time>
      </trkpt>
      <trkpt lat="51.08722057" lon="39.24496680">
        <ele>0.0000000</ele>
        <time>2010-01-01T01:18:16Z</time>
      </trkpt>
      <trkpt lat="51.08815731" lon="39.24594312">
        <ele>0.0000000</ele>
        <time>2010-01-01T01:19:00Z</time>
      </trkpt>
      <trkpt lat="51.08932989" lon="39.24680143">
        <ele>0.0000000</ele>
        <time>2010-01-01T01:19:52Z</time>
      </trkpt>
      <trkpt lat="51.09085959" lon="39.24767046">
        <ele>0.0000000</ele>
        <time>2010-01-01T01:20:57Z</time>
      </trkpt>
      <trkpt lat="51.09218034" lon="39.24832492">
        <ele>0.0000000</ele>
        <time>2010-01-01T01:21:52Z</time>
      </trkpt>
      <trkpt lat="51.09399969" lon="39.24919396">
        <ele>0.0000000</ele>
        <time>2010-01-01T01:23:08Z</time>
      </trkpt>
      <trkpt lat="51.09539447" lon="39.24986987">
        <ele>0.0000000</ele>
        <time>2010-01-01T01:24:07Z</time>
      </trkpt>
      <trkpt lat="51.09653991" lon="39.25043850">
        <ele>0.0000000</ele>
        <time>2010-01-01T01:24:55Z</time>
      </trkpt>
      <trkpt lat="51.09777292" lon="39.25065308">
        <ele>0.0000000</ele>
        <time>2010-01-01T01:25:45Z</time>
      </trkpt>
      <trkpt lat="51.09859490" lon="39.25065308">
        <ele>0.0000000</ele>
        <time>2010-01-01T01:26:17Z</time>
      </trkpt>
      <trkpt lat="51.09928886" lon="39.25052433">
        <ele>0.0000000</ele>
        <time>2010-01-01T01:26:45Z</time>
      </trkpt>
      <trkpt lat="51.10056222" lon="39.25015955">
        <ele>0.0000000</ele>
        <time>2010-01-01T01:27:37Z</time>
      </trkpt>
      <trkpt lat="51.10164016" lon="39.24984842">
        <ele>0.0000000</ele>
        <time>2010-01-01T01:28:21Z</time>
      </trkpt>
      <trkpt lat="51.10277197" lon="39.24956947">
        <ele>0.0000000</ele>
        <time>2010-01-01T01:29:07Z</time>
      </trkpt>
      <trkpt lat="51.10406544" lon="39.24934416">
        <ele>0.0000000</ele>
        <time>2010-01-01T01:29:59Z</time>
      </trkpt>
      <trkpt lat="51.10469195" lon="39.24915104">
        <ele>0.0000000</ele>
        <time>2010-01-01T01:30:25Z</time>
      </trkpt>
      <trkpt lat="51.10504899" lon="39.24911886">
        <ele>0.0000000</ele>
        <time>2010-01-01T01:30:39Z</time>
      </trkpt>
      <trkpt lat="51.10546666" lon="39.24910813">
        <ele>0.0000000</ele>
        <time>2010-01-01T01:30:56Z</time>
      </trkpt>
      <trkpt lat="51.10599211" lon="39.24963384">
        <ele>0.0000000</ele>
        <time>2010-01-01T01:31:20Z</time>
      </trkpt>
      <trkpt lat="51.10649734" lon="39.25003081">
        <ele>0.0000000</ele>
        <time>2010-01-01T01:31:43Z</time>
      </trkpt>
      <trkpt lat="51.10692846" lon="39.25028830">
        <ele>0.0000000</ele>
        <time>2010-01-01T01:32:01Z</time>
      </trkpt>
      <trkpt lat="51.10750778" lon="39.25050288">
        <ele>0.0000000</ele>
        <time>2010-01-01T01:32:25Z</time>
      </trkpt>
      <trkpt lat="51.10793890" lon="39.25085693">
        <ele>0.0000000</ele>
        <time>2010-01-01T01:32:45Z</time>
      </trkpt>
      <trkpt lat="51.10829591" lon="39.25128608">
        <ele>0.0000000</ele>
        <time>2010-01-01T01:33:03Z</time>
      </trkpt>
      <trkpt lat="51.10859230" lon="39.25173669">
        <ele>0.0000000</ele>
        <time>2010-01-01T01:33:19Z</time>
      </trkpt>
      <trkpt lat="51.10888868" lon="39.25233751">
        <ele>0.0000000</ele>
        <time>2010-01-01T01:33:38Z</time>
      </trkpt>
      <trkpt lat="51.10915812" lon="39.25294905">
        <ele>0.0000000</ele>
        <time>2010-01-01T01:33:57Z</time>
      </trkpt>
      <trkpt lat="51.10939388" lon="39.25365715">
        <ele>0.0000000</ele>
        <time>2010-01-01T01:34:17Z</time>
      </trkpt>
      <trkpt lat="51.10971721" lon="39.25447254">
        <ele>0.0000000</ele>
        <time>2010-01-01T01:34:41Z</time>
      </trkpt>
      <trkpt lat="51.11012809" lon="39.25572782">
        <ele>0.0000000</ele>
        <time>2010-01-01T01:35:17Z</time>
      </trkpt>
      <trkpt lat="51.11084882" lon="39.25810962">
        <ele>0.0000000</ele>
        <time>2010-01-01T01:36:23Z</time>
      </trkpt>
      <trkpt lat="51.11171772" lon="39.26064163">
        <ele>0.0000000</ele>
        <time>2010-01-01T01:37:36Z</time>
      </trkpt>
      <trkpt lat="51.11200062" lon="39.26162868">
        <ele>0.0000000</ele>
        <time>2010-01-01T01:38:03Z</time>
      </trkpt>
      <trkpt lat="51.11293685" lon="39.26425724">
        <ele>0.0000000</ele>
        <time>2010-01-01T01:39:19Z</time>
      </trkpt>
      <trkpt lat="51.11359692" lon="39.26669269">
        <ele>0.0000000</ele>
        <time>2010-01-01T01:40:26Z</time>
      </trkpt>
      <trkpt lat="51.11437821" lon="39.26936417">
        <ele>0.0000000</ele>
        <time>2010-01-01T01:41:40Z</time>
      </trkpt>
      <trkpt lat="51.11453312" lon="39.27016883">
        <ele>0.0000000</ele>
        <time>2010-01-01T01:42:01Z</time>
      </trkpt>
      <trkpt lat="51.11458027" lon="39.27061944">
        <ele>0.0000000</ele>
        <time>2010-01-01T01:42:12Z</time>
      </trkpt>
      <trkpt lat="51.11459374" lon="39.27083402">
        <ele>0.0000000</ele>
        <time>2010-01-01T01:42:18Z</time>
      </trkpt>
      <trkpt lat="51.11469477" lon="39.27261501">
        <ele>0.0000000</ele>
        <time>2010-01-01T01:43:03Z</time>
      </trkpt>
      <trkpt lat="51.11479579" lon="39.27452474">
        <ele>0.0000000</ele>
        <time>2010-01-01T01:43:51Z</time>
      </trkpt>
      <trkpt lat="51.11483620" lon="39.27540450">
        <ele>0.0000000</ele>
        <time>2010-01-01T01:44:13Z</time>
      </trkpt>
      <trkpt lat="51.11480253" lon="39.27606969">
        <ele>0.0000000</ele>
        <time>2010-01-01T01:44:30Z</time>
      </trkpt>
      <trkpt lat="51.11484967" lon="39.27674561">
        <ele>0.0000000</ele>
        <time>2010-01-01T01:44:47Z</time>
      </trkpt>
      <trkpt lat="51.11512581" lon="39.27697091">
        <ele>0.0000000</ele>
        <time>2010-01-01T01:44:59Z</time>
      </trkpt>
      <trkpt lat="51.11562421" lon="39.27718549">
        <ele>0.0000000</ele>
        <time>2010-01-01T01:45:20Z</time>
      </trkpt>
      <trkpt lat="51.11611586" lon="39.27734642">
        <ele>0.0000000</ele>
        <time>2010-01-01T01:45:40Z</time>
      </trkpt>
      <trkpt lat="51.11707222" lon="39.27755027">
        <ele>0.0000000</ele>
        <time>2010-01-01T01:46:19Z</time>
      </trkpt>
      <trkpt lat="51.11769855" lon="39.27776485">
        <ele>0.0000000</ele>
        <time>2010-01-01T01:46:44Z</time>
      </trkpt>
      <trkpt lat="51.11898487" lon="39.27847295">
        <ele>0.0000000</ele>
        <time>2010-01-01T01:47:39Z</time>
      </trkpt>
      <trkpt lat="51.12025095" lon="39.27905231">
        <ele>0.0000000</ele>
        <time>2010-01-01T01:48:32Z</time>
      </trkpt>
      <trkpt lat="51.12076276" lon="39.27935272">
        <ele>0.0000000</ele>
        <time>2010-01-01T01:48:53Z</time>
      </trkpt>
      <trkpt lat="51.12112641" lon="39.27964239">
        <ele>0.0000000</ele>
        <time>2010-01-01T01:49:10Z</time>
      </trkpt>
      <trkpt lat="51.12151026" lon="39.27988916">
        <ele>0.0000000</ele>
        <time>2010-01-01T01:49:26Z</time>
      </trkpt>
      <trkpt lat="51.12186717" lon="39.28008228">
        <ele>0.0000000</ele>
        <time>2010-01-01T01:49:41Z</time>
      </trkpt>
      <trkpt lat="51.12212306" lon="39.28022175">
        <ele>0.0000000</ele>
        <time>2010-01-01T01:49:52Z</time>
      </trkpt>
      <trkpt lat="51.12230488" lon="39.28042560">
        <ele>0.0000000</ele>
        <time>2010-01-01T01:50:01Z</time>
      </trkpt>
      <trkpt lat="51.12225101" lon="39.28083330">
        <ele>0.0000000</ele>
        <time>2010-01-01T01:50:12Z</time>
      </trkpt>
      <trkpt lat="51.12219040" lon="39.28123026">
        <ele>0.0000000</ele>
        <time>2010-01-01T01:50:22Z</time>
      </trkpt>
      <trkpt lat="51.12210959" lon="39.28163796">
        <ele>0.0000000</ele>
        <time>2010-01-01T01:50:33Z</time>
      </trkpt>
      <trkpt lat="51.12204225" lon="39.28212076">
        <ele>0.0000000</ele>
        <time>2010-01-01T01:50:45Z</time>
      </trkpt>
      <trkpt lat="51.12195471" lon="39.28261428">
        <ele>0.0000000</ele>
        <time>2010-01-01T01:50:58Z</time>
      </trkpt>
      <trkpt lat="51.12189410" lon="39.28317218">
        <ele>0.0000000</ele>
        <time>2010-01-01T01:51:12Z</time>
      </trkpt>
      <trkpt lat="51.12183350" lon="39.28355842">
        <ele>0.0000000</ele>
        <time>2010-01-01T01:51:22Z</time>
      </trkpt>
      <trkpt lat="51.12167188" lon="39.28426652">
        <ele>0.0000000</ele>
        <time>2010-01-01T01:51:41Z</time>
      </trkpt>
      <trkpt lat="51.12161800" lon="39.28453474">
        <ele>0.0000000</ele>
        <time>2010-01-01T01:51:48Z</time>
      </trkpt>
      <trkpt lat="51.12142945" lon="39.28533941">
        <ele>0.0000000</ele>
        <time>2010-01-01T01:52:10Z</time>
      </trkpt>
      <trkpt lat="51.12123415" lon="39.28595095">
        <ele>0.0000000</ele>
        <time>2010-01-01T01:52:27Z</time>
      </trkpt>
      <trkpt lat="51.12102539" lon="39.28654104">
        <ele>0.0000000</ele>
        <time>2010-01-01T01:52:44Z</time>
      </trkpt>
      <trkpt lat="51.12110620" lon="39.28705602">
        <ele>0.0000000</ele>
        <time>2010-01-01T01:52:57Z</time>
      </trkpt>
      <trkpt lat="51.12146985" lon="39.28773194">
        <ele>0.0000000</ele>
        <time>2010-01-01T01:53:20Z</time>
      </trkpt>
      <trkpt lat="51.12134864" lon="39.28821473">
        <ele>0.0000000</ele>
        <time>2010-01-01T01:53:33Z</time>
      </trkpt>
      <trkpt lat="51.12113314" lon="39.28880482">
        <ele>0.0000000</ele>
        <time>2010-01-01T01:53:50Z</time>
      </trkpt>
      <trkpt lat="51.12081663" lon="39.28950219">
        <ele>0.0000000</ele>
        <time>2010-01-01T01:54:12Z</time>
      </trkpt>
      <trkpt lat="51.12059440" lon="39.29017811">
        <ele>0.0000000</ele>
        <time>2010-01-01T01:54:31Z</time>
      </trkpt>
      <trkpt lat="51.12041931" lon="39.29077893">
        <ele>0.0000000</ele>
        <time>2010-01-01T01:54:47Z</time>
      </trkpt>
      <trkpt lat="51.12015667" lon="39.29144411">
        <ele>0.0000000</ele>
        <time>2010-01-01T01:55:07Z</time>
      </trkpt>
      <trkpt lat="51.11984688" lon="39.29222732">
        <ele>0.0000000</ele>
        <time>2010-01-01T01:55:30Z</time>
      </trkpt>
      <trkpt lat="51.11954383" lon="39.29325729">
        <ele>0.0000000</ele>
        <time>2010-01-01T01:55:59Z</time>
      </trkpt>
      <trkpt lat="51.11926772" lon="39.29396539">
        <ele>0.0000000</ele>
        <time>2010-01-01T01:56:20Z</time>
      </trkpt>
      <trkpt lat="51.11891752" lon="39.29510265">
        <ele>0.0000000</ele>
        <time>2010-01-01T01:56:52Z</time>
      </trkpt>
      <trkpt lat="51.11874916" lon="39.29567128">
        <ele>0.0000000</ele>
        <time>2010-01-01T01:57:07Z</time>
      </trkpt>
      <trkpt lat="51.11857406" lon="39.29602533">
        <ele>0.0000000</ele>
        <time>2010-01-01T01:57:19Z</time>
      </trkpt>
      <trkpt lat="51.11839896" lon="39.29656177">
        <ele>0.0000000</ele>
        <time>2010-01-01T01:57:34Z</time>
      </trkpt>
      <trkpt lat="51.11844610" lon="39.29715185">
        <ele>0.0000000</ele>
        <time>2010-01-01T01:57:49Z</time>
      </trkpt>
      <trkpt lat="51.11849998" lon="39.29782777">
        <ele>0.0000000</ele>
        <time>2010-01-01T01:58:06Z</time>
      </trkpt>
      <trkpt lat="51.11857406" lon="39.29848223">
        <ele>0.0000000</ele>
        <time>2010-01-01T01:58:23Z</time>
      </trkpt>
      <trkpt lat="51.11870202" lon="39.29932981">
        <ele>0.0000000</ele>
        <time>2010-01-01T01:58:45Z</time>
      </trkpt>
      <trkpt lat="51.11885691" lon="39.30074601">
        <ele>0.0000000</ele>
        <time>2010-01-01T01:59:21Z</time>
      </trkpt>
      <trkpt lat="51.11892426" lon="39.30141120">
        <ele>0.0000000</ele>
        <time>2010-01-01T01:59:38Z</time>
      </trkpt>
      <trkpt lat="51.11941588" lon="39.30266648">
        <ele>0.0000000</ele>
        <time>2010-01-01T02:00:15Z</time>
      </trkpt>
      <trkpt lat="51.12010953" lon="39.30415778">
        <ele>0.0000000</ele>
        <time>2010-01-01T02:01:02Z</time>
      </trkpt>
      <trkpt lat="51.12083683" lon="39.30534869">
        <ele>0.0000000</ele>
        <time>2010-01-01T02:01:43Z</time>
      </trkpt>
      <trkpt lat="51.12141598" lon="39.30634647">
        <ele>0.0000000</ele>
        <time>2010-01-01T02:02:17Z</time>
      </trkpt>
      <trkpt lat="51.12191430" lon="39.30721550">
        <ele>0.0000000</ele>
        <time>2010-01-01T02:02:47Z</time>
      </trkpt>
      <trkpt lat="51.12235875" lon="39.30799871">
        <ele>0.0000000</ele>
        <time>2010-01-01T02:03:14Z</time>
      </trkpt>
      <trkpt lat="51.12290421" lon="39.30884629">
        <ele>0.0000000</ele>
        <time>2010-01-01T02:03:44Z</time>
      </trkpt>
      <trkpt lat="51.12438566" lon="39.31144266">
        <ele>0.0000000</ele>
        <time>2010-01-01T02:05:12Z</time>
      </trkpt>
      <trkpt lat="51.12607580" lon="39.31462913">
        <ele>0.0000000</ele>
        <time>2010-01-01T02:06:57Z</time>
      </trkpt>
      <trkpt lat="51.12701175" lon="39.31642084">
        <ele>0.0000000</ele>
        <time>2010-01-01T02:07:56Z</time>
      </trkpt>
      <trkpt lat="51.12783995" lon="39.31724696">
        <ele>0.0000000</ele>
        <time>2010-01-01T02:08:35Z</time>
      </trkpt>
      <trkpt lat="51.12903845" lon="39.31870609">
        <ele>0.0000000</ele>
        <time>2010-01-01T02:09:35Z</time>
      </trkpt>
      <trkpt lat="51.12975889" lon="39.31952148">
        <ele>0.0000000</ele>
        <time>2010-01-01T02:10:10Z</time>
      </trkpt>
      <trkpt lat="51.13069476" lon="39.32050853">
        <ele>0.0000000</ele>
        <time>2010-01-01T02:10:55Z</time>
      </trkpt>
      <trkpt lat="51.13136804" lon="39.32164579">
        <ele>0.0000000</ele>
        <time>2010-01-01T02:11:35Z</time>
      </trkpt>
      <trkpt lat="51.13186626" lon="39.32248264">
        <ele>0.0000000</ele>
        <time>2010-01-01T02:12:04Z</time>
      </trkpt>
      <trkpt lat="51.13204131" lon="39.32387739">
        <ele>0.0000000</ele>
        <time>2010-01-01T02:12:39Z</time>
      </trkpt>
      <trkpt lat="51.13213557" lon="39.32548671">
        <ele>0.0000000</ele>
        <time>2010-01-01T02:13:20Z</time>
      </trkpt>
      <trkpt lat="51.13222982" lon="39.32634502">
        <ele>0.0000000</ele>
        <time>2010-01-01T02:13:42Z</time>
      </trkpt>
      <trkpt lat="51.13235101" lon="39.32703166">
        <ele>0.0000000</ele>
        <time>2010-01-01T02:14:00Z</time>
      </trkpt>
      <trkpt lat="51.13253952" lon="39.32765394">
        <ele>0.0000000</ele>
        <time>2010-01-01T02:14:17Z</time>
      </trkpt>
      <trkpt lat="51.13287615" lon="39.32801872">
        <ele>0.0000000</ele>
        <time>2010-01-01T02:14:33Z</time>
      </trkpt>
      <trkpt lat="51.13342821" lon="39.32842641">
        <ele>0.0000000</ele>
        <time>2010-01-01T02:14:58Z</time>
      </trkpt>
      <trkpt lat="51.13422263" lon="39.32939201">
        <ele>0.0000000</ele>
        <time>2010-01-01T02:15:38Z</time>
      </trkpt>
      <trkpt lat="51.13536711" lon="39.33088332">
        <ele>0.0000000</ele>
        <time>2010-01-01T02:16:37Z</time>
      </trkpt>
      <trkpt lat="51.13624229" lon="39.33212786">
        <ele>0.0000000</ele>
        <time>2010-01-01T02:17:24Z</time>
      </trkpt>
      <trkpt lat="51.13682124" lon="39.33316856">
        <ele>0.0000000</ele>
        <time>2010-01-01T02:17:59Z</time>
      </trkpt>
      <trkpt lat="51.13707032" lon="39.33353334">
        <ele>0.0000000</ele>
        <time>2010-01-01T02:18:12Z</time>
      </trkpt>
      <trkpt lat="51.13745404" lon="39.33390885">
        <ele>0.0000000</ele>
        <time>2010-01-01T02:18:30Z</time>
      </trkpt>
      <trkpt lat="51.13795892" lon="39.33459549">
        <ele>0.0000000</ele>
        <time>2010-01-01T02:18:57Z</time>
      </trkpt>
      <trkpt lat="51.13876000" lon="39.33541088">
        <ele>0.0000000</ele>
        <time>2010-01-01T02:19:35Z</time>
      </trkpt>
      <trkpt lat="51.13949374" lon="39.33609753">
        <ele>0.0000000</ele>
        <time>2010-01-01T02:20:09Z</time>
      </trkpt>
      <trkpt lat="51.14013324" lon="39.33654814">
        <ele>0.0000000</ele>
        <time>2010-01-01T02:20:37Z</time>
      </trkpt>
      <trkpt lat="51.14089388" lon="39.33638721">
        <ele>0.0000000</ele>
        <time>2010-01-01T02:21:08Z</time>
      </trkpt>
      <trkpt lat="51.14133142" lon="39.33620482">
        <ele>0.0000000</ele>
        <time>2010-01-01T02:21:26Z</time>
      </trkpt>
      <trkpt lat="51.14189685" lon="39.33594733">
        <ele>0.0000000</ele>
        <time>2010-01-01T02:21:49Z</time>
      </trkpt>
      <trkpt lat="51.14242188" lon="39.33570056">
        <ele>0.0000000</ele>
        <time>2010-01-01T02:22:11Z</time>
      </trkpt>
      <trkpt lat="51.14295363" lon="39.33564692">
        <ele>0.0000000</ele>
        <time>2010-01-01T02:22:33Z</time>
      </trkpt>
      <trkpt lat="51.14343153" lon="39.33548599">
        <ele>0.0000000</ele>
        <time>2010-01-01T02:22:52Z</time>
      </trkpt>
      <trkpt lat="51.14388924" lon="39.33548599">
        <ele>0.0000000</ele>
        <time>2010-01-01T02:23:11Z</time>
      </trkpt>
      <trkpt lat="51.14412482" lon="39.33551817">
        <ele>0.0000000</ele>
        <time>2010-01-01T02:23:20Z</time>
      </trkpt>
      <trkpt lat="51.14437386" lon="39.33536797">
        <ele>0.0000000</ele>
        <time>2010-01-01T02:23:31Z</time>
      </trkpt>
      <trkpt lat="51.14453540" lon="39.33503537">
        <ele>0.0000000</ele>
        <time>2010-01-01T02:23:41Z</time>
      </trkpt>
      <trkpt lat="51.14471040" lon="39.33472424">
        <ele>0.0000000</ele>
        <time>2010-01-01T02:23:52Z</time>
      </trkpt>
      <trkpt lat="51.14490560" lon="39.33448820">
        <ele>0.0000000</ele>
        <time>2010-01-01T02:24:02Z</time>
      </trkpt>
      <trkpt lat="51.14512771" lon="39.33395176">
        <ele>0.0000000</ele>
        <time>2010-01-01T02:24:18Z</time>
      </trkpt>
      <trkpt lat="51.14534982" lon="39.33336168">
        <ele>0.0000000</ele>
        <time>2010-01-01T02:24:35Z</time>
      </trkpt>
      <trkpt lat="51.14551136" lon="39.33282523">
        <ele>0.0000000</ele>
        <time>2010-01-01T02:24:50Z</time>
      </trkpt>
      <trkpt lat="51.14610366" lon="39.33089404">
        <ele>0.0000000</ele>
        <time>2010-01-01T02:25:44Z</time>
      </trkpt>
      <trkpt lat="51.14644019" lon="39.32943492">
        <ele>0.0000000</ele>
        <time>2010-01-01T02:26:23Z</time>
      </trkpt>
      <trkpt lat="51.14668921" lon="39.32838350">
        <ele>0.0000000</ele>
        <time>2010-01-01T02:26:51Z</time>
      </trkpt>
      <trkpt lat="51.14695170" lon="39.32720332">
        <ele>0.0000000</ele>
        <time>2010-01-01T02:27:23Z</time>
      </trkpt>
      <trkpt lat="51.14717381" lon="39.32630210">
        <ele>0.0000000</ele>
        <time>2010-01-01T02:27:47Z</time>
      </trkpt>
      <trkpt lat="51.14745649" lon="39.32541161">
        <ele>0.0000000</ele>
        <time>2010-01-01T02:28:12Z</time>
      </trkpt>
      <trkpt lat="51.14781993" lon="39.32455330">
        <ele>0.0000000</ele>
        <time>2010-01-01T02:28:38Z</time>
      </trkpt>
      <trkpt lat="51.14804203" lon="39.32395249">
        <ele>0.0000000</ele>
        <time>2010-01-01T02:28:55Z</time>
      </trkpt>
      <trkpt lat="51.14809587" lon="39.32368427">
        <ele>0.0000000</ele>
        <time>2010-01-01T02:29:03Z</time>
      </trkpt>
      <trkpt lat="51.14819009" lon="39.32338386">
        <ele>0.0000000</ele>
        <time>2010-01-01T02:29:11Z</time>
      </trkpt>
      <trkpt lat="51.14834489" lon="39.32298689">
        <ele>0.0000000</ele>
        <time>2010-01-01T02:29:23Z</time>
      </trkpt>
      <trkpt lat="51.14855353" lon="39.32261138">
        <ele>0.0000000</ele>
        <time>2010-01-01T02:29:35Z</time>
      </trkpt>
      <trkpt lat="51.14961689" lon="39.32176380">
        <ele>0.0000000</ele>
        <time>2010-01-01T02:30:23Z</time>
      </trkpt>
      <trkpt lat="51.15092924" lon="39.32068019">
        <ele>0.0000000</ele>
        <time>2010-01-01T02:31:22Z</time>
      </trkpt>
      <trkpt lat="51.15175028" lon="39.31981116">
        <ele>0.0000000</ele>
        <time>2010-01-01T02:32:02Z</time>
      </trkpt>
      <trkpt lat="51.15373552" lon="39.31811600">
        <ele>0.0000000</ele>
        <time>2010-01-01T02:33:32Z</time>
      </trkpt>
      <trkpt lat="51.15469782" lon="39.31738644">
        <ele>0.0000000</ele>
        <time>2010-01-01T02:34:14Z</time>
      </trkpt>
      <trkpt lat="51.15490643" lon="39.31723624">
        <ele>0.0000000</ele>
        <time>2010-01-01T02:34:23Z</time>
      </trkpt>
      <trkpt lat="51.15504102" lon="39.31712358">
        <ele>0.0000000</ele>
        <time>2010-01-01T02:34:30Z</time>
      </trkpt>
      <trkpt lat="51.15512177" lon="39.31704848">
        <ele>0.0000000</ele>
        <time>2010-01-01T02:34:33Z</time>
      </trkpt>
      <trkpt lat="51.15520588" lon="39.31697874">
        <ele>0.0000000</ele>
        <time>2010-01-01T02:34:37Z</time>
      </trkpt>
      <trkpt lat="51.15526308" lon="39.31695729">
        <ele>0.0000000</ele>
        <time>2010-01-01T02:34:39Z</time>
      </trkpt>
      <trkpt lat="51.15534383" lon="39.31692510">
        <ele>0.0000000</ele>
        <time>2010-01-01T02:34:43Z</time>
      </trkpt>
      <trkpt lat="51.15543468" lon="39.31686609">
        <ele>0.0000000</ele>
        <time>2010-01-01T02:34:47Z</time>
      </trkpt>
      <trkpt lat="51.15547842" lon="39.31682854">
        <ele>0.0000000</ele>
        <time>2010-01-01T02:34:49Z</time>
      </trkpt>
      <trkpt lat="51.15552889" lon="39.31678562">
        <ele>0.0000000</ele>
        <time>2010-01-01T02:34:51Z</time>
      </trkpt>
      <trkpt lat="51.15560627" lon="39.31668907">
        <ele>0.0000000</ele>
        <time>2010-01-01T02:34:55Z</time>
      </trkpt>
      <trkpt lat="51.15563992" lon="39.31661933">
        <ele>0.0000000</ele>
        <time>2010-01-01T02:34:57Z</time>
      </trkpt>
      <trkpt lat="51.15569375" lon="39.31656032">
        <ele>0.0000000</ele>
        <time>2010-01-01T02:35:00Z</time>
      </trkpt>
      <trkpt lat="51.15576441" lon="39.31654423">
        <ele>0.0000000</ele>
        <time>2010-01-01T02:35:03Z</time>
      </trkpt>
      <trkpt lat="51.15583507" lon="39.31659251">
        <ele>0.0000000</ele>
        <time>2010-01-01T02:35:06Z</time>
      </trkpt>
      <trkpt lat="51.15597638" lon="39.31666761">
        <ele>0.0000000</ele>
        <time>2010-01-01T02:35:12Z</time>
      </trkpt>
      <trkpt lat="51.15614797" lon="39.31679635">
        <ele>0.0000000</ele>
        <time>2010-01-01T02:35:19Z</time>
      </trkpt>
      <trkpt lat="51.15636330" lon="39.31700557">
        <ele>0.0000000</ele>
        <time>2010-01-01T02:35:29Z</time>
      </trkpt>
      <trkpt lat="51.15654162" lon="39.31721478">
        <ele>0.0000000</ele>
        <time>2010-01-01T02:35:38Z</time>
      </trkpt>
      <trkpt lat="51.15667284" lon="39.31732743">
        <ele>0.0000000</ele>
        <time>2010-01-01T02:35:44Z</time>
      </trkpt>
      <trkpt lat="51.15682088" lon="39.31741326">
        <ele>0.0000000</ele>
        <time>2010-01-01T02:35:50Z</time>
      </trkpt>
      <trkpt lat="51.15693527" lon="39.31745618">
        <ele>0.0000000</ele>
        <time>2010-01-01T02:35:55Z</time>
      </trkpt>
      <trkpt lat="51.15718425" lon="39.31755810">
        <ele>0.0000000</ele>
        <time>2010-01-01T02:36:05Z</time>
      </trkpt>
      <trkpt lat="51.15737939" lon="39.31774586">
        <ele>0.0000000</ele>
        <time>2010-01-01T02:36:15Z</time>
      </trkpt>
      <trkpt lat="51.15753752" lon="39.31782632">
        <ele>0.0000000</ele>
        <time>2010-01-01T02:36:21Z</time>
      </trkpt>
      <trkpt lat="51.15770910" lon="39.31786924">
        <ele>0.0000000</ele>
        <time>2010-01-01T02:36:28Z</time>
      </trkpt>
      <trkpt lat="51.15790761" lon="39.31787460">
        <ele>0.0000000</ele>
        <time>2010-01-01T02:36:36Z</time>
      </trkpt>
      <trkpt lat="51.15858722" lon="39.31794970">
        <ele>0.0000000</ele>
        <time>2010-01-01T02:37:03Z</time>
      </trkpt>
      <trkpt lat="51.15887992" lon="39.31789069">
        <ele>0.0000000</ele>
        <time>2010-01-01T02:37:15Z</time>
      </trkpt>
      <trkpt lat="51.15909524" lon="39.31794970">
        <ele>0.0000000</ele>
        <time>2010-01-01T02:37:24Z</time>
      </trkpt>
      <trkpt lat="51.15925672" lon="39.31799262">
        <ele>0.0000000</ele>
        <time>2010-01-01T02:37:31Z</time>
      </trkpt>
      <trkpt lat="51.15972773" lon="39.31808918">
        <ele>0.0000000</ele>
        <time>2010-01-01T02:37:50Z</time>
      </trkpt>
      <trkpt lat="51.15997669" lon="39.31804090">
        <ele>0.0000000</ele>
        <time>2010-01-01T02:38:00Z</time>
      </trkpt>
      <trkpt lat="51.16020209" lon="39.31802481">
        <ele>0.0000000</ele>
        <time>2010-01-01T02:38:09Z</time>
      </trkpt>
      <trkpt lat="51.16049478" lon="39.31799798">
        <ele>0.0000000</ele>
        <time>2010-01-01T02:38:20Z</time>
      </trkpt>
      <trkpt lat="51.16059908" lon="39.31803017">
        <ele>0.0000000</ele>
        <time>2010-01-01T02:38:25Z</time>
      </trkpt>
      <trkpt lat="51.16068318" lon="39.31804626">
        <ele>0.0000000</ele>
        <time>2010-01-01T02:38:28Z</time>
      </trkpt>
      <trkpt lat="51.16074710" lon="39.31815355">
        <ele>0.0000000</ele>
        <time>2010-01-01T02:38:32Z</time>
      </trkpt>
      <trkpt lat="51.16078074" lon="39.31829303">
        <ele>0.0000000</ele>
        <time>2010-01-01T02:38:35Z</time>
      </trkpt>
      <trkpt lat="51.16082784" lon="39.31845932">
        <ele>0.0000000</ele>
        <time>2010-01-01T02:38:40Z</time>
      </trkpt>
      <trkpt lat="51.16088167" lon="39.31866854">
        <ele>0.0000000</ele>
        <time>2010-01-01T02:38:46Z</time>
      </trkpt>
      <trkpt lat="51.16091531" lon="39.31884020">
        <ele>0.0000000</ele>
        <time>2010-01-01T02:38:50Z</time>
      </trkpt>
      <trkpt lat="51.16096241" lon="39.31902259">
        <ele>0.0000000</ele>
        <time>2010-01-01T02:38:55Z</time>
      </trkpt>
      <trkpt lat="51.16102297" lon="39.31924253">
        <ele>0.0000000</ele>
        <time>2010-01-01T02:39:01Z</time>
      </trkpt>
      <trkpt lat="51.16107343" lon="39.31938737">
        <ele>0.0000000</ele>
        <time>2010-01-01T02:39:05Z</time>
      </trkpt>
      <trkpt lat="51.16118445" lon="39.31959658">
        <ele>0.0000000</ele>
        <time>2010-01-01T02:39:12Z</time>
      </trkpt>
      <trkpt lat="51.16126519" lon="39.31969850">
        <ele>0.0000000</ele>
        <time>2010-01-01T02:39:16Z</time>
      </trkpt>
      <trkpt lat="51.16137621" lon="39.31976824">
        <ele>0.0000000</ele>
        <time>2010-01-01T02:39:21Z</time>
      </trkpt>
      <trkpt lat="51.16152423" lon="39.31995331">
        <ele>0.0000000</ele>
        <time>2010-01-01T02:39:29Z</time>
      </trkpt>
      <trkpt lat="51.16163525" lon="39.32003914">
        <ele>0.0000000</ele>
        <time>2010-01-01T02:39:34Z</time>
      </trkpt>
      <trkpt lat="51.16174963" lon="39.32007670">
        <ele>0.0000000</ele>
        <time>2010-01-01T02:39:38Z</time>
      </trkpt>
      <trkpt lat="51.16186065" lon="39.32014911">
        <ele>0.0000000</ele>
        <time>2010-01-01T02:39:43Z</time>
      </trkpt>
      <trkpt lat="51.16195821" lon="39.32020276">
        <ele>0.0000000</ele>
        <time>2010-01-01T02:39:47Z</time>
      </trkpt>
      <trkpt lat="51.16223911" lon="39.32026445">
        <ele>0.0000000</ele>
        <time>2010-01-01T02:39:59Z</time>
      </trkpt>
      <trkpt lat="51.16238377" lon="39.32024567">
        <ele>0.0000000</ele>
        <time>2010-01-01T02:40:04Z</time>
      </trkpt>
      <trkpt lat="51.16276223" lon="39.32023763">
        <ele>0.0000000</ele>
        <time>2010-01-01T02:40:20Z</time>
      </trkpt>
      <trkpt lat="51.16287661" lon="39.32022153">
        <ele>0.0000000</ele>
        <time>2010-01-01T02:40:24Z</time>
      </trkpt>
      <trkpt lat="51.16302295" lon="39.32020008">
        <ele>0.0000000</ele>
        <time>2010-01-01T02:40:30Z</time>
      </trkpt>
      <trkpt lat="51.16319115" lon="39.32012766">
        <ele>0.0000000</ele>
        <time>2010-01-01T02:40:37Z</time>
      </trkpt>
      <trkpt lat="51.16333244" lon="39.32011693">
        <ele>0.0000000</ele>
        <time>2010-01-01T02:40:43Z</time>
      </trkpt>
      <trkpt lat="51.16349728" lon="39.32010352">
        <ele>0.0000000</ele>
        <time>2010-01-01T02:40:49Z</time>
      </trkpt>
      <trkpt lat="51.16374285" lon="39.32005256">
        <ele>0.0000000</ele>
        <time>2010-01-01T02:40:59Z</time>
      </trkpt>
      <trkpt lat="51.16388077" lon="39.31996136">
        <ele>0.0000000</ele>
        <time>2010-01-01T02:41:05Z</time>
      </trkpt>
      <trkpt lat="51.16394974" lon="39.31989967">
        <ele>0.0000000</ele>
        <time>2010-01-01T02:41:08Z</time>
      </trkpt>
      <trkpt lat="51.16400861" lon="39.31984066">
        <ele>0.0000000</ele>
        <time>2010-01-01T02:41:11Z</time>
      </trkpt>
      <trkpt lat="51.16404561" lon="39.31979506">
        <ele>0.0000000</ele>
        <time>2010-01-01T02:41:13Z</time>
      </trkpt>
      <trkpt lat="51.16415157" lon="39.31962608">
        <ele>0.0000000</ele>
        <time>2010-01-01T02:41:19Z</time>
      </trkpt>
      <trkpt lat="51.16426427" lon="39.31951880">
        <ele>0.0000000</ele>
        <time>2010-01-01T02:41:24Z</time>
      </trkpt>
      <trkpt lat="51.16434500" lon="39.31945174">
        <ele>0.0000000</ele>
        <time>2010-01-01T02:41:28Z</time>
      </trkpt>
      <trkpt lat="51.16441901" lon="39.31936859">
        <ele>0.0000000</ele>
        <time>2010-01-01T02:41:31Z</time>
      </trkpt>
      <trkpt lat="51.16452834" lon="39.31921571">
        <ele>0.0000000</ele>
        <time>2010-01-01T02:41:37Z</time>
      </trkpt>
      <trkpt lat="51.16463262" lon="39.31907623">
        <ele>0.0000000</ele>
        <time>2010-01-01T02:41:43Z</time>
      </trkpt>
      <trkpt lat="51.16474363" lon="39.31896358">
        <ele>0.0000000</ele>
        <time>2010-01-01T02:41:48Z</time>
      </trkpt>
      <trkpt lat="51.16485296" lon="39.31886434">
        <ele>0.0000000</ele>
        <time>2010-01-01T02:41:53Z</time>
      </trkpt>
      <trkpt lat="51.16494547" lon="39.31879192">
        <ele>0.0000000</ele>
        <time>2010-01-01T02:41:57Z</time>
      </trkpt>
      <trkpt lat="51.16513721" lon="39.31861489">
        <ele>0.0000000</ele>
        <time>2010-01-01T02:42:06Z</time>
      </trkpt>
      <trkpt lat="51.16524654" lon="39.31851297">
        <ele>0.0000000</ele>
        <time>2010-01-01T02:42:11Z</time>
      </trkpt>
      <trkpt lat="51.16536259" lon="39.31838959">
        <ele>0.0000000</ele>
        <time>2010-01-01T02:42:17Z</time>
      </trkpt>
      <trkpt lat="51.16545342" lon="39.31829839">
        <ele>0.0000000</ele>
        <time>2010-01-01T02:42:21Z</time>
      </trkpt>
      <trkpt lat="51.16571748" lon="39.31809186">
        <ele>0.0000000</ele>
        <time>2010-01-01T02:42:33Z</time>
      </trkpt>
      <trkpt lat="51.16594622" lon="39.31788265">
        <ele>0.0000000</ele>
        <time>2010-01-01T02:42:43Z</time>
      </trkpt>
      <trkpt lat="51.16611442" lon="39.31776463">
        <ele>0.0000000</ele>
        <time>2010-01-01T02:42:51Z</time>
      </trkpt>
      <trkpt lat="51.16627252" lon="39.31767344">
        <ele>0.0000000</ele>
        <time>2010-01-01T02:42:57Z</time>
      </trkpt>
      <trkpt lat="51.16638016" lon="39.31761979">
        <ele>0.0000000</ele>
        <time>2010-01-01T02:43:02Z</time>
      </trkpt>
      <trkpt lat="51.16644743" lon="39.31757151">
        <ele>0.0000000</ele>
        <time>2010-01-01T02:43:05Z</time>
      </trkpt>
      <trkpt lat="51.16647434" lon="39.31748032">
        <ele>0.0000000</ele>
        <time>2010-01-01T02:43:07Z</time>
      </trkpt>
      <trkpt lat="51.16651135" lon="39.31727110">
        <ele>0.0000000</ele>
        <time>2010-01-01T02:43:13Z</time>
      </trkpt>
      <trkpt lat="51.16654498" lon="39.31708871">
        <ele>0.0000000</ele>
        <time>2010-01-01T02:43:18Z</time>
      </trkpt>
      <trkpt lat="51.16659881" lon="39.31694388">
        <ele>0.0000000</ele>
        <time>2010-01-01T02:43:22Z</time>
      </trkpt>
      <trkpt lat="51.16664590" lon="39.31676685">
        <ele>0.0000000</ele>
        <time>2010-01-01T02:43:27Z</time>
      </trkpt>
      <trkpt lat="51.16668963" lon="39.31657373">
        <ele>0.0000000</ele>
        <time>2010-01-01T02:43:32Z</time>
      </trkpt>
      <trkpt lat="51.16674008" lon="39.31628942">
        <ele>0.0000000</ele>
        <time>2010-01-01T02:43:39Z</time>
      </trkpt>
      <trkpt lat="51.16676363" lon="39.31609093">
        <ele>0.0000000</ele>
        <time>2010-01-01T02:43:44Z</time>
      </trkpt>
      <trkpt lat="51.16679391" lon="39.31587636">
        <ele>0.0000000</ele>
        <time>2010-01-01T02:43:50Z</time>
      </trkpt>
      <trkpt lat="51.16682754" lon="39.31566714">
        <ele>0.0000000</ele>
        <time>2010-01-01T02:43:55Z</time>
      </trkpt>
      <trkpt lat="51.16684436" lon="39.31550085">
        <ele>0.0000000</ele>
        <time>2010-01-01T02:44:00Z</time>
      </trkpt>
      <trkpt lat="51.16687464" lon="39.31517362">
        <ele>0.0000000</ele>
        <time>2010-01-01T02:44:08Z</time>
      </trkpt>
      <trkpt lat="51.16689818" lon="39.31498050">
        <ele>0.0000000</ele>
        <time>2010-01-01T02:44:13Z</time>
      </trkpt>
      <trkpt lat="51.16693182" lon="39.31475519">
        <ele>0.0000000</ele>
        <time>2010-01-01T02:44:19Z</time>
      </trkpt>
      <trkpt lat="51.16697219" lon="39.31450306">
        <ele>0.0000000</ele>
        <time>2010-01-01T02:44:25Z</time>
      </trkpt>
      <trkpt lat="51.16700246" lon="39.31432604">
        <ele>0.0000000</ele>
        <time>2010-01-01T02:44:30Z</time>
      </trkpt>
      <trkpt lat="51.16704282" lon="39.31407928">
        <ele>0.0000000</ele>
        <time>2010-01-01T02:44:36Z</time>
      </trkpt>
      <trkpt lat="51.16707310" lon="39.31390225">
        <ele>0.0000000</ele>
        <time>2010-01-01T02:44:41Z</time>
      </trkpt>
      <trkpt lat="51.16710674" lon="39.31369304">
        <ele>0.0000000</ele>
        <time>2010-01-01T02:44:46Z</time>
      </trkpt>
      <trkpt lat="51.16715047" lon="39.31344627">
        <ele>0.0000000</ele>
        <time>2010-01-01T02:44:53Z</time>
      </trkpt>
      <trkpt lat="51.16721774" lon="39.31284546">
        <ele>0.0000000</ele>
        <time>2010-01-01T02:45:08Z</time>
      </trkpt>
      <trkpt lat="51.16730183" lon="39.31253432">
        <ele>0.0000000</ele>
        <time>2010-01-01T02:45:16Z</time>
      </trkpt>
      <trkpt lat="51.16730856" lon="39.31229829">
        <ele>0.0000000</ele>
        <time>2010-01-01T02:45:22Z</time>
      </trkpt>
      <trkpt lat="51.16731865" lon="39.31209981">
        <ele>0.0000000</ele>
        <time>2010-01-01T02:45:27Z</time>
      </trkpt>
      <trkpt lat="51.16732538" lon="39.31196033">
        <ele>0.0000000</ele>
        <time>2010-01-01T02:45:31Z</time>
      </trkpt>
      <trkpt lat="51.16735902" lon="39.31179940">
        <ele>0.0000000</ele>
        <time>2010-01-01T02:45:35Z</time>
      </trkpt>
      <trkpt lat="51.16743302" lon="39.31162774">
        <ele>0.0000000</ele>
        <time>2010-01-01T02:45:40Z</time>
      </trkpt>
      <trkpt lat="51.16752048" lon="39.31148826">
        <ele>0.0000000</ele>
        <time>2010-01-01T02:45:45Z</time>
      </trkpt>
      <trkpt lat="51.16760121" lon="39.31133806">
        <ele>0.0000000</ele>
        <time>2010-01-01T02:45:50Z</time>
      </trkpt>
      <trkpt lat="51.16771221" lon="39.31115567">
        <ele>0.0000000</ele>
        <time>2010-01-01T02:45:57Z</time>
      </trkpt>
      <trkpt lat="51.16793758" lon="39.31089818">
        <ele>0.0000000</ele>
        <time>2010-01-01T02:46:08Z</time>
      </trkpt>
      <trkpt lat="51.16811922" lon="39.31076943">
        <ele>0.0000000</ele>
        <time>2010-01-01T02:46:16Z</time>
      </trkpt>
      <trkpt lat="51.16824367" lon="39.31054949">
        <ele>0.0000000</ele>
        <time>2010-01-01T02:46:23Z</time>
      </trkpt>
      <trkpt lat="51.16838159" lon="39.31033491">
        <ele>0.0000000</ele>
        <time>2010-01-01T02:46:31Z</time>
      </trkpt>
      <trkpt lat="51.16852959" lon="39.31015252">
        <ele>0.0000000</ele>
        <time>2010-01-01T02:46:38Z</time>
      </trkpt>
      <trkpt lat="51.16865741" lon="39.30995404">
        <ele>0.0000000</ele>
        <time>2010-01-01T02:46:45Z</time>
      </trkpt>
      <trkpt lat="51.16877513" lon="39.30970191">
        <ele>0.0000000</ele>
        <time>2010-01-01T02:46:53Z</time>
      </trkpt>
      <trkpt lat="51.16890295" lon="39.30941760">
        <ele>0.0000000</ele>
        <time>2010-01-01T02:47:02Z</time>
      </trkpt>
      <trkpt lat="51.16897022" lon="39.30937468">
        <ele>0.0000000</ele>
        <time>2010-01-01T02:47:05Z</time>
      </trkpt>
      <trkpt lat="51.16909131" lon="39.30933177">
        <ele>0.0000000</ele>
        <time>2010-01-01T02:47:10Z</time>
      </trkpt>
      <trkpt lat="51.16921913" lon="39.30932104">
        <ele>0.0000000</ele>
        <time>2010-01-01T02:47:15Z</time>
      </trkpt>
      <trkpt lat="51.16938059" lon="39.30925666">
        <ele>0.0000000</ele>
        <time>2010-01-01T02:47:22Z</time>
      </trkpt>
      <trkpt lat="51.16960258" lon="39.30913865">
        <ele>0.0000000</ele>
        <time>2010-01-01T02:47:31Z</time>
      </trkpt>
      <trkpt lat="51.16994230" lon="39.30888115">
        <ele>0.0000000</ele>
        <time>2010-01-01T02:47:46Z</time>
      </trkpt>
      <trkpt lat="51.17008021" lon="39.30882751">
        <ele>0.0000000</ele>
        <time>2010-01-01T02:47:52Z</time>
      </trkpt>
      <trkpt lat="51.17018784" lon="39.30873095">
        <ele>0.0000000</ele>
        <time>2010-01-01T02:47:57Z</time>
      </trkpt>
      <trkpt lat="51.17029547" lon="39.30856465">
        <ele>0.0000000</ele>
        <time>2010-01-01T02:48:03Z</time>
      </trkpt>
      <trkpt lat="51.17040311" lon="39.30846809">
        <ele>0.0000000</ele>
        <time>2010-01-01T02:48:08Z</time>
      </trkpt>
      <trkpt lat="51.17050065" lon="39.30840909">
        <ele>0.0000000</ele>
        <time>2010-01-01T02:48:12Z</time>
      </trkpt>
      <trkpt lat="51.17059819" lon="39.30830180">
        <ele>0.0000000</ele>
        <time>2010-01-01T02:48:17Z</time>
      </trkpt>
      <trkpt lat="51.17066546" lon="39.30813014">
        <ele>0.0000000</ele>
        <time>2010-01-01T02:48:22Z</time>
      </trkpt>
      <trkpt lat="51.17070246" lon="39.30798530">
        <ele>0.0000000</ele>
        <time>2010-01-01T02:48:26Z</time>
      </trkpt>
      <trkpt lat="51.17070919" lon="39.30781364">
        <ele>0.0000000</ele>
        <time>2010-01-01T02:48:30Z</time>
      </trkpt>
      <trkpt lat="51.17066546" lon="39.30769562">
        <ele>0.0000000</ele>
        <time>2010-01-01T02:48:33Z</time>
      </trkpt>
      <trkpt lat="51.17061165" lon="39.30758833">
        <ele>0.0000000</ele>
        <time>2010-01-01T02:48:37Z</time>
      </trkpt>
      <trkpt lat="51.17056456" lon="39.30744886">
        <ele>0.0000000</ele>
        <time>2010-01-01T02:48:41Z</time>
      </trkpt>
      <trkpt lat="51.17053765" lon="39.30728792">
        <ele>0.0000000</ele>
        <time>2010-01-01T02:48:45Z</time>
      </trkpt>
      <trkpt lat="51.17044011" lon="39.30665492">
        <ele>0.0000000</ele>
        <time>2010-01-01T02:49:01Z</time>
      </trkpt>
      <trkpt lat="51.17041656" lon="39.30626332">
        <ele>0.0000000</ele>
        <time>2010-01-01T02:49:11Z</time>
      </trkpt>
      <trkpt lat="51.17042665" lon="39.30592000">
        <ele>0.0000000</ele>
        <time>2010-01-01T02:49:20Z</time>
      </trkpt>
      <trkpt lat="51.17042329" lon="39.30570005">
        <ele>0.0000000</ele>
        <time>2010-01-01T02:49:25Z</time>
      </trkpt>
      <trkpt lat="51.17040983" lon="39.30539428">
        <ele>0.0000000</ele>
        <time>2010-01-01T02:49:33Z</time>
      </trkpt>
      <trkpt lat="51.17040647" lon="39.30516361">
        <ele>0.0000000</ele>
        <time>2010-01-01T02:49:39Z</time>
      </trkpt>
      <trkpt lat="51.17039302" lon="39.30501877">
        <ele>0.0000000</ele>
        <time>2010-01-01T02:49:43Z</time>
      </trkpt>
      <trkpt lat="51.17039302" lon="39.30483102">
        <ele>0.0000000</ele>
        <time>2010-01-01T02:49:47Z</time>
      </trkpt>
      <trkpt lat="51.17037620" lon="39.30461108">
        <ele>0.0000000</ele>
        <time>2010-01-01T02:49:53Z</time>
      </trkpt>
      <trkpt lat="51.17040311" lon="39.30440723">
        <ele>0.0000000</ele>
        <time>2010-01-01T02:49:58Z</time>
      </trkpt>
      <trkpt lat="51.17048215" lon="39.30416047">
        <ele>0.0000000</ele>
        <time>2010-01-01T02:50:05Z</time>
      </trkpt>
      <trkpt lat="51.17065033" lon="39.30401831">
        <ele>0.0000000</ele>
        <time>2010-01-01T02:50:13Z</time>
      </trkpt>
      <trkpt lat="51.17079327" lon="39.30391639">
        <ele>0.0000000</ele>
        <time>2010-01-01T02:50:19Z</time>
      </trkpt>
      <trkpt lat="51.17090259" lon="39.30385470">
        <ele>0.0000000</ele>
        <time>2010-01-01T02:50:24Z</time>
      </trkpt>
      <trkpt lat="51.17098668" lon="39.30375545">
        <ele>0.0000000</ele>
        <time>2010-01-01T02:50:28Z</time>
      </trkpt>
      <trkpt lat="51.17112458" lon="39.30364012">
        <ele>0.0000000</ele>
        <time>2010-01-01T02:50:34Z</time>
      </trkpt>
      <trkpt lat="51.17118344" lon="39.30347114">
        <ele>0.0000000</ele>
        <time>2010-01-01T02:50:39Z</time>
      </trkpt>
      <trkpt lat="51.17121035" lon="39.30318414">
        <ele>0.0000000</ele>
        <time>2010-01-01T02:50:46Z</time>
      </trkpt>
      <trkpt lat="51.17121876" lon="39.30299102">
        <ele>0.0000000</ele>
        <time>2010-01-01T02:50:51Z</time>
      </trkpt>
      <trkpt lat="51.17122548" lon="39.30274426">
        <ele>0.0000000</ele>
        <time>2010-01-01T02:50:57Z</time>
      </trkpt>
      <trkpt lat="51.17123053" lon="39.30253773">
        <ele>0.0000000</ele>
        <time>2010-01-01T02:51:02Z</time>
      </trkpt>
      <trkpt lat="51.17121539" lon="39.30189400">
        <ele>0.0000000</ele>
        <time>2010-01-01T02:51:19Z</time>
      </trkpt>
      <trkpt lat="51.17121371" lon="39.30151581">
        <ele>0.0000000</ele>
        <time>2010-01-01T02:51:28Z</time>
      </trkpt>
      <trkpt lat="51.17119521" lon="39.30112421">
        <ele>0.0000000</ele>
        <time>2010-01-01T02:51:38Z</time>
      </trkpt>
      <trkpt lat="51.17118344" lon="39.30082112">
        <ele>0.0000000</ele>
        <time>2010-01-01T02:51:46Z</time>
      </trkpt>
      <trkpt lat="51.17108926" lon="39.29984211">
        <ele>0.0000000</ele>
        <time>2010-01-01T02:52:10Z</time>
      </trkpt>
      <trkpt lat="51.17104554" lon="39.29928421">
        <ele>0.0000000</ele>
        <time>2010-01-01T02:52:24Z</time>
      </trkpt>
      <trkpt lat="51.17087232" lon="39.29816841">
        <ele>0.0000000</ele>
        <time>2010-01-01T02:52:53Z</time>
      </trkpt>
      <trkpt lat="51.17077478" lon="39.29749250">
        <ele>0.0000000</ele>
        <time>2010-01-01T02:53:11Z</time>
      </trkpt>
      <trkpt lat="51.17051915" lon="39.29613530">
        <ele>0.0000000</ele>
        <time>2010-01-01T02:53:46Z</time>
      </trkpt>
      <trkpt lat="51.17038461" lon="39.29556130">
        <ele>0.0000000</ele>
        <time>2010-01-01T02:54:02Z</time>
      </trkpt>
      <trkpt lat="51.17036443" lon="39.29488539">
        <ele>0.0000000</ele>
        <time>2010-01-01T02:54:19Z</time>
      </trkpt>
      <trkpt lat="51.17028370" lon="39.29453134">
        <ele>0.0000000</ele>
        <time>2010-01-01T02:54:28Z</time>
      </trkpt>
      <trkpt lat="51.17014916" lon="39.29447769">
        <ele>0.0000000</ele>
        <time>2010-01-01T02:54:34Z</time>
      </trkpt>
      <trkpt lat="51.16957063" lon="39.29450988">
        <ele>0.0000000</ele>
        <time>2010-01-01T02:54:57Z</time>
      </trkpt>
      <trkpt lat="51.16897863" lon="39.29458498">
        <ele>0.0000000</ele>
        <time>2010-01-01T02:55:21Z</time>
      </trkpt>
      <trkpt lat="51.16836645" lon="39.29484247">
        <ele>0.0000000</ele>
        <time>2010-01-01T02:55:46Z</time>
      </trkpt>
      <trkpt lat="51.16790226" lon="39.29508924">
        <ele>0.0000000</ele>
        <time>2010-01-01T02:56:06Z</time>
      </trkpt>
      <trkpt lat="51.16738425" lon="39.29527163">
        <ele>0.0000000</ele>
        <time>2010-01-01T02:56:27Z</time>
      </trkpt>
      <trkpt lat="51.16686623" lon="39.29538964">
        <ele>0.0000000</ele>
        <time>2010-01-01T02:56:48Z</time>
      </trkpt>
      <trkpt lat="51.16533904" lon="39.29562568">
        <ele>0.0000000</ele>
        <time>2010-01-01T02:57:49Z</time>
      </trkpt>
      <trkpt lat="51.16373108" lon="39.29576515">
        <ele>0.0000000</ele>
        <time>2010-01-01T02:58:54Z</time>
      </trkpt>
      <trkpt lat="51.16236527" lon="39.29600119">
        <ele>0.0000000</ele>
        <time>2010-01-01T02:59:49Z</time>
      </trkpt>
      <trkpt lat="51.16103306" lon="39.29599046">
        <ele>0.0000000</ele>
        <time>2010-01-01T03:00:42Z</time>
      </trkpt>
      <trkpt lat="51.16005743" lon="39.29582953">
        <ele>0.0000000</ele>
        <time>2010-01-01T03:01:21Z</time>
      </trkpt>
      <trkpt lat="51.15973446" lon="39.29574369">
        <ele>0.0000000</ele>
        <time>2010-01-01T03:01:34Z</time>
      </trkpt>
      <trkpt lat="51.15938457" lon="39.29561495">
        <ele>0.0000000</ele>
        <time>2010-01-01T03:01:49Z</time>
      </trkpt>
      <trkpt lat="51.15893375" lon="39.29528236">
        <ele>0.0000000</ele>
        <time>2010-01-01T03:02:09Z</time>
      </trkpt>
      <trkpt lat="51.15846273" lon="39.29508924">
        <ele>0.0000000</ele>
        <time>2010-01-01T03:02:28Z</time>
      </trkpt>
      <trkpt lat="51.15758798" lon="39.29496049">
        <ele>0.0000000</ele>
        <time>2010-01-01T03:03:03Z</time>
      </trkpt>
      <trkpt lat="51.15678051" lon="39.29484247">
        <ele>0.0000000</ele>
        <time>2010-01-01T03:03:36Z</time>
      </trkpt>
      <trkpt lat="51.15467427" lon="39.29458498">
        <ele>0.0000000</ele>
        <time>2010-01-01T03:05:00Z</time>
      </trkpt>
      <trkpt lat="51.15395422" lon="39.29443478">
        <ele>0.0000000</ele>
        <time>2010-01-01T03:05:29Z</time>
      </trkpt>
      <trkpt lat="51.15305920" lon="39.29394125">
        <ele>0.0000000</ele>
        <time>2010-01-01T03:06:07Z</time>
      </trkpt>
      <trkpt lat="51.15274964" lon="39.29366230">
        <ele>0.0000000</ele>
        <time>2010-01-01T03:06:21Z</time>
      </trkpt>
      <trkpt lat="51.15256794" lon="39.29346918">
        <ele>0.0000000</ele>
        <time>2010-01-01T03:06:30Z</time>
      </trkpt>
      <trkpt lat="51.15245353" lon="39.29321169">
        <ele>0.0000000</ele>
        <time>2010-01-01T03:06:38Z</time>
      </trkpt>
      <trkpt lat="51.15235932" lon="39.29300784">
        <ele>0.0000000</ele>
        <time>2010-01-01T03:06:44Z</time>
      </trkpt>
      <trkpt lat="51.15221799" lon="39.29284691">
        <ele>0.0000000</ele>
        <time>2010-01-01T03:06:51Z</time>
      </trkpt>
      <trkpt lat="51.15200264" lon="39.29271816">
        <ele>0.0000000</ele>
        <time>2010-01-01T03:07:01Z</time>
      </trkpt>
      <trkpt lat="51.15179402" lon="39.29261087">
        <ele>0.0000000</ele>
        <time>2010-01-01T03:07:09Z</time>
      </trkpt>
      <trkpt lat="51.15160559" lon="39.29252504">
        <ele>0.0000000</ele>
        <time>2010-01-01T03:07:17Z</time>
      </trkpt>
      <trkpt lat="51.15124891" lon="39.29233193">
        <ele>0.0000000</ele>
        <time>2010-01-01T03:07:32Z</time>
      </trkpt>
      <trkpt lat="51.15080474" lon="39.29231047">
        <ele>0.0000000</ele>
        <time>2010-01-01T03:07:50Z</time>
      </trkpt>
      <trkpt lat="51.15018558" lon="39.29209589">
        <ele>0.0000000</ele>
        <time>2010-01-01T03:08:15Z</time>
      </trkpt>
      <trkpt lat="51.14887994" lon="39.29145216">
        <ele>0.0000000</ele>
        <time>2010-01-01T03:09:10Z</time>
      </trkpt>
      <trkpt lat="51.14761465" lon="39.29035782">
        <ele>0.0000000</ele>
        <time>2010-01-01T03:10:08Z</time>
      </trkpt>
      <trkpt lat="51.14698199" lon="39.28958534">
        <ele>0.0000000</ele>
        <time>2010-01-01T03:10:40Z</time>
      </trkpt>
      <trkpt lat="51.14648393" lon="39.28919910">
        <ele>0.0000000</ele>
        <time>2010-01-01T03:11:02Z</time>
      </trkpt>
      <trkpt lat="51.14616087" lon="39.28887724">
        <ele>0.0000000</ele>
        <time>2010-01-01T03:11:17Z</time>
      </trkpt>
      <trkpt lat="51.14582434" lon="39.28838371">
        <ele>0.0000000</ele>
        <time>2010-01-01T03:11:35Z</time>
      </trkpt>
      <trkpt lat="51.14538011" lon="39.28771853">
        <ele>0.0000000</ele>
        <time>2010-01-01T03:12:00Z</time>
      </trkpt>
      <trkpt lat="51.14477435" lon="39.28677439">
        <ele>0.0000000</ele>
        <time>2010-01-01T03:12:34Z</time>
      </trkpt>
      <trkpt lat="51.14446473" lon="39.28628086">
        <ele>0.0000000</ele>
        <time>2010-01-01T03:12:51Z</time>
      </trkpt>
      <trkpt lat="51.14430319" lon="39.28591608">
        <ele>0.0000000</ele>
        <time>2010-01-01T03:13:02Z</time>
      </trkpt>
      <trkpt lat="51.14419549" lon="39.28552984">
        <ele>0.0000000</ele>
        <time>2010-01-01T03:13:13Z</time>
      </trkpt>
      <trkpt lat="51.14406088" lon="39.28497194">
        <ele>0.0000000</ele>
        <time>2010-01-01T03:13:28Z</time>
      </trkpt>
      <trkpt lat="51.14388587" lon="39.28441404">
        <ele>0.0000000</ele>
        <time>2010-01-01T03:13:44Z</time>
      </trkpt>
      <trkpt lat="51.14338778" lon="39.28237557">
        <ele>0.0000000</ele>
        <time>2010-01-01T03:14:39Z</time>
      </trkpt>
      <trkpt lat="51.14293007" lon="39.28031563">
        <ele>0.0000000</ele>
        <time>2010-01-01T03:15:34Z</time>
      </trkpt>
      <trkpt lat="51.14266083" lon="39.27842735">
        <ele>0.0000000</ele>
        <time>2010-01-01T03:16:22Z</time>
      </trkpt>
      <trkpt lat="51.14247236" lon="39.27686094">
        <ele>0.0000000</ele>
        <time>2010-01-01T03:17:02Z</time>
      </trkpt>
      <trkpt lat="51.14241851" lon="39.27503704">
        <ele>0.0000000</ele>
        <time>2010-01-01T03:17:48Z</time>
      </trkpt>
      <trkpt lat="51.14235120" lon="39.27334189">
        <ele>0.0000000</ele>
        <time>2010-01-01T03:18:31Z</time>
      </trkpt>
      <trkpt lat="51.14236466" lon="39.27196859">
        <ele>0.0000000</ele>
        <time>2010-01-01T03:19:05Z</time>
      </trkpt>
      <trkpt lat="51.14241851" lon="39.27085280">
        <ele>0.0000000</ele>
        <time>2010-01-01T03:19:33Z</time>
      </trkpt>
      <trkpt lat="51.14240505" lon="39.26947950">
        <ele>0.0000000</ele>
        <time>2010-01-01T03:20:08Z</time>
      </trkpt>
      <trkpt lat="51.14235120" lon="39.26814913">
        <ele>0.0000000</ele>
        <time>2010-01-01T03:20:41Z</time>
      </trkpt>
      <trkpt lat="51.14233774" lon="39.26724791">
        <ele>0.0000000</ele>
        <time>2010-01-01T03:21:04Z</time>
      </trkpt>
      <trkpt lat="51.14229735" lon="39.26615357">
        <ele>0.0000000</ele>
        <time>2010-01-01T03:21:32Z</time>
      </trkpt>
      <trkpt lat="51.14218965" lon="39.26538109">
        <ele>0.0000000</ele>
        <time>2010-01-01T03:21:51Z</time>
      </trkpt>
      <trkpt lat="51.14213580" lon="39.26460861">
        <ele>0.0000000</ele>
        <time>2010-01-01T03:22:11Z</time>
      </trkpt>
      <trkpt lat="51.14212234" lon="39.26394342">
        <ele>0.0000000</ele>
        <time>2010-01-01T03:22:28Z</time>
      </trkpt>
      <trkpt lat="51.14210888" lon="39.26325678">
        <ele>0.0000000</ele>
        <time>2010-01-01T03:22:45Z</time>
      </trkpt>
      <trkpt lat="51.14175886" lon="39.26008104">
        <ele>0.0000000</ele>
        <time>2010-01-01T03:24:06Z</time>
      </trkpt>
      <trkpt lat="51.14136844" lon="39.25748467">
        <ele>0.0000000</ele>
        <time>2010-01-01T03:25:13Z</time>
      </trkpt>
      <trkpt lat="51.14008948" lon="39.25345062">
        <ele>0.0000000</ele>
        <time>2010-01-01T03:27:06Z</time>
      </trkpt>
      <trkpt lat="51.13894512" lon="39.25048946">
        <ele>0.0000000</ele>
        <time>2010-01-01T03:28:34Z</time>
      </trkpt>
      <trkpt lat="51.13786804" lon="39.24746393">
        <ele>0.0000000</ele>
        <time>2010-01-01T03:30:01Z</time>
      </trkpt>
      <trkpt lat="51.13714100" lon="39.24591898">
        <ele>0.0000000</ele>
        <time>2010-01-01T03:30:50Z</time>
      </trkpt>
      <trkpt lat="51.13675055" lon="39.24521088">
        <ele>0.0000000</ele>
        <time>2010-01-01T03:31:13Z</time>
      </trkpt>
      <trkpt lat="51.13553878" lon="39.24370884">
        <ele>0.0000000</ele>
        <time>2010-01-01T03:32:15Z</time>
      </trkpt>
      <trkpt lat="51.13471746" lon="39.24293636">
        <ele>0.0000000</ele>
        <time>2010-01-01T03:32:53Z</time>
      </trkpt>
      <trkpt lat="51.13380859" lon="39.24224972">
        <ele>0.0000000</ele>
        <time>2010-01-01T03:33:33Z</time>
      </trkpt>
      <trkpt lat="51.13300070" lon="39.24149870">
        <ele>0.0000000</ele>
        <time>2010-01-01T03:34:11Z</time>
      </trkpt>
      <trkpt lat="51.13234764" lon="39.24100517">
        <ele>0.0000000</ele>
        <time>2010-01-01T03:34:40Z</time>
      </trkpt>
      <trkpt lat="51.13200428" lon="39.24062966">
        <ele>0.0000000</ele>
        <time>2010-01-01T03:34:56Z</time>
      </trkpt>
      <trkpt lat="51.13177537" lon="39.24037217">
        <ele>0.0000000</ele>
        <time>2010-01-01T03:35:08Z</time>
      </trkpt>
      <trkpt lat="51.13154646" lon="39.24002885">
        <ele>0.0000000</ele>
        <time>2010-01-01T03:35:20Z</time>
      </trkpt>
      <trkpt lat="51.13144547" lon="39.23967480">
        <ele>0.0000000</ele>
        <time>2010-01-01T03:35:30Z</time>
      </trkpt>
      <trkpt lat="51.13131081" lon="39.23927783">
        <ele>0.0000000</ele>
        <time>2010-01-01T03:35:41Z</time>
      </trkpt>
      <trkpt lat="51.13121655" lon="39.23883795">
        <ele>0.0000000</ele>
        <time>2010-01-01T03:35:53Z</time>
      </trkpt>
      <trkpt lat="51.13112229" lon="39.23838734">
        <ele>0.0000000</ele>
        <time>2010-01-01T03:36:05Z</time>
      </trkpt>
      <trkpt lat="51.13096071" lon="39.23781871">
        <ele>0.0000000</ele>
        <time>2010-01-01T03:36:20Z</time>
      </trkpt>
      <trkpt lat="51.13083952" lon="39.23726081">
        <ele>0.0000000</ele>
        <time>2010-01-01T03:36:35Z</time>
      </trkpt>
      <trkpt lat="51.13067120" lon="39.23657416">
        <ele>0.0000000</ele>
        <time>2010-01-01T03:36:54Z</time>
      </trkpt>
      <trkpt lat="51.13049614" lon="39.23583387">
        <ele>0.0000000</ele>
        <time>2010-01-01T03:37:14Z</time>
      </trkpt>
      <trkpt lat="51.13042208" lon="39.23541545">
        <ele>0.0000000</ele>
        <time>2010-01-01T03:37:25Z</time>
      </trkpt>
      <trkpt lat="51.13035475" lon="39.23496484">
        <ele>0.0000000</ele>
        <time>2010-01-01T03:37:36Z</time>
      </trkpt>
      <trkpt lat="51.13031435" lon="39.23454641">
        <ele>0.0000000</ele>
        <time>2010-01-01T03:37:47Z</time>
      </trkpt>
      <trkpt lat="51.13028742" lon="39.23408507">
        <ele>0.0000000</ele>
        <time>2010-01-01T03:37:59Z</time>
      </trkpt>
      <trkpt lat="51.13027396" lon="39.23383831">
        <ele>0.0000000</ele>
        <time>2010-01-01T03:38:05Z</time>
      </trkpt>
      <trkpt lat="51.13038168" lon="39.23334478">
        <ele>0.0000000</ele>
        <time>2010-01-01T03:38:18Z</time>
      </trkpt>
      <trkpt lat="51.13051634" lon="39.23301219">
        <ele>0.0000000</ele>
        <time>2010-01-01T03:38:28Z</time>
      </trkpt>
      <trkpt lat="51.13070486" lon="39.23262595">
        <ele>0.0000000</ele>
        <time>2010-01-01T03:38:40Z</time>
      </trkpt>
      <trkpt lat="51.13086645" lon="39.23225044">
        <ele>0.0000000</ele>
        <time>2010-01-01T03:38:52Z</time>
      </trkpt>
      <trkpt lat="51.13100110" lon="39.23191785">
        <ele>0.0000000</ele>
        <time>2010-01-01T03:39:02Z</time>
      </trkpt>
      <trkpt lat="51.13118289" lon="39.23146724">
        <ele>0.0000000</ele>
        <time>2010-01-01T03:39:15Z</time>
      </trkpt>
      <trkpt lat="51.13127042" lon="39.23118829">
        <ele>0.0000000</ele>
        <time>2010-01-01T03:39:23Z</time>
      </trkpt>
      <trkpt lat="51.13135794" lon="39.23092007">
        <ele>0.0000000</ele>
        <time>2010-01-01T03:39:30Z</time>
      </trkpt>
      <trkpt lat="51.13141180" lon="39.23063039">
        <ele>0.0000000</ele>
        <time>2010-01-01T03:39:38Z</time>
      </trkpt>
      <trkpt lat="51.13127715" lon="39.23012613">
        <ele>0.0000000</ele>
        <time>2010-01-01T03:39:52Z</time>
      </trkpt>
      <trkpt lat="51.13108863" lon="39.22978281">
        <ele>0.0000000</ele>
        <time>2010-01-01T03:40:03Z</time>
      </trkpt>
      <trkpt lat="51.13094051" lon="39.22936439">
        <ele>0.0000000</ele>
        <time>2010-01-01T03:40:15Z</time>
      </trkpt>
      <trkpt lat="51.13078565" lon="39.22904252">
        <ele>0.0000000</ele>
        <time>2010-01-01T03:40:25Z</time>
      </trkpt>
      <trkpt lat="51.13048941" lon="39.22862410">
        <ele>0.0000000</ele>
        <time>2010-01-01T03:40:41Z</time>
      </trkpt>
      <trkpt lat="51.12989691" lon="39.22788381">
        <ele>0.0000000</ele>
        <time>2010-01-01T03:41:11Z</time>
      </trkpt>
      <trkpt lat="51.12925728" lon="39.22691821">
        <ele>0.0000000</ele>
        <time>2010-01-01T03:41:47Z</time>
      </trkpt>
      <trkpt lat="51.12823384" lon="39.22560929">
        <ele>0.0000000</ele>
        <time>2010-01-01T03:42:39Z</time>
      </trkpt>
      <trkpt lat="51.12765478" lon="39.22475099">
        <ele>0.0000000</ele>
        <time>2010-01-01T03:43:11Z</time>
      </trkpt>
      <trkpt lat="51.12718345" lon="39.22417163">
        <ele>0.0000000</ele>
        <time>2010-01-01T03:43:35Z</time>
      </trkpt>
      <trkpt lat="51.12683332" lon="39.22374248">
        <ele>0.0000000</ele>
        <time>2010-01-01T03:43:52Z</time>
      </trkpt>
      <trkpt lat="51.12646971" lon="39.22327041">
        <ele>0.0000000</ele>
        <time>2010-01-01T03:44:11Z</time>
      </trkpt>
      <trkpt lat="51.12615997" lon="39.22288417">
        <ele>0.0000000</ele>
        <time>2010-01-01T03:44:27Z</time>
      </trkpt>
      <trkpt lat="51.12597143" lon="39.22254085">
        <ele>0.0000000</ele>
        <time>2010-01-01T03:44:38Z</time>
      </trkpt>
      <trkpt lat="51.12571556" lon="39.22200440">
        <ele>0.0000000</ele>
        <time>2010-01-01T03:44:55Z</time>
      </trkpt>
      <trkpt lat="51.12543275" lon="39.22148942">
        <ele>0.0000000</ele>
        <time>2010-01-01T03:45:13Z</time>
      </trkpt>
      <trkpt lat="51.12513647" lon="39.22101735">
        <ele>0.0000000</ele>
        <time>2010-01-01T03:45:29Z</time>
      </trkpt>
      <trkpt lat="51.12478632" lon="39.22039508">
        <ele>0.0000000</ele>
        <time>2010-01-01T03:45:50Z</time>
      </trkpt>
      <trkpt lat="51.12430149" lon="39.21981572">
        <ele>0.0000000</ele>
        <time>2010-01-01T03:46:15Z</time>
      </trkpt>
      <trkpt lat="51.12401867" lon="39.21945094">
        <ele>0.0000000</ele>
        <time>2010-01-01T03:46:29Z</time>
      </trkpt>
      <trkpt lat="51.12373585" lon="39.21900033">
        <ele>0.0000000</ele>
        <time>2010-01-01T03:46:45Z</time>
      </trkpt>
      <trkpt lat="51.12346649" lon="39.21850680">
        <ele>0.0000000</ele>
        <time>2010-01-01T03:47:02Z</time>
      </trkpt>
      <trkpt lat="51.12334528" lon="39.21822785">
        <ele>0.0000000</ele>
        <time>2010-01-01T03:47:10Z</time>
      </trkpt>
      <trkpt lat="51.12303552" lon="39.21749829">
        <ele>0.0000000</ele>
        <time>2010-01-01T03:47:32Z</time>
      </trkpt>
      <trkpt lat="51.12256414" lon="39.21681165">
        <ele>0.0000000</ele>
        <time>2010-01-01T03:47:58Z</time>
      </trkpt>
      <trkpt lat="51.12240253" lon="39.21648978">
        <ele>0.0000000</ele>
        <time>2010-01-01T03:48:08Z</time>
      </trkpt>
      <trkpt lat="51.12148669" lon="39.21466588">
        <ele>0.0000000</ele>
        <time>2010-01-01T03:49:07Z</time>
      </trkpt>
      <trkpt lat="51.12022064" lon="39.21243428">
        <ele>0.0000000</ele>
        <time>2010-01-01T03:50:22Z</time>
      </trkpt>
      <trkpt lat="51.11949333" lon="39.21133994">
        <ele>0.0000000</ele>
        <time>2010-01-01T03:51:02Z</time>
      </trkpt>
      <trkpt lat="51.11830804" lon="39.20936584">
        <ele>0.0000000</ele>
        <time>2010-01-01T03:52:11Z</time>
      </trkpt>
      <trkpt lat="51.11720355" lon="39.20745610">
        <ele>0.0000000</ele>
        <time>2010-01-01T03:53:16Z</time>
      </trkpt>
      <trkpt lat="51.11646271" lon="39.20599698">
        <ele>0.0000000</ele>
        <time>2010-01-01T03:54:04Z</time>
      </trkpt>
      <trkpt lat="51.11580269" lon="39.20413016">
        <ele>0.0000000</ele>
        <time>2010-01-01T03:54:57Z</time>
      </trkpt>
      <trkpt lat="51.11526388" lon="39.20192002">
        <ele>0.0000000</ele>
        <time>2010-01-01T03:55:57Z</time>
      </trkpt>
      <trkpt lat="51.11510224" lon="39.20097589">
        <ele>0.0000000</ele>
        <time>2010-01-01T03:56:22Z</time>
      </trkpt>
      <trkpt lat="51.11512918" lon="39.20026778">
        <ele>0.0000000</ele>
        <time>2010-01-01T03:56:39Z</time>
      </trkpt>
      <trkpt lat="51.11512918" lon="39.19960260">
        <ele>0.0000000</ele>
        <time>2010-01-01T03:56:56Z</time>
      </trkpt>
      <trkpt lat="51.11529756" lon="39.19863700">
        <ele>0.0000000</ele>
        <time>2010-01-01T03:57:21Z</time>
      </trkpt>
      <trkpt lat="51.11535144" lon="39.19806837">
        <ele>0.0000000</ele>
        <time>2010-01-01T03:57:36Z</time>
      </trkpt>
      <trkpt lat="51.11535818" lon="39.19757485">
        <ele>0.0000000</ele>
        <time>2010-01-01T03:57:48Z</time>
      </trkpt>
      <trkpt lat="51.11537838" lon="39.19726371">
        <ele>0.0000000</ele>
        <time>2010-01-01T03:57:56Z</time>
      </trkpt>
      <trkpt lat="51.11541879" lon="39.19697403">
        <ele>0.0000000</ele>
        <time>2010-01-01T03:58:03Z</time>
      </trkpt>
      <trkpt lat="51.11543226" lon="39.19667362">
        <ele>0.0000000</ele>
        <time>2010-01-01T03:58:11Z</time>
      </trkpt>
      <trkpt lat="51.11542553" lon="39.19633030">
        <ele>0.0000000</ele>
        <time>2010-01-01T03:58:20Z</time>
      </trkpt>
      <trkpt lat="51.11536491" lon="39.19600843">
        <ele>0.0000000</ele>
        <time>2010-01-01T03:58:28Z</time>
      </trkpt>
      <trkpt lat="51.11528409" lon="39.19581532">
        <ele>0.0000000</ele>
        <time>2010-01-01T03:58:34Z</time>
      </trkpt>
      <trkpt lat="51.11500121" lon="39.19567584">
        <ele>0.0000000</ele>
        <time>2010-01-01T03:58:46Z</time>
      </trkpt>
      <trkpt lat="51.11435464" lon="39.19530033">
        <ele>0.0000000</ele>
        <time>2010-01-01T03:59:13Z</time>
      </trkpt>
      <trkpt lat="51.11388317" lon="39.19492482">
        <ele>0.0000000</ele>
        <time>2010-01-01T03:59:34Z</time>
      </trkpt>
      <trkpt lat="51.11345885" lon="39.19453858">
        <ele>0.0000000</ele>
        <time>2010-01-01T03:59:54Z</time>
      </trkpt>
      <trkpt lat="51.11311534" lon="39.19419526">
        <ele>0.0000000</ele>
        <time>2010-01-01T04:00:10Z</time>
      </trkpt>
      <trkpt lat="51.11287287" lon="39.19394850">
        <ele>0.0000000</ele>
        <time>2010-01-01T04:00:22Z</time>
      </trkpt>
      <trkpt lat="51.11236097" lon="39.19256448">
        <ele>0.0000000</ele>
        <time>2010-01-01T04:01:02Z</time>
      </trkpt>
      <trkpt lat="51.11206461" lon="39.19152378">
        <ele>0.0000000</ele>
        <time>2010-01-01T04:01:31Z</time>
      </trkpt>
      <trkpt lat="51.11176824" lon="39.19053673">
        <ele>0.0000000</ele>
        <time>2010-01-01T04:01:58Z</time>
      </trkpt>
      <trkpt lat="51.11157964" lon="39.18995737">
        <ele>0.0000000</ele>
        <time>2010-01-01T04:02:15Z</time>
      </trkpt>
      <trkpt lat="51.11146514" lon="39.18959259">
        <ele>0.0000000</ele>
        <time>2010-01-01T04:02:25Z</time>
      </trkpt>
      <trkpt lat="51.11137084" lon="39.18942093">
        <ele>0.0000000</ele>
        <time>2010-01-01T04:02:31Z</time>
      </trkpt>
      <trkpt lat="51.11132369" lon="39.18929218">
        <ele>0.0000000</ele>
        <time>2010-01-01T04:02:34Z</time>
      </trkpt>
      <trkpt lat="51.11132369" lon="39.18919562">
        <ele>0.0000000</ele>
        <time>2010-01-01T04:02:37Z</time>
      </trkpt>
      <trkpt lat="51.11146514" lon="39.18902396">
        <ele>0.0000000</ele>
        <time>2010-01-01T04:02:44Z</time>
      </trkpt>
      <trkpt lat="51.11177498" lon="39.18874501">
        <ele>0.0000000</ele>
        <time>2010-01-01T04:02:58Z</time>
      </trkpt>
      <trkpt lat="51.11212523" lon="39.18856262">
        <ele>0.0000000</ele>
        <time>2010-01-01T04:03:13Z</time>
      </trkpt>
      <trkpt lat="51.11248221" lon="39.18834805">
        <ele>0.0000000</ele>
        <time>2010-01-01T04:03:28Z</time>
      </trkpt>
      <trkpt lat="51.11276510" lon="39.18819784">
        <ele>0.0000000</ele>
        <time>2010-01-01T04:03:40Z</time>
      </trkpt>
      <trkpt lat="51.11294022" lon="39.18806910">
        <ele>0.0000000</ele>
        <time>2010-01-01T04:03:48Z</time>
      </trkpt>
      <trkpt lat="51.11306819" lon="39.18791889">
        <ele>0.0000000</ele>
        <time>2010-01-01T04:03:54Z</time>
      </trkpt>
      <trkpt lat="51.11312881" lon="39.18780088">
        <ele>0.0000000</ele>
        <time>2010-01-01T04:03:58Z</time>
      </trkpt>
      <trkpt lat="51.11316922" lon="39.18773650">
        <ele>0.0000000</ele>
        <time>2010-01-01T04:04:00Z</time>
      </trkpt>
      <trkpt lat="51.11332751" lon="39.18744682">
        <ele>0.0000000</ele>
        <time>2010-01-01T04:04:10Z</time>
      </trkpt>
      <trkpt lat="51.11344201" lon="39.18721615">
        <ele>0.0000000</ele>
        <time>2010-01-01T04:04:17Z</time>
      </trkpt>
      <trkpt lat="51.11363733" lon="39.18707131">
        <ele>0.0000000</ele>
        <time>2010-01-01T04:04:26Z</time>
      </trkpt>
      <trkpt lat="51.11384276" lon="39.18686210">
        <ele>0.0000000</ele>
        <time>2010-01-01T04:04:36Z</time>
      </trkpt>
      <trkpt lat="51.11405155" lon="39.18664216">
        <ele>0.0000000</ele>
        <time>2010-01-01T04:04:46Z</time>
      </trkpt>
      <trkpt lat="51.11426034" lon="39.18651342">
        <ele>0.0000000</ele>
        <time>2010-01-01T04:04:55Z</time>
      </trkpt>
      <trkpt lat="51.11443209" lon="39.18642222">
        <ele>0.0000000</ele>
        <time>2010-01-01T04:05:02Z</time>
      </trkpt>
      <trkpt lat="51.11462068" lon="39.18635248">
        <ele>0.0000000</ele>
        <time>2010-01-01T04:05:10Z</time>
      </trkpt>
      <trkpt lat="51.11485304" lon="39.18633102">
        <ele>0.0000000</ele>
        <time>2010-01-01T04:05:19Z</time>
      </trkpt>
      <trkpt lat="51.11503826" lon="39.18627202">
        <ele>0.0000000</ele>
        <time>2010-01-01T04:05:27Z</time>
      </trkpt>
      <trkpt lat="51.11512245" lon="39.18618619">
        <ele>0.0000000</ele>
        <time>2010-01-01T04:05:31Z</time>
      </trkpt>
      <trkpt lat="51.11517633" lon="39.18611645">
        <ele>0.0000000</ele>
        <time>2010-01-01T04:05:33Z</time>
      </trkpt>
      <trkpt lat="51.11524031" lon="39.18598770">
        <ele>0.0000000</ele>
        <time>2010-01-01T04:05:38Z</time>
      </trkpt>
      <trkpt lat="51.11532113" lon="39.18573557">
        <ele>0.0000000</ele>
        <time>2010-01-01T04:05:45Z</time>
      </trkpt>
      <trkpt lat="51.11538848" lon="39.18542444">
        <ele>0.0000000</ele>
        <time>2010-01-01T04:05:53Z</time>
      </trkpt>
      <trkpt lat="51.11541879" lon="39.18525814">
        <ele>0.0000000</ele>
        <time>2010-01-01T04:05:57Z</time>
      </trkpt>
      <trkpt lat="51.11545920" lon="39.18508112">
        <ele>0.0000000</ele>
        <time>2010-01-01T04:06:02Z</time>
      </trkpt>
      <trkpt lat="51.11550635" lon="39.18489873">
        <ele>0.0000000</ele>
        <time>2010-01-01T04:06:07Z</time>
      </trkpt>
      <trkpt lat="51.11557033" lon="39.18478071">
        <ele>0.0000000</ele>
        <time>2010-01-01T04:06:11Z</time>
      </trkpt>
      <trkpt lat="51.11565788" lon="39.18464123">
        <ele>0.0000000</ele>
        <time>2010-01-01T04:06:16Z</time>
      </trkpt>
      <trkpt lat="51.11575891" lon="39.18438374">
        <ele>0.0000000</ele>
        <time>2010-01-01T04:06:23Z</time>
      </trkpt>
      <trkpt lat="51.11587341" lon="39.18425500">
        <ele>0.0000000</ele>
        <time>2010-01-01T04:06:29Z</time>
      </trkpt>
      <trkpt lat="51.11592392" lon="39.18428182">
        <ele>0.0000000</ele>
        <time>2010-01-01T04:06:31Z</time>
      </trkpt>
      <trkpt lat="51.11606199" lon="39.18431400">
        <ele>0.0000000</ele>
        <time>2010-01-01T04:06:37Z</time>
      </trkpt>
      <trkpt lat="51.11614954" lon="39.18415307">
        <ele>0.0000000</ele>
        <time>2010-01-01T04:06:42Z</time>
      </trkpt>
      <trkpt lat="51.11621689" lon="39.18401360">
        <ele>0.0000000</ele>
        <time>2010-01-01T04:06:47Z</time>
      </trkpt>
      <trkpt lat="51.11630781" lon="39.18383657">
        <ele>0.0000000</ele>
        <time>2010-01-01T04:06:52Z</time>
      </trkpt>
      <trkpt lat="51.11636843" lon="39.18371319">
        <ele>0.0000000</ele>
        <time>2010-01-01T04:06:56Z</time>
      </trkpt>
      <trkpt lat="51.11649976" lon="39.18348252">
        <ele>0.0000000</ele>
        <time>2010-01-01T04:07:04Z</time>
      </trkpt>
      <trkpt lat="51.11673548" lon="39.18314456">
        <ele>0.0000000</ele>
        <time>2010-01-01T04:07:17Z</time>
      </trkpt>
      <trkpt lat="51.11684997" lon="39.18301581">
        <ele>0.0000000</ele>
        <time>2010-01-01T04:07:22Z</time>
      </trkpt>
      <trkpt lat="51.11693416" lon="39.18293535">
        <ele>0.0000000</ele>
        <time>2010-01-01T04:07:26Z</time>
      </trkpt>
      <trkpt lat="51.11699477" lon="39.18282270">
        <ele>0.0000000</ele>
        <time>2010-01-01T04:07:30Z</time>
      </trkpt>
      <trkpt lat="51.11703855" lon="39.18268859">
        <ele>0.0000000</ele>
        <time>2010-01-01T04:07:34Z</time>
      </trkpt>
      <trkpt lat="51.11705538" lon="39.18253838">
        <ele>0.0000000</ele>
        <time>2010-01-01T04:07:38Z</time>
      </trkpt>
      <trkpt lat="51.11698130" lon="39.18228089">
        <ele>0.0000000</ele>
        <time>2010-01-01T04:07:45Z</time>
      </trkpt>
      <trkpt lat="51.11667150" lon="39.18148696">
        <ele>0.0000000</ele>
        <time>2010-01-01T04:08:08Z</time>
      </trkpt>
      <trkpt lat="51.11634822" lon="39.18088078">
        <ele>0.0000000</ele>
        <time>2010-01-01T04:08:28Z</time>
      </trkpt>
      <trkpt lat="51.11554676" lon="39.17920171">
        <ele>0.0000000</ele>
        <time>2010-01-01T04:09:21Z</time>
      </trkpt>
      <trkpt lat="51.11483957" lon="39.17787134">
        <ele>0.0000000</ele>
        <time>2010-01-01T04:10:05Z</time>
      </trkpt>
      <trkpt lat="51.11440178" lon="39.17715787">
        <ele>0.0000000</ele>
        <time>2010-01-01T04:10:30Z</time>
      </trkpt>
      <trkpt lat="51.11405829" lon="39.17657315">
        <ele>0.0000000</ele>
        <time>2010-01-01T04:10:50Z</time>
      </trkpt>
      <trkpt lat="51.11390674" lon="39.17613327">
        <ele>0.0000000</ele>
        <time>2010-01-01T04:11:03Z</time>
      </trkpt>
      <trkpt lat="51.11309513" lon="39.17428254">
        <ele>0.0000000</ele>
        <time>2010-01-01T04:12:00Z</time>
      </trkpt>
      <trkpt lat="51.11288297" lon="39.17377292">
        <ele>0.0000000</ele>
        <time>2010-01-01T04:12:15Z</time>
      </trkpt>
      <trkpt lat="51.11275163" lon="39.17344569">
        <ele>0.0000000</ele>
        <time>2010-01-01T04:12:25Z</time>
      </trkpt>
      <trkpt lat="51.11266407" lon="39.17313456">
        <ele>0.0000000</ele>
        <time>2010-01-01T04:12:33Z</time>
      </trkpt>
      <trkpt lat="51.11262365" lon="39.17290925">
        <ele>0.0000000</ele>
        <time>2010-01-01T04:12:39Z</time>
      </trkpt>
      <trkpt lat="51.11249568" lon="39.17221188">
        <ele>0.0000000</ele>
        <time>2010-01-01T04:12:57Z</time>
      </trkpt>
      <trkpt lat="51.11240812" lon="39.17173444">
        <ele>0.0000000</ele>
        <time>2010-01-01T04:13:10Z</time>
      </trkpt>
      <trkpt lat="51.11229025" lon="39.17129993">
        <ele>0.0000000</ele>
        <time>2010-01-01T04:13:22Z</time>
      </trkpt>
      <trkpt lat="51.11186591" lon="39.17015730">
        <ele>0.0000000</ele>
        <time>2010-01-01T04:13:55Z</time>
      </trkpt>
      <trkpt lat="51.11163690" lon="39.16937410">
        <ele>0.0000000</ele>
        <time>2010-01-01T04:14:17Z</time>
      </trkpt>
      <trkpt lat="51.11144830" lon="39.16862308">
        <ele>0.0000000</ele>
        <time>2010-01-01T04:14:37Z</time>
      </trkpt>
      <trkpt lat="51.11134053" lon="39.16823684">
        <ele>0.0000000</ele>
        <time>2010-01-01T04:14:48Z</time>
      </trkpt>
      <trkpt lat="51.11120582" lon="39.16794716">
        <ele>0.0000000</ele>
        <time>2010-01-01T04:14:57Z</time>
      </trkpt>
      <trkpt lat="51.11105089" lon="39.16768431">
        <ele>0.0000000</ele>
        <time>2010-01-01T04:15:06Z</time>
      </trkpt>
      <trkpt lat="51.11097343" lon="39.16757166">
        <ele>0.0000000</ele>
        <time>2010-01-01T04:15:10Z</time>
      </trkpt>
      <trkpt lat="51.11092292" lon="39.16738926">
        <ele>0.0000000</ele>
        <time>2010-01-01T04:15:15Z</time>
      </trkpt>
      <trkpt lat="51.11089597" lon="39.16719078">
        <ele>0.0000000</ele>
        <time>2010-01-01T04:15:20Z</time>
      </trkpt>
      <trkpt lat="51.11085219" lon="39.16695475">
        <ele>0.0000000</ele>
        <time>2010-01-01T04:15:27Z</time>
      </trkpt>
      <trkpt lat="51.11080504" lon="39.16677236">
        <ele>0.0000000</ele>
        <time>2010-01-01T04:15:31Z</time>
      </trkpt>
      <trkpt lat="51.11070064" lon="39.16640221">
        <ele>0.0000000</ele>
        <time>2010-01-01T04:15:42Z</time>
      </trkpt>
      <trkpt lat="51.11059960" lon="39.16619836">
        <ele>0.0000000</ele>
        <time>2010-01-01T04:15:48Z</time>
      </trkpt>
      <trkpt lat="51.11035038" lon="39.16606962">
        <ele>0.0000000</ele>
        <time>2010-01-01T04:15:59Z</time>
      </trkpt>
      <trkpt lat="51.11012809" lon="39.16605889">
        <ele>0.0000000</ele>
        <time>2010-01-01T04:16:08Z</time>
      </trkpt>
      <trkpt lat="51.11001358" lon="39.16605889">
        <ele>0.0000000</ele>
        <time>2010-01-01T04:16:12Z</time>
      </trkpt>
      <trkpt lat="51.10988560" lon="39.16603743">
        <ele>0.0000000</ele>
        <time>2010-01-01T04:16:17Z</time>
      </trkpt>
      <trkpt lat="51.10969026" lon="39.16600524">
        <ele>0.0000000</ele>
        <time>2010-01-01T04:16:25Z</time>
      </trkpt>
      <trkpt lat="51.10947471" lon="39.16576921">
        <ele>0.0000000</ele>
        <time>2010-01-01T04:16:36Z</time>
      </trkpt>
      <trkpt lat="51.10936694" lon="39.16562974">
        <ele>0.0000000</ele>
        <time>2010-01-01T04:16:41Z</time>
      </trkpt>
      <trkpt lat="51.10924569" lon="39.16549026">
        <ele>0.0000000</ele>
        <time>2010-01-01T04:16:47Z</time>
      </trkpt>
      <trkpt lat="51.10911771" lon="39.16540443">
        <ele>0.0000000</ele>
        <time>2010-01-01T04:16:53Z</time>
      </trkpt>
      <trkpt lat="51.10903688" lon="39.16522204">
        <ele>0.0000000</ele>
        <time>2010-01-01T04:16:58Z</time>
      </trkpt>
      <trkpt lat="51.10915139" lon="39.16513621">
        <ele>0.0000000</ele>
        <time>2010-01-01T04:17:03Z</time>
      </trkpt>
      <trkpt lat="51.10933326" lon="39.16485726">
        <ele>0.0000000</ele>
        <time>2010-01-01T04:17:14Z</time>
      </trkpt>
      <trkpt lat="51.10960270" lon="39.16453539">
        <ele>0.0000000</ele>
        <time>2010-01-01T04:17:27Z</time>
      </trkpt>
      <trkpt lat="51.10987213" lon="39.16422426">
        <ele>0.0000000</ele>
        <time>2010-01-01T04:17:40Z</time>
      </trkpt>
      <trkpt lat="51.11004053" lon="39.16404187">
        <ele>0.0000000</ele>
        <time>2010-01-01T04:17:49Z</time>
      </trkpt>
      <trkpt lat="51.11020219" lon="39.16390239">
        <ele>0.0000000</ele>
        <time>2010-01-01T04:17:56Z</time>
      </trkpt>
      <trkpt lat="51.11035038" lon="39.16375219">
        <ele>0.0000000</ele>
        <time>2010-01-01T04:18:03Z</time>
      </trkpt>
      <trkpt lat="51.11043121" lon="39.16358053">
        <ele>0.0000000</ele>
        <time>2010-01-01T04:18:08Z</time>
      </trkpt>
      <trkpt lat="51.11051877" lon="39.16321575">
        <ele>0.0000000</ele>
        <time>2010-01-01T04:18:18Z</time>
      </trkpt>
      <trkpt lat="51.11061307" lon="39.16272222">
        <ele>0.0000000</ele>
        <time>2010-01-01T04:18:31Z</time>
      </trkpt>
      <trkpt lat="51.11071411" lon="39.16220724">
        <ele>0.0000000</ele>
        <time>2010-01-01T04:18:45Z</time>
      </trkpt>
      <trkpt lat="51.11083535" lon="39.16148840">
        <ele>0.0000000</ele>
        <time>2010-01-01T04:19:03Z</time>
      </trkpt>
      <trkpt lat="51.11096333" lon="39.16093051">
        <ele>0.0000000</ele>
        <time>2010-01-01T04:19:18Z</time>
      </trkpt>
      <trkpt lat="51.11107110" lon="39.16030823">
        <ele>0.0000000</ele>
        <time>2010-01-01T04:19:34Z</time>
      </trkpt>
      <trkpt lat="51.11117887" lon="39.15972888">
        <ele>0.0000000</ele>
        <time>2010-01-01T04:19:50Z</time>
      </trkpt>
      <trkpt lat="51.11125970" lon="39.15936410">
        <ele>0.0000000</ele>
        <time>2010-01-01T04:19:59Z</time>
      </trkpt>
      <trkpt lat="51.11130685" lon="39.15863453">
        <ele>0.0000000</ele>
        <time>2010-01-01T04:20:18Z</time>
      </trkpt>
      <trkpt lat="51.11138768" lon="39.15813028">
        <ele>0.0000000</ele>
        <time>2010-01-01T04:20:31Z</time>
      </trkpt>
      <trkpt lat="51.11148198" lon="39.15777623">
        <ele>0.0000000</ele>
        <time>2010-01-01T04:20:41Z</time>
      </trkpt>
      <trkpt lat="51.11150892" lon="39.15744363">
        <ele>0.0000000</ele>
        <time>2010-01-01T04:20:49Z</time>
      </trkpt>
      <trkpt lat="51.11045815" lon="39.15698229">
        <ele>0.0000000</ele>
        <time>2010-01-01T04:21:33Z</time>
      </trkpt>
      <trkpt lat="51.10927263" lon="39.15651023">
        <ele>0.0000000</ele>
        <time>2010-01-01T04:22:22Z</time>
      </trkpt>
      <trkpt lat="51.10874723" lon="39.15623128">
        <ele>0.0000000</ele>
        <time>2010-01-01T04:22:44Z</time>
      </trkpt>
      <trkpt lat="51.10839695" lon="39.15608107">
        <ele>0.0000000</ele>
        <time>2010-01-01T04:22:58Z</time>
      </trkpt>
      <trkpt lat="51.10822855" lon="39.15582358">
        <ele>0.0000000</ele>
        <time>2010-01-01T04:23:08Z</time>
      </trkpt>
      <trkpt lat="51.10814772" lon="39.15561973">
        <ele>0.0000000</ele>
        <time>2010-01-01T04:23:14Z</time>
      </trkpt>
      <trkpt lat="51.10799952" lon="39.15511548">
        <ele>0.0000000</ele>
        <time>2010-01-01T04:23:28Z</time>
      </trkpt>
      <trkpt lat="51.10789174" lon="39.15484726">
        <ele>0.0000000</ele>
        <time>2010-01-01T04:23:36Z</time>
      </trkpt>
      <trkpt lat="51.10771660" lon="39.15469705">
        <ele>0.0000000</ele>
        <time>2010-01-01T04:23:44Z</time>
      </trkpt>
      <trkpt lat="51.10753472" lon="39.15450393">
        <ele>0.0000000</ele>
        <time>2010-01-01T04:23:52Z</time>
      </trkpt>
      <trkpt lat="51.10729896" lon="39.15445029">
        <ele>0.0000000</ele>
        <time>2010-01-01T04:24:02Z</time>
      </trkpt>
      <trkpt lat="51.10702277" lon="39.15441810">
        <ele>0.0000000</ele>
        <time>2010-01-01T04:24:13Z</time>
      </trkpt>
      <trkpt lat="51.10655796" lon="39.15445029">
        <ele>0.0000000</ele>
        <time>2010-01-01T04:24:32Z</time>
      </trkpt>
      <trkpt lat="51.10603252" lon="39.15393530">
        <ele>0.0000000</ele>
        <time>2010-01-01T04:24:56Z</time>
      </trkpt>
      <trkpt lat="51.10568223" lon="39.15355980">
        <ele>0.0000000</ele>
        <time>2010-01-01T04:25:13Z</time>
      </trkpt>
      <trkpt lat="51.10546666" lon="39.15333449">
        <ele>0.0000000</ele>
        <time>2010-01-01T04:25:24Z</time>
      </trkpt>
      <trkpt lat="51.10521741" lon="39.15307700">
        <ele>0.0000000</ele>
        <time>2010-01-01T04:25:35Z</time>
      </trkpt>
      <trkpt lat="51.10508268" lon="39.15299117">
        <ele>0.0000000</ele>
        <time>2010-01-01T04:25:41Z</time>
      </trkpt>
      <trkpt lat="51.10490079" lon="39.15355980">
        <ele>0.0000000</ele>
        <time>2010-01-01T04:25:57Z</time>
      </trkpt>
      <trkpt lat="51.10461111" lon="39.15433227">
        <ele>0.0000000</ele>
        <time>2010-01-01T04:26:20Z</time>
      </trkpt>
      <trkpt lat="51.10440228" lon="39.15491163">
        <ele>0.0000000</ele>
        <time>2010-01-01T04:26:37Z</time>
      </trkpt>
      <trkpt lat="51.10428775" lon="39.15530860">
        <ele>0.0000000</ele>
        <time>2010-01-01T04:26:48Z</time>
      </trkpt>
      <trkpt lat="51.10420691" lon="39.15553390">
        <ele>0.0000000</ele>
        <time>2010-01-01T04:26:54Z</time>
      </trkpt>
      <trkpt lat="51.10391724" lon="39.15546953">
        <ele>0.0000000</ele>
        <time>2010-01-01T04:27:06Z</time>
      </trkpt>
      <trkpt lat="51.10353324" lon="39.15513693">
        <ele>0.0000000</ele>
        <time>2010-01-01T04:27:23Z</time>
      </trkpt>
      <trkpt lat="51.10312229" lon="39.15458976">
        <ele>0.0000000</ele>
        <time>2010-01-01T04:27:45Z</time>
      </trkpt>
      <trkpt lat="51.10272482" lon="39.15413915">
        <ele>0.0000000</ele>
        <time>2010-01-01T04:28:04Z</time>
      </trkpt>
      <trkpt lat="51.10248902" lon="39.15376364">
        <ele>0.0000000</ele>
        <time>2010-01-01T04:28:18Z</time>
      </trkpt>
      <trkpt lat="51.10232060" lon="39.15349542">
        <ele>0.0000000</ele>
        <time>2010-01-01T04:28:27Z</time>
      </trkpt>
      <trkpt lat="51.10222628" lon="39.15332376">
        <ele>0.0000000</ele>
        <time>2010-01-01T04:28:33Z</time>
      </trkpt>
      <trkpt lat="51.10212523" lon="39.15301262">
        <ele>0.0000000</ele>
        <time>2010-01-01T04:28:42Z</time>
      </trkpt>
      <trkpt lat="51.10201070" lon="39.15277659">
        <ele>0.0000000</ele>
        <time>2010-01-01T04:28:49Z</time>
      </trkpt>
      <trkpt lat="51.10188943" lon="39.15247618">
        <ele>0.0000000</ele>
        <time>2010-01-01T04:28:58Z</time>
      </trkpt>
      <trkpt lat="51.10178838" lon="39.15217578">
        <ele>0.0000000</ele>
        <time>2010-01-01T04:29:07Z</time>
      </trkpt>
      <trkpt lat="51.10168058" lon="39.15207922">
        <ele>0.0000000</ele>
        <time>2010-01-01T04:29:12Z</time>
      </trkpt>
      <trkpt lat="51.10145152" lon="39.15237962">
        <ele>0.0000000</ele>
        <time>2010-01-01T04:29:24Z</time>
      </trkpt>
      <trkpt lat="51.10116856" lon="39.15292679">
        <ele>0.0000000</ele>
        <time>2010-01-01T04:29:41Z</time>
      </trkpt>
      <trkpt lat="51.10079802" lon="39.15336668">
        <ele>0.0000000</ele>
        <time>2010-01-01T04:30:00Z</time>
      </trkpt>
      <trkpt lat="51.10045442" lon="39.15367781">
        <ele>0.0000000</ele>
        <time>2010-01-01T04:30:16Z</time>
      </trkpt>
      <trkpt lat="51.10021862" lon="39.15403186">
        <ele>0.0000000</ele>
        <time>2010-01-01T04:30:29Z</time>
      </trkpt>
      <trkpt lat="51.10000302" lon="39.15430008">
        <ele>0.0000000</ele>
        <time>2010-01-01T04:30:40Z</time>
      </trkpt>
      <trkpt lat="51.09968637" lon="39.15452539">
        <ele>0.0000000</ele>
        <time>2010-01-01T04:30:54Z</time>
      </trkpt>
      <trkpt lat="51.09934276" lon="39.15473997">
        <ele>0.0000000</ele>
        <time>2010-01-01T04:31:08Z</time>
      </trkpt>
      <trkpt lat="51.09899241" lon="39.15509402">
        <ele>0.0000000</ele>
        <time>2010-01-01T04:31:25Z</time>
      </trkpt>
      <trkpt lat="51.09854774" lon="39.15533005">
        <ele>0.0000000</ele>
        <time>2010-01-01T04:31:44Z</time>
      </trkpt>
      <trkpt lat="51.09838604" lon="39.15549099">
        <ele>0.0000000</ele>
        <time>2010-01-01T04:31:51Z</time>
      </trkpt>
      <trkpt lat="51.09794136" lon="39.15569483">
        <ele>0.0000000</ele>
        <time>2010-01-01T04:32:10Z</time>
      </trkpt>
      <trkpt lat="51.09743604" lon="39.15586649">
        <ele>0.0000000</ele>
        <time>2010-01-01T04:32:31Z</time>
      </trkpt>
      <trkpt lat="51.09698461" lon="39.15578066">
        <ele>0.0000000</ele>
        <time>2010-01-01T04:32:49Z</time>
      </trkpt>
      <trkpt lat="51.09660055" lon="39.15555536">
        <ele>0.0000000</ele>
        <time>2010-01-01T04:33:05Z</time>
      </trkpt>
      <trkpt lat="51.09625693" lon="39.15528714">
        <ele>0.0000000</ele>
        <time>2010-01-01T04:33:20Z</time>
      </trkpt>
      <trkpt lat="51.09604131" lon="39.15512621">
        <ele>0.0000000</ele>
        <time>2010-01-01T04:33:30Z</time>
      </trkpt>
      <trkpt lat="51.09577853" lon="39.15479361">
        <ele>0.0000000</ele>
        <time>2010-01-01T04:33:43Z</time>
      </trkpt>
      <trkpt lat="51.09547533" lon="39.15453612">
        <ele>0.0000000</ele>
        <time>2010-01-01T04:33:57Z</time>
      </trkpt>
      <trkpt lat="51.09524624" lon="39.15420353">
        <ele>0.0000000</ele>
        <time>2010-01-01T04:34:10Z</time>
      </trkpt>
      <trkpt lat="51.09499693" lon="39.15411769">
        <ele>0.0000000</ele>
        <time>2010-01-01T04:34:20Z</time>
      </trkpt>
      <trkpt lat="51.09482174" lon="39.15403186">
        <ele>0.0000000</ele>
        <time>2010-01-01T04:34:27Z</time>
      </trkpt>
      <trkpt lat="51.09402664" lon="39.15345251">
        <ele>0.0000000</ele>
        <time>2010-01-01T04:35:02Z</time>
      </trkpt>
      <trkpt lat="51.09189733" lon="39.15156423">
        <ele>0.0000000</ele>
        <time>2010-01-01T04:36:40Z</time>
      </trkpt>
      <trkpt lat="51.08972748" lon="39.14965450">
        <ele>0.0000000</ele>
        <time>2010-01-01T04:38:19Z</time>
      </trkpt>
      <trkpt lat="51.08827187" lon="39.14798080">
        <ele>0.0000000</ele>
        <time>2010-01-01T04:39:31Z</time>
      </trkpt>
      <trkpt lat="51.08770579" lon="39.14688646">
        <ele>0.0000000</ele>
        <time>2010-01-01T04:40:07Z</time>
      </trkpt>
      <trkpt lat="51.08713970" lon="39.14592086">
        <ele>0.0000000</ele>
        <time>2010-01-01T04:40:40Z</time>
      </trkpt>
      <trkpt lat="51.08642535" lon="39.14424717">
        <ele>0.0000000</ele>
        <time>2010-01-01T04:41:31Z</time>
      </trkpt>
      <trkpt lat="51.08594011" lon="39.14268076">
        <ele>0.0000000</ele>
        <time>2010-01-01T04:42:15Z</time>
      </trkpt>
      <trkpt lat="51.08569750" lon="39.14184391">
        <ele>0.0000000</ele>
        <time>2010-01-01T04:42:38Z</time>
      </trkpt>
      <trkpt lat="51.08536052" lon="39.14087831">
        <ele>0.0000000</ele>
        <time>2010-01-01T04:43:05Z</time>
      </trkpt>
      <trkpt lat="51.08525269" lon="39.14021312">
        <ele>0.0000000</ele>
        <time>2010-01-01T04:43:23Z</time>
      </trkpt>
      <trkpt lat="51.08505051" lon="39.13946210">
        <ele>0.0000000</ele>
        <time>2010-01-01T04:43:43Z</time>
      </trkpt>
      <trkpt lat="51.08490224" lon="39.13834631">
        <ele>0.0000000</ele>
        <time>2010-01-01T04:44:12Z</time>
      </trkpt>
      <trkpt lat="51.08491572" lon="39.13765966">
        <ele>0.0000000</ele>
        <time>2010-01-01T04:44:29Z</time>
      </trkpt>
      <trkpt lat="51.08474049" lon="39.13609325">
        <ele>0.0000000</ele>
        <time>2010-01-01T04:45:09Z</time>
      </trkpt>
      <trkpt lat="51.08452483" lon="39.13495599">
        <ele>0.0000000</ele>
        <time>2010-01-01T04:45:39Z</time>
      </trkpt>
      <trkpt lat="51.08443047" lon="39.13396894">
        <ele>0.0000000</ele>
        <time>2010-01-01T04:46:04Z</time>
      </trkpt>
      <trkpt lat="51.08428220" lon="39.13321792">
        <ele>0.0000000</ele>
        <time>2010-01-01T04:46:24Z</time>
      </trkpt>
      <trkpt lat="51.08412045" lon="39.13248836">
        <ele>0.0000000</ele>
        <time>2010-01-01T04:46:43Z</time>
      </trkpt>
      <trkpt lat="51.08395870" lon="39.13173734">
        <ele>0.0000000</ele>
        <time>2010-01-01T04:47:03Z</time>
      </trkpt>
      <trkpt lat="51.08382391" lon="39.13109361">
        <ele>0.0000000</ele>
        <time>2010-01-01T04:47:21Z</time>
      </trkpt>
      <trkpt lat="51.08359476" lon="39.13036405">
        <ele>0.0000000</ele>
        <time>2010-01-01T04:47:41Z</time>
      </trkpt>
      <trkpt lat="51.08336561" lon="39.13004219">
        <ele>0.0000000</ele>
        <time>2010-01-01T04:47:53Z</time>
      </trkpt>
      <trkpt lat="51.08305558" lon="39.12955939">
        <ele>0.0000000</ele>
        <time>2010-01-01T04:48:11Z</time>
      </trkpt>
      <trkpt lat="51.08259053" lon="39.12915169">
        <ele>0.0000000</ele>
        <time>2010-01-01T04:48:32Z</time>
      </trkpt>
      <trkpt lat="51.08215244" lon="39.12838995">
        <ele>0.0000000</ele>
        <time>2010-01-01T04:48:58Z</time>
      </trkpt>
      <trkpt lat="51.08191654" lon="39.12790715">
        <ele>0.0000000</ele>
        <time>2010-01-01T04:49:13Z</time>
      </trkpt>
      <trkpt lat="51.08172782" lon="39.12740289">
        <ele>0.0000000</ele>
        <time>2010-01-01T04:49:28Z</time>
      </trkpt>
      <trkpt lat="51.08161998" lon="39.12710249">
        <ele>0.0000000</ele>
        <time>2010-01-01T04:49:37Z</time>
      </trkpt>
      <trkpt lat="51.08145822" lon="39.12657677">
        <ele>0.0000000</ele>
        <time>2010-01-01T04:49:51Z</time>
      </trkpt>
      <trkpt lat="51.08135038" lon="39.12630855">
        <ele>0.0000000</ele>
        <time>2010-01-01T04:49:59Z</time>
      </trkpt>
      <trkpt lat="51.08122906" lon="39.12600814">
        <ele>0.0000000</ele>
        <time>2010-01-01T04:50:08Z</time>
      </trkpt>
      <trkpt lat="51.08107404" lon="39.12563263">
        <ele>0.0000000</ele>
        <time>2010-01-01T04:50:20Z</time>
      </trkpt>
      <trkpt lat="51.08095946" lon="39.12534296">
        <ele>0.0000000</ele>
        <time>2010-01-01T04:50:28Z</time>
      </trkpt>
      <trkpt lat="51.08087858" lon="39.12513911">
        <ele>0.0000000</ele>
        <time>2010-01-01T04:50:34Z</time>
      </trkpt>
      <trkpt lat="51.08081118" lon="39.12490307">
        <ele>0.0000000</ele>
        <time>2010-01-01T04:50:41Z</time>
      </trkpt>
      <trkpt lat="51.08071007" lon="39.12455975">
        <ele>0.0000000</ele>
        <time>2010-01-01T04:50:50Z</time>
      </trkpt>
      <trkpt lat="51.08062245" lon="39.12428080">
        <ele>0.0000000</ele>
        <time>2010-01-01T04:50:58Z</time>
      </trkpt>
      <trkpt lat="51.08054157" lon="39.12400185">
        <ele>0.0000000</ele>
        <time>2010-01-01T04:51:06Z</time>
      </trkpt>
      <trkpt lat="51.08048765" lon="39.12371217">
        <ele>0.0000000</ele>
        <time>2010-01-01T04:51:14Z</time>
      </trkpt>
      <trkpt lat="51.08040677" lon="39.12351905">
        <ele>0.0000000</ele>
        <time>2010-01-01T04:51:19Z</time>
      </trkpt>
      <trkpt lat="51.08030566" lon="39.12344395">
        <ele>0.0000000</ele>
        <time>2010-01-01T04:51:24Z</time>
      </trkpt>
      <trkpt lat="51.08011020" lon="39.12347614">
        <ele>0.0000000</ele>
        <time>2010-01-01T04:51:32Z</time>
      </trkpt>
      <trkpt lat="51.07993495" lon="39.12352978">
        <ele>0.0000000</ele>
        <time>2010-01-01T04:51:39Z</time>
      </trkpt>
      <trkpt lat="51.07928115" lon="39.12351905">
        <ele>0.0000000</ele>
        <time>2010-01-01T04:52:05Z</time>
      </trkpt>
      <trkpt lat="51.07859363" lon="39.12367999">
        <ele>0.0000000</ele>
        <time>2010-01-01T04:52:33Z</time>
      </trkpt>
      <trkpt lat="51.07806113" lon="39.12364780">
        <ele>0.0000000</ele>
        <time>2010-01-01T04:52:54Z</time>
      </trkpt>
      <trkpt lat="51.07775781" lon="39.12360488">
        <ele>0.0000000</ele>
        <time>2010-01-01T04:53:06Z</time>
      </trkpt>
      <trkpt lat="51.07734663" lon="39.12357270">
        <ele>0.0000000</ele>
        <time>2010-01-01T04:53:23Z</time>
      </trkpt>
      <trkpt lat="51.07705678" lon="39.12351905">
        <ele>0.0000000</ele>
        <time>2010-01-01T04:53:35Z</time>
      </trkpt>
      <trkpt lat="51.07657819" lon="39.12341177">
        <ele>0.0000000</ele>
        <time>2010-01-01T04:53:54Z</time>
      </trkpt>
      <trkpt lat="51.07640967" lon="39.12330448">
        <ele>0.0000000</ele>
        <time>2010-01-01T04:54:01Z</time>
      </trkpt>
      <trkpt lat="51.07635575" lon="39.12298261">
        <ele>0.0000000</ele>
        <time>2010-01-01T04:54:10Z</time>
      </trkpt>
      <trkpt lat="51.07620071" lon="39.12183463">
        <ele>0.0000000</ele>
        <time>2010-01-01T04:54:39Z</time>
      </trkpt>
      <trkpt lat="51.07613330" lon="39.12065445">
        <ele>0.0000000</ele>
        <time>2010-01-01T04:55:09Z</time>
      </trkpt>
      <trkpt lat="51.07618049" lon="39.12008583">
        <ele>0.0000000</ele>
        <time>2010-01-01T04:55:23Z</time>
      </trkpt>
      <trkpt lat="51.07620745" lon="39.11947428">
        <ele>0.0000000</ele>
        <time>2010-01-01T04:55:39Z</time>
      </trkpt>
      <trkpt lat="51.07621419" lon="39.11888420">
        <ele>0.0000000</ele>
        <time>2010-01-01T04:55:54Z</time>
      </trkpt>
      <trkpt lat="51.07625464" lon="39.11824047">
        <ele>0.0000000</ele>
        <time>2010-01-01T04:56:10Z</time>
      </trkpt>
      <trkpt lat="51.07625464" lon="39.11771475">
        <ele>0.0000000</ele>
        <time>2010-01-01T04:56:23Z</time>
      </trkpt>
      <trkpt lat="51.07630856" lon="39.11716758">
        <ele>0.0000000</ele>
        <time>2010-01-01T04:56:37Z</time>
      </trkpt>
      <trkpt lat="51.07630856" lon="39.11683499">
        <ele>0.0000000</ele>
        <time>2010-01-01T04:56:45Z</time>
      </trkpt>
      <trkpt lat="51.07620071" lon="39.11645948">
        <ele>0.0000000</ele>
        <time>2010-01-01T04:56:56Z</time>
      </trkpt>
      <trkpt lat="51.07595804" lon="39.11640584">
        <ele>0.0000000</ele>
        <time>2010-01-01T04:57:06Z</time>
      </trkpt>
      <trkpt lat="51.07570863" lon="39.11648094">
        <ele>0.0000000</ele>
        <time>2010-01-01T04:57:16Z</time>
      </trkpt>
      <trkpt lat="51.07522329" lon="39.11655604">
        <ele>0.0000000</ele>
        <time>2010-01-01T04:57:35Z</time>
      </trkpt>
      <trkpt lat="51.07470423" lon="39.11666333">
        <ele>0.0000000</ele>
        <time>2010-01-01T04:57:56Z</time>
      </trkpt>
      <trkpt lat="51.07417169" lon="39.11686718">
        <ele>0.0000000</ele>
        <time>2010-01-01T04:58:18Z</time>
      </trkpt>
      <trkpt lat="51.07379419" lon="39.11709248">
        <ele>0.0000000</ele>
        <time>2010-01-01T04:58:34Z</time>
      </trkpt>
      <trkpt lat="51.07312007" lon="39.11734997">
        <ele>0.0000000</ele>
        <time>2010-01-01T04:59:02Z</time>
      </trkpt>
      <trkpt lat="51.07216281" lon="39.11791860">
        <ele>0.0000000</ele>
        <time>2010-01-01T04:59:43Z</time>
      </trkpt>
      <trkpt lat="51.07047069" lon="39.11887347">
        <ele>0.0000000</ele>
        <time>2010-01-01T05:00:55Z</time>
      </trkpt>
      <trkpt lat="51.06836726" lon="39.11987125">
        <ele>0.0000000</ele>
        <time>2010-01-01T05:02:23Z</time>
      </trkpt>
      <trkpt lat="51.06775374" lon="39.12023603">
        <ele>0.0000000</ele>
        <time>2010-01-01T05:02:49Z</time>
      </trkpt>
      <trkpt lat="51.06736945" lon="39.12037551">
        <ele>0.0000000</ele>
        <time>2010-01-01T05:03:05Z</time>
      </trkpt>
      <trkpt lat="51.06712673" lon="39.12043988">
        <ele>0.0000000</ele>
        <time>2010-01-01T05:03:14Z</time>
      </trkpt>
      <trkpt lat="51.06647948" lon="39.12054717">
        <ele>0.0000000</ele>
        <time>2010-01-01T05:03:41Z</time>
      </trkpt>
      <trkpt lat="51.06619631" lon="39.12053644">
        <ele>0.0000000</ele>
        <time>2010-01-01T05:03:52Z</time>
      </trkpt>
      <trkpt lat="51.06577155" lon="39.12047206">
        <ele>0.0000000</ele>
        <time>2010-01-01T05:04:09Z</time>
      </trkpt>
      <trkpt lat="51.06548837" lon="39.12043988">
        <ele>0.0000000</ele>
        <time>2010-01-01T05:04:20Z</time>
      </trkpt>
      <trkpt lat="51.06508383" lon="39.12050425">
        <ele>0.0000000</ele>
        <time>2010-01-01T05:04:37Z</time>
      </trkpt>
      <trkpt lat="51.06479391" lon="39.12061154">
        <ele>0.0000000</ele>
        <time>2010-01-01T05:04:49Z</time>
      </trkpt>
      <trkpt lat="51.06437587" lon="39.12065445">
        <ele>0.0000000</ele>
        <time>2010-01-01T05:05:05Z</time>
      </trkpt>
      <trkpt lat="51.06304758" lon="39.12093340">
        <ele>0.0000000</ele>
        <time>2010-01-01T05:05:59Z</time>
      </trkpt>
      <trkpt lat="51.06233959" lon="39.12106215">
        <ele>0.0000000</ele>
        <time>2010-01-01T05:06:27Z</time>
      </trkpt>
      <trkpt lat="51.06122702" lon="39.12119090">
        <ele>0.0000000</ele>
        <time>2010-01-01T05:07:12Z</time>
      </trkpt>
      <trkpt lat="51.06047180" lon="39.12123381">
        <ele>0.0000000</ele>
        <time>2010-01-01T05:07:42Z</time>
      </trkpt>
      <trkpt lat="51.05993235" lon="39.12110507">
        <ele>0.0000000</ele>
        <time>2010-01-01T05:08:04Z</time>
      </trkpt>
      <trkpt lat="51.05955473" lon="39.12099778">
        <ele>0.0000000</ele>
        <time>2010-01-01T05:08:20Z</time>
      </trkpt>
      <trkpt lat="51.05906922" lon="39.12095486">
        <ele>0.0000000</ele>
        <time>2010-01-01T05:08:39Z</time>
      </trkpt>
      <trkpt lat="51.05873205" lon="39.12104069">
        <ele>0.0000000</ele>
        <time>2010-01-01T05:08:53Z</time>
      </trkpt>
      <trkpt lat="51.05835443" lon="39.12123381">
        <ele>0.0000000</ele>
        <time>2010-01-01T05:09:09Z</time>
      </trkpt>
      <trkpt lat="51.05794982" lon="39.12159859">
        <ele>0.0000000</ele>
        <time>2010-01-01T05:09:27Z</time>
      </trkpt>
      <trkpt lat="51.05770706" lon="39.12198483">
        <ele>0.0000000</ele>
        <time>2010-01-01T05:09:41Z</time>
      </trkpt>
      <trkpt lat="51.05739686" lon="39.12241398">
        <ele>0.0000000</ele>
        <time>2010-01-01T05:09:57Z</time>
      </trkpt>
      <trkpt lat="51.05685737" lon="39.12312209">
        <ele>0.0000000</ele>
        <time>2010-01-01T05:10:25Z</time>
      </trkpt>
      <trkpt lat="51.05658763" lon="39.12335812">
        <ele>0.0000000</ele>
        <time>2010-01-01T05:10:38Z</time>
      </trkpt>
      <trkpt lat="51.05647298" lon="39.12366926">
        <ele>0.0000000</ele>
        <time>2010-01-01T05:10:47Z</time>
      </trkpt>
      <trkpt lat="51.05643252" lon="39.12393748">
        <ele>0.0000000</ele>
        <time>2010-01-01T05:10:54Z</time>
      </trkpt>
      <trkpt lat="51.05642578" lon="39.12413060">
        <ele>0.0000000</ele>
        <time>2010-01-01T05:10:59Z</time>
      </trkpt>
      <trkpt lat="51.05644601" lon="39.12435590">
        <ele>0.0000000</ele>
        <time>2010-01-01T05:11:04Z</time>
      </trkpt>
      <trkpt lat="51.05647973" lon="39.12450611">
        <ele>0.0000000</ele>
        <time>2010-01-01T05:11:08Z</time>
      </trkpt>
      <trkpt lat="51.05647973" lon="39.12488162">
        <ele>0.0000000</ele>
        <time>2010-01-01T05:11:18Z</time>
      </trkpt>
      <trkpt lat="51.05633137" lon="39.12511765">
        <ele>0.0000000</ele>
        <time>2010-01-01T05:11:26Z</time>
      </trkpt>
      <trkpt lat="51.05623021" lon="39.12537514">
        <ele>0.0000000</ele>
        <time>2010-01-01T05:11:34Z</time>
      </trkpt>
      <trkpt lat="51.05618975" lon="39.12560045">
        <ele>0.0000000</ele>
        <time>2010-01-01T05:11:40Z</time>
      </trkpt>
      <trkpt lat="51.05610208" lon="39.12591158">
        <ele>0.0000000</ele>
        <time>2010-01-01T05:11:48Z</time>
      </trkpt>
      <trkpt lat="51.05598069" lon="39.12611543">
        <ele>0.0000000</ele>
        <time>2010-01-01T05:11:55Z</time>
      </trkpt>
      <trkpt lat="51.05577164" lon="39.12623345">
        <ele>0.0000000</ele>
        <time>2010-01-01T05:12:04Z</time>
      </trkpt>
      <trkpt lat="51.05555584" lon="39.12637292">
        <ele>0.0000000</ele>
        <time>2010-01-01T05:12:14Z</time>
      </trkpt>
      <trkpt lat="51.05534678" lon="39.12664115">
        <ele>0.0000000</ele>
        <time>2010-01-01T05:12:24Z</time>
      </trkpt>
      <trkpt lat="51.05519167" lon="39.12675916">
        <ele>0.0000000</ele>
        <time>2010-01-01T05:12:31Z</time>
      </trkpt>
      <trkpt lat="51.05498261" lon="39.12700593">
        <ele>0.0000000</ele>
        <time>2010-01-01T05:12:42Z</time>
      </trkpt>
      <trkpt lat="51.05482076" lon="39.12716686">
        <ele>0.0000000</ele>
        <time>2010-01-01T05:12:49Z</time>
      </trkpt>
      <trkpt lat="51.05461844" lon="39.12748872">
        <ele>0.0000000</ele>
        <time>2010-01-01T05:13:01Z</time>
      </trkpt>
      <trkpt lat="51.05449031" lon="39.12763893">
        <ele>0.0000000</ele>
        <time>2010-01-01T05:13:07Z</time>
      </trkpt>
      <trkpt lat="51.05427450" lon="39.12795006">
        <ele>0.0000000</ele>
        <time>2010-01-01T05:13:19Z</time>
      </trkpt>
      <trkpt lat="51.05404520" lon="39.12815391">
        <ele>0.0000000</ele>
        <time>2010-01-01T05:13:29Z</time>
      </trkpt>
      <trkpt lat="51.05382265" lon="39.12830412">
        <ele>0.0000000</ele>
        <time>2010-01-01T05:13:39Z</time>
      </trkpt>
      <trkpt lat="51.05364731" lon="39.12858306">
        <ele>0.0000000</ele>
        <time>2010-01-01T05:13:49Z</time>
      </trkpt>
      <trkpt lat="51.05351917" lon="39.12870108">
        <ele>0.0000000</ele>
        <time>2010-01-01T05:13:55Z</time>
      </trkpt>
      <trkpt lat="51.05326964" lon="39.12888347">
        <ele>0.0000000</ele>
        <time>2010-01-01T05:14:06Z</time>
      </trkpt>
      <trkpt lat="51.05302010" lon="39.12896930">
        <ele>0.0000000</ele>
        <time>2010-01-01T05:14:16Z</time>
      </trkpt>
      <trkpt lat="51.05281778" lon="39.12907659">
        <ele>0.0000000</ele>
        <time>2010-01-01T05:14:24Z</time>
      </trkpt>
      <trkpt lat="51.05255476" lon="39.12914096">
        <ele>0.0000000</ele>
        <time>2010-01-01T05:14:35Z</time>
      </trkpt>
      <trkpt lat="51.05230522" lon="39.12925898">
        <ele>0.0000000</ele>
        <time>2010-01-01T05:14:46Z</time>
      </trkpt>
      <trkpt lat="51.05204219" lon="39.12941991">
        <ele>0.0000000</ele>
        <time>2010-01-01T05:14:57Z</time>
      </trkpt>
      <trkpt lat="51.05170498" lon="39.12961303">
        <ele>0.0000000</ele>
        <time>2010-01-01T05:15:11Z</time>
      </trkpt>
      <trkpt lat="51.05141497" lon="39.12992417">
        <ele>0.0000000</ele>
        <time>2010-01-01T05:15:25Z</time>
      </trkpt>
      <trkpt lat="51.05101030" lon="39.13031041">
        <ele>0.0000000</ele>
        <time>2010-01-01T05:15:44Z</time>
      </trkpt>
      <trkpt lat="51.05071355" lon="39.13060009">
        <ele>0.0000000</ele>
        <time>2010-01-01T05:15:58Z</time>
      </trkpt>
      <trkpt lat="51.05034260" lon="39.13094341">
        <ele>0.0000000</ele>
        <time>2010-01-01T05:16:15Z</time>
      </trkpt>
      <trkpt lat="51.05003235" lon="39.13131892">
        <ele>0.0000000</ele>
        <time>2010-01-01T05:16:31Z</time>
      </trkpt>
      <trkpt lat="51.04977605" lon="39.13168370">
        <ele>0.0000000</ele>
        <time>2010-01-01T05:16:45Z</time>
      </trkpt>
      <trkpt lat="51.04951975" lon="39.13200556">
        <ele>0.0000000</ele>
        <time>2010-01-01T05:16:58Z</time>
      </trkpt>
      <trkpt lat="51.04929718" lon="39.13229524">
        <ele>0.0000000</ele>
        <time>2010-01-01T05:17:09Z</time>
      </trkpt>
      <trkpt lat="51.04903414" lon="39.13253128">
        <ele>0.0000000</ele>
        <time>2010-01-01T05:17:21Z</time>
      </trkpt>
      <trkpt lat="51.04877109" lon="39.13279950">
        <ele>0.0000000</ele>
        <time>2010-01-01T05:17:34Z</time>
      </trkpt>
      <trkpt lat="51.04854177" lon="39.13299262">
        <ele>0.0000000</ele>
        <time>2010-01-01T05:17:44Z</time>
      </trkpt>
      <trkpt lat="51.04810335" lon="39.13336813">
        <ele>0.0000000</ele>
        <time>2010-01-01T05:18:04Z</time>
      </trkpt>
      <trkpt lat="51.04790101" lon="39.13355052">
        <ele>0.0000000</ele>
        <time>2010-01-01T05:18:13Z</time>
      </trkpt>
      <trkpt lat="51.04762446" lon="39.13377582">
        <ele>0.0000000</ele>
        <time>2010-01-01T05:18:26Z</time>
      </trkpt>
      <trkpt lat="51.04730071" lon="39.13410842">
        <ele>0.0000000</ele>
        <time>2010-01-01T05:18:41Z</time>
      </trkpt>
      <trkpt lat="51.04681506" lon="39.13444101">
        <ele>0.0000000</ele>
        <time>2010-01-01T05:19:02Z</time>
      </trkpt>
      <trkpt lat="51.04647781" lon="39.13449465">
        <ele>0.0000000</ele>
        <time>2010-01-01T05:19:16Z</time>
      </trkpt>
      <trkpt lat="51.04610008" lon="39.13462340">
        <ele>0.0000000</ele>
        <time>2010-01-01T05:19:31Z</time>
      </trkpt>
      <trkpt lat="51.04583702" lon="39.13467704">
        <ele>0.0000000</ele>
        <time>2010-01-01T05:19:42Z</time>
      </trkpt>
      <trkpt lat="51.04547952" lon="39.13458048">
        <ele>0.0000000</ele>
        <time>2010-01-01T05:19:57Z</time>
      </trkpt>
      <trkpt lat="51.04521646" lon="39.13451611">
        <ele>0.0000000</ele>
        <time>2010-01-01T05:20:07Z</time>
      </trkpt>
      <trkpt lat="51.04491292" lon="39.13447320">
        <ele>0.0000000</ele>
        <time>2010-01-01T05:20:19Z</time>
      </trkpt>
      <trkpt lat="51.04444749" lon="39.13426935">
        <ele>0.0000000</ele>
        <time>2010-01-01T05:20:39Z</time>
      </trkpt>
      <trkpt lat="51.04398205" lon="39.13410842">
        <ele>0.0000000</ele>
        <time>2010-01-01T05:20:58Z</time>
      </trkpt>
      <trkpt lat="51.04370549" lon="39.13410842">
        <ele>0.0000000</ele>
        <time>2010-01-01T05:21:09Z</time>
      </trkpt>
      <trkpt lat="51.04337496" lon="39.13423716">
        <ele>0.0000000</ele>
        <time>2010-01-01T05:21:23Z</time>
      </trkpt>
      <trkpt lat="51.04290951" lon="39.13434445">
        <ele>0.0000000</ele>
        <time>2010-01-01T05:21:41Z</time>
      </trkpt>
      <trkpt lat="51.04272063" lon="39.13439809">
        <ele>0.0000000</ele>
        <time>2010-01-01T05:21:49Z</time>
      </trkpt>
      <trkpt lat="51.04189765" lon="39.13429081">
        <ele>0.0000000</ele>
        <time>2010-01-01T05:22:22Z</time>
      </trkpt>
      <trkpt lat="51.04133775" lon="39.13444101">
        <ele>0.0000000</ele>
        <time>2010-01-01T05:22:45Z</time>
      </trkpt>
      <trkpt lat="51.04097347" lon="39.13458048">
        <ele>0.0000000</ele>
        <time>2010-01-01T05:23:00Z</time>
      </trkpt>
      <trkpt lat="51.04054173" lon="39.13463413">
        <ele>0.0000000</ele>
        <time>2010-01-01T05:23:17Z</time>
      </trkpt>
      <trkpt lat="51.04014372" lon="39.13463413">
        <ele>0.0000000</ele>
        <time>2010-01-01T05:23:33Z</time>
      </trkpt>
      <trkpt lat="51.03979292" lon="39.13454830">
        <ele>0.0000000</ele>
        <time>2010-01-01T05:23:47Z</time>
      </trkpt>
      <trkpt lat="51.03948260" lon="39.13447320">
        <ele>0.0000000</ele>
        <time>2010-01-01T05:24:00Z</time>
      </trkpt>
      <trkpt lat="51.03910482" lon="39.13445174">
        <ele>0.0000000</ele>
        <time>2010-01-01T05:24:15Z</time>
      </trkpt>
      <trkpt lat="51.03882148" lon="39.13467704">
        <ele>0.0000000</ele>
        <time>2010-01-01T05:24:28Z</time>
      </trkpt>
      <trkpt lat="51.03858536" lon="39.13491308">
        <ele>0.0000000</ele>
        <time>2010-01-01T05:24:39Z</time>
      </trkpt>
      <trkpt lat="51.03840996" lon="39.13499891">
        <ele>0.0000000</ele>
        <time>2010-01-01T05:24:46Z</time>
      </trkpt>
      <trkpt lat="51.03806590" lon="39.13511693">
        <ele>0.0000000</ele>
        <time>2010-01-01T05:25:00Z</time>
      </trkpt>
      <trkpt lat="51.03776231" lon="39.13506328">
        <ele>0.0000000</ele>
        <time>2010-01-01T05:25:12Z</time>
      </trkpt>
      <trkpt lat="51.03743174" lon="39.13511693">
        <ele>0.0000000</ele>
        <time>2010-01-01T05:25:26Z</time>
      </trkpt>
      <trkpt lat="51.03695274" lon="39.13528859">
        <ele>0.0000000</ele>
        <time>2010-01-01T05:25:45Z</time>
      </trkpt>
      <trkpt lat="51.03654120" lon="39.13527786">
        <ele>0.0000000</ele>
        <time>2010-01-01T05:26:02Z</time>
      </trkpt>
      <trkpt lat="51.03625110" lon="39.13543879">
        <ele>0.0000000</ele>
        <time>2010-01-01T05:26:14Z</time>
      </trkpt>
      <trkpt lat="51.03581256" lon="39.13552462">
        <ele>0.0000000</ele>
        <time>2010-01-01T05:26:32Z</time>
      </trkpt>
      <trkpt lat="51.03550896" lon="39.13566410">
        <ele>0.0000000</ele>
        <time>2010-01-01T05:26:45Z</time>
      </trkpt>
      <trkpt lat="51.03519187" lon="39.13563191">
        <ele>0.0000000</ele>
        <time>2010-01-01T05:26:57Z</time>
      </trkpt>
      <trkpt lat="51.03486128" lon="39.13565337">
        <ele>0.0000000</ele>
        <time>2010-01-01T05:27:11Z</time>
      </trkpt>
      <trkpt lat="51.03441598" lon="39.13570701">
        <ele>0.0000000</ele>
        <time>2010-01-01T05:27:28Z</time>
      </trkpt>
      <trkpt lat="51.03413936" lon="39.13578211">
        <ele>0.0000000</ele>
        <time>2010-01-01T05:27:40Z</time>
      </trkpt>
      <trkpt lat="51.03386274" lon="39.13590013">
        <ele>0.0000000</ele>
        <time>2010-01-01T05:27:51Z</time>
      </trkpt>
      <trkpt lat="51.03370756" lon="39.13601815">
        <ele>0.0000000</ele>
        <time>2010-01-01T05:27:58Z</time>
      </trkpt>
      <trkpt lat="51.03352539" lon="39.13617908">
        <ele>0.0000000</ele>
        <time>2010-01-01T05:28:06Z</time>
      </trkpt>
      <trkpt lat="51.03338370" lon="39.13631856">
        <ele>0.0000000</ele>
        <time>2010-01-01T05:28:13Z</time>
      </trkpt>
      <trkpt lat="51.03321503" lon="39.13643657">
        <ele>0.0000000</ele>
        <time>2010-01-01T05:28:20Z</time>
      </trkpt>
      <trkpt lat="51.03306659" lon="39.13643657">
        <ele>0.0000000</ele>
        <time>2010-01-01T05:28:26Z</time>
      </trkpt>
      <trkpt lat="51.03286418" lon="39.13627564">
        <ele>0.0000000</ele>
        <time>2010-01-01T05:28:35Z</time>
      </trkpt>
      <trkpt lat="51.03268201" lon="39.13603961">
        <ele>0.0000000</ele>
        <time>2010-01-01T05:28:45Z</time>
      </trkpt>
      <trkpt lat="51.03244586" lon="39.13592159">
        <ele>0.0000000</ele>
        <time>2010-01-01T05:28:55Z</time>
      </trkpt>
      <trkpt lat="51.03232441" lon="39.13598596">
        <ele>0.0000000</ele>
        <time>2010-01-01T05:29:00Z</time>
      </trkpt>
      <trkpt lat="51.03202079" lon="39.13587867">
        <ele>0.0000000</ele>
        <time>2010-01-01T05:29:12Z</time>
      </trkpt>
      <trkpt lat="51.03171716" lon="39.13568555">
        <ele>0.0000000</ele>
        <time>2010-01-01T05:29:25Z</time>
      </trkpt>
      <trkpt lat="51.03132582" lon="39.13566410">
        <ele>0.0000000</ele>
        <time>2010-01-01T05:29:41Z</time>
      </trkpt>
      <trkpt lat="51.03096146" lon="39.13573920">
        <ele>0.0000000</ele>
        <time>2010-01-01T05:29:56Z</time>
      </trkpt>
      <trkpt lat="51.03052288" lon="39.13599669">
        <ele>0.0000000</ele>
        <time>2010-01-01T05:30:14Z</time>
      </trkpt>
      <trkpt lat="51.03007080" lon="39.13622200">
        <ele>0.0000000</ele>
        <time>2010-01-01T05:30:33Z</time>
      </trkpt>
      <trkpt lat="51.02965920" lon="39.13652240">
        <ele>0.0000000</ele>
        <time>2010-01-01T05:30:52Z</time>
      </trkpt>
      <trkpt lat="51.02929483" lon="39.13683354">
        <ele>0.0000000</ele>
        <time>2010-01-01T05:31:08Z</time>
      </trkpt>
      <trkpt lat="51.02883599" lon="39.13706957">
        <ele>0.0000000</ele>
        <time>2010-01-01T05:31:27Z</time>
      </trkpt>
      <trkpt lat="51.02839064" lon="39.13728415">
        <ele>0.0000000</ele>
        <time>2010-01-01T05:31:46Z</time>
      </trkpt>
      <trkpt lat="51.02810724" lon="39.13747727">
        <ele>0.0000000</ele>
        <time>2010-01-01T05:31:58Z</time>
      </trkpt>
      <trkpt lat="51.02773611" lon="39.13755237">
        <ele>0.0000000</ele>
        <time>2010-01-01T05:32:13Z</time>
      </trkpt>
      <trkpt lat="51.02738522" lon="39.13765966">
        <ele>0.0000000</ele>
        <time>2010-01-01T05:32:28Z</time>
      </trkpt>
      <trkpt lat="51.02704107" lon="39.13778841">
        <ele>0.0000000</ele>
        <time>2010-01-01T05:32:42Z</time>
      </trkpt>
      <trkpt lat="51.02662945" lon="39.13793861">
        <ele>0.0000000</ele>
        <time>2010-01-01T05:32:59Z</time>
      </trkpt>
      <trkpt lat="51.02637302" lon="39.13812100">
        <ele>0.0000000</ele>
        <time>2010-01-01T05:33:10Z</time>
      </trkpt>
      <trkpt lat="51.02615708" lon="39.13826047">
        <ele>0.0000000</ele>
        <time>2010-01-01T05:33:19Z</time>
      </trkpt>
      <trkpt lat="51.02595464" lon="39.13842141">
        <ele>0.0000000</ele>
        <time>2010-01-01T05:33:28Z</time>
      </trkpt>
      <trkpt lat="51.02577919" lon="39.13857161">
        <ele>0.0000000</ele>
        <time>2010-01-01T05:33:36Z</time>
      </trkpt>
      <trkpt lat="51.02534731" lon="39.13875400">
        <ele>0.0000000</ele>
        <time>2010-01-01T05:33:54Z</time>
      </trkpt>
      <trkpt lat="51.02498291" lon="39.13880765">
        <ele>0.0000000</ele>
        <time>2010-01-01T05:34:09Z</time>
      </trkpt>
      <trkpt lat="51.02462525" lon="39.13912951">
        <ele>0.0000000</ele>
        <time>2010-01-01T05:34:25Z</time>
      </trkpt>
      <trkpt lat="51.02422035" lon="39.13935482">
        <ele>0.0000000</ele>
        <time>2010-01-01T05:34:42Z</time>
      </trkpt>
      <trkpt lat="51.02386943" lon="39.13956939">
        <ele>0.0000000</ele>
        <time>2010-01-01T05:34:58Z</time>
      </trkpt>
      <trkpt lat="51.02353201" lon="39.13984834">
        <ele>0.0000000</ele>
        <time>2010-01-01T05:35:13Z</time>
      </trkpt>
      <trkpt lat="51.02326882" lon="39.14022385">
        <ele>0.0000000</ele>
        <time>2010-01-01T05:35:27Z</time>
      </trkpt>
      <trkpt lat="51.02315410" lon="39.14037406">
        <ele>0.0000000</ele>
        <time>2010-01-01T05:35:33Z</time>
      </trkpt>
      <trkpt lat="51.02272219" lon="39.14063155">
        <ele>0.0000000</ele>
        <time>2010-01-01T05:35:51Z</time>
      </trkpt>
      <trkpt lat="51.02237126" lon="39.14077102">
        <ele>0.0000000</ele>
        <time>2010-01-01T05:36:06Z</time>
      </trkpt>
      <trkpt lat="51.02197984" lon="39.14096414">
        <ele>0.0000000</ele>
        <time>2010-01-01T05:36:22Z</time>
      </trkpt>
      <trkpt lat="51.02165591" lon="39.14097487">
        <ele>0.0000000</ele>
        <time>2010-01-01T05:36:35Z</time>
      </trkpt>
      <trkpt lat="51.02131847" lon="39.14093196">
        <ele>0.0000000</ele>
        <time>2010-01-01T05:36:49Z</time>
      </trkpt>
      <trkpt lat="51.02101477" lon="39.14084612">
        <ele>0.0000000</ele>
        <time>2010-01-01T05:37:01Z</time>
      </trkpt>
      <trkpt lat="51.02061659" lon="39.14088904">
        <ele>0.0000000</ele>
        <time>2010-01-01T05:37:17Z</time>
      </trkpt>
      <trkpt lat="51.02037363" lon="39.14102851">
        <ele>0.0000000</ele>
        <time>2010-01-01T05:37:27Z</time>
      </trkpt>
      <trkpt lat="51.02019816" lon="39.14117872">
        <ele>0.0000000</ele>
        <time>2010-01-01T05:37:35Z</time>
      </trkpt>
      <trkpt lat="51.01998219" lon="39.14124309">
        <ele>0.0000000</ele>
        <time>2010-01-01T05:37:44Z</time>
      </trkpt>
      <trkpt lat="51.01965149" lon="39.14139330">
        <ele>0.0000000</ele>
        <time>2010-01-01T05:37:58Z</time>
      </trkpt>
      <trkpt lat="51.01940853" lon="39.14156496">
        <ele>0.0000000</ele>
        <time>2010-01-01T05:38:09Z</time>
      </trkpt>
      <trkpt lat="51.01916556" lon="39.14180099">
        <ele>0.0000000</ele>
        <time>2010-01-01T05:38:20Z</time>
      </trkpt>
      <trkpt lat="51.01898333" lon="39.14205848">
        <ele>0.0000000</ele>
        <time>2010-01-01T05:38:30Z</time>
      </trkpt>
      <trkpt lat="51.01893609" lon="39.14224087">
        <ele>0.0000000</ele>
        <time>2010-01-01T05:38:35Z</time>
      </trkpt>
      <trkpt lat="51.01880786" lon="39.14248764">
        <ele>0.0000000</ele>
        <time>2010-01-01T05:38:43Z</time>
      </trkpt>
      <trkpt lat="51.01857839" lon="39.14291679">
        <ele>0.0000000</ele>
        <time>2010-01-01T05:38:57Z</time>
      </trkpt>
      <trkpt lat="51.01849739" lon="39.14305626">
        <ele>0.0000000</ele>
        <time>2010-01-01T05:39:02Z</time>
      </trkpt>
      <trkpt lat="51.01838266" lon="39.14317428">
        <ele>0.0000000</ele>
        <time>2010-01-01T05:39:07Z</time>
      </trkpt>
      <trkpt lat="51.01824093" lon="39.14322793">
        <ele>0.0000000</ele>
        <time>2010-01-01T05:39:13Z</time>
      </trkpt>
      <trkpt lat="51.01803170" lon="39.14321720">
        <ele>0.0000000</ele>
        <time>2010-01-01T05:39:21Z</time>
      </trkpt>
      <trkpt lat="51.01789671" lon="39.14315282">
        <ele>0.0000000</ele>
        <time>2010-01-01T05:39:27Z</time>
      </trkpt>
      <trkpt lat="51.01771448" lon="39.14313137">
        <ele>0.0000000</ele>
        <time>2010-01-01T05:39:34Z</time>
      </trkpt>
      <trkpt lat="51.01739726" lon="39.14310991">
        <ele>0.0000000</ele>
        <time>2010-01-01T05:39:47Z</time>
      </trkpt>
      <trkpt lat="51.01713404" lon="39.14299189">
        <ele>0.0000000</ele>
        <time>2010-01-01T05:39:58Z</time>
      </trkpt>
      <trkpt lat="51.01687081" lon="39.14292752">
        <ele>0.0000000</ele>
        <time>2010-01-01T05:40:09Z</time>
      </trkpt>
      <trkpt lat="51.01660084" lon="39.14282023">
        <ele>0.0000000</ele>
        <time>2010-01-01T05:40:20Z</time>
      </trkpt>
      <trkpt lat="51.01637135" lon="39.14272367">
        <ele>0.0000000</ele>
        <time>2010-01-01T05:40:29Z</time>
      </trkpt>
      <trkpt lat="51.01610137" lon="39.14263784">
        <ele>0.0000000</ele>
        <time>2010-01-01T05:40:40Z</time>
      </trkpt>
      <trkpt lat="51.01585164" lon="39.14249837">
        <ele>0.0000000</ele>
        <time>2010-01-01T05:40:51Z</time>
      </trkpt>
      <trkpt lat="51.01568290" lon="39.14240181">
        <ele>0.0000000</ele>
        <time>2010-01-01T05:40:58Z</time>
      </trkpt>
      <trkpt lat="51.01552091" lon="39.14236962">
        <ele>0.0000000</ele>
        <time>2010-01-01T05:41:05Z</time>
      </trkpt>
      <trkpt lat="51.01533192" lon="39.14238035">
        <ele>0.0000000</ele>
        <time>2010-01-01T05:41:12Z</time>
      </trkpt>
      <trkpt lat="51.01515643" lon="39.14229452">
        <ele>0.0000000</ele>
        <time>2010-01-01T05:41:20Z</time>
      </trkpt>
      <trkpt lat="51.01494719" lon="39.14215504">
        <ele>0.0000000</ele>
        <time>2010-01-01T05:41:29Z</time>
      </trkpt>
      <trkpt lat="51.01483919" lon="39.14174735">
        <ele>0.0000000</ele>
        <time>2010-01-01T05:41:40Z</time>
      </trkpt>
      <trkpt lat="51.01481219" lon="39.14138257">
        <ele>0.0000000</ele>
        <time>2010-01-01T05:41:49Z</time>
      </trkpt>
      <trkpt lat="51.01475145" lon="39.14103924">
        <ele>0.0000000</ele>
        <time>2010-01-01T05:41:58Z</time>
      </trkpt>
      <trkpt lat="51.01471095" lon="39.14049207">
        <ele>0.0000000</ele>
        <time>2010-01-01T05:42:12Z</time>
      </trkpt>
      <trkpt lat="51.01470420" lon="39.14013802">
        <ele>0.0000000</ele>
        <time>2010-01-01T05:42:21Z</time>
      </trkpt>
      <trkpt lat="51.01470420" lon="39.13979470">
        <ele>0.0000000</ele>
        <time>2010-01-01T05:42:29Z</time>
      </trkpt>
      <trkpt lat="51.01471095" lon="39.13940846">
        <ele>0.0000000</ele>
        <time>2010-01-01T05:42:39Z</time>
      </trkpt>
      <trkpt lat="51.01473120" lon="39.13893639">
        <ele>0.0000000</ele>
        <time>2010-01-01T05:42:51Z</time>
      </trkpt>
      <trkpt lat="51.01471770" lon="39.13863598">
        <ele>0.0000000</ele>
        <time>2010-01-01T05:42:59Z</time>
      </trkpt>
      <trkpt lat="51.01469745" lon="39.13833558">
        <ele>0.0000000</ele>
        <time>2010-01-01T05:43:06Z</time>
      </trkpt>
      <trkpt lat="51.01469745" lon="39.13805663">
        <ele>0.0000000</ele>
        <time>2010-01-01T05:43:13Z</time>
      </trkpt>
      <trkpt lat="51.01463670" lon="39.13771330">
        <ele>0.0000000</ele>
        <time>2010-01-01T05:43:22Z</time>
      </trkpt>
      <trkpt lat="51.01453546" lon="39.13726269">
        <ele>0.0000000</ele>
        <time>2010-01-01T05:43:34Z</time>
      </trkpt>
      <trkpt lat="51.01446796" lon="39.13709103">
        <ele>0.0000000</ele>
        <time>2010-01-01T05:43:39Z</time>
      </trkpt>
      <trkpt lat="51.01438021" lon="39.13682281">
        <ele>0.0000000</ele>
        <time>2010-01-01T05:43:47Z</time>
      </trkpt>
      <trkpt lat="51.01431946" lon="39.13645803">
        <ele>0.0000000</ele>
        <time>2010-01-01T05:43:57Z</time>
      </trkpt>
      <trkpt lat="51.01428571" lon="39.13607179">
        <ele>0.0000000</ele>
        <time>2010-01-01T05:44:06Z</time>
      </trkpt>
      <trkpt lat="51.01425196" lon="39.13569628">
        <ele>0.0000000</ele>
        <time>2010-01-01T05:44:16Z</time>
      </trkpt>
      <trkpt lat="51.01420472" lon="39.13532077">
        <ele>0.0000000</ele>
        <time>2010-01-01T05:44:26Z</time>
      </trkpt>
      <trkpt lat="51.01411022" lon="39.13493454">
        <ele>0.0000000</ele>
        <time>2010-01-01T05:44:36Z</time>
      </trkpt>
      <trkpt lat="51.01401572" lon="39.13470923">
        <ele>0.0000000</ele>
        <time>2010-01-01T05:44:43Z</time>
      </trkpt>
      <trkpt lat="51.01390772" lon="39.13436591">
        <ele>0.0000000</ele>
        <time>2010-01-01T05:44:53Z</time>
      </trkpt>
      <trkpt lat="51.01373223" lon="39.13406550">
        <ele>0.0000000</ele>
        <time>2010-01-01T05:45:03Z</time>
      </trkpt>
      <trkpt lat="51.01349598" lon="39.13364708">
        <ele>0.0000000</ele>
        <time>2010-01-01T05:45:17Z</time>
      </trkpt>
      <trkpt lat="51.01333398" lon="39.13341104">
        <ele>0.0000000</ele>
        <time>2010-01-01T05:45:26Z</time>
      </trkpt>
      <trkpt lat="51.01313823" lon="39.13321792">
        <ele>0.0000000</ele>
        <time>2010-01-01T05:45:35Z</time>
      </trkpt>
      <trkpt lat="51.01285473" lon="39.13293897">
        <ele>0.0000000</ele>
        <time>2010-01-01T05:45:48Z</time>
      </trkpt>
      <trkpt lat="51.01260498" lon="39.13270294">
        <ele>0.0000000</ele>
        <time>2010-01-01T05:46:00Z</time>
      </trkpt>
      <trkpt lat="51.01240248" lon="39.13259565">
        <ele>0.0000000</ele>
        <time>2010-01-01T05:46:09Z</time>
      </trkpt>
      <trkpt lat="51.01219323" lon="39.13255273">
        <ele>0.0000000</ele>
        <time>2010-01-01T05:46:17Z</time>
      </trkpt>
      <trkpt lat="51.01188272" lon="39.13239180">
        <ele>0.0000000</ele>
        <time>2010-01-01T05:46:30Z</time>
      </trkpt>
      <trkpt lat="51.01155197" lon="39.13242399">
        <ele>0.0000000</ele>
        <time>2010-01-01T05:46:43Z</time>
      </trkpt>
      <trkpt lat="51.01127521" lon="39.13257419">
        <ele>0.0000000</ele>
        <time>2010-01-01T05:46:55Z</time>
      </trkpt>
      <trkpt lat="51.01109970" lon="39.13267075">
        <ele>0.0000000</ele>
        <time>2010-01-01T05:47:03Z</time>
      </trkpt>
      <trkpt lat="51.01086344" lon="39.13279950">
        <ele>0.0000000</ele>
        <time>2010-01-01T05:47:12Z</time>
      </trkpt>
      <trkpt lat="51.01057993" lon="39.13290679">
        <ele>0.0000000</ele>
        <time>2010-01-01T05:47:24Z</time>
      </trkpt>
      <trkpt lat="51.01029641" lon="39.13292824">
        <ele>0.0000000</ele>
        <time>2010-01-01T05:47:36Z</time>
      </trkpt>
      <trkpt lat="51.01001290" lon="39.13298189">
        <ele>0.0000000</ele>
        <time>2010-01-01T05:47:47Z</time>
      </trkpt>
      <trkpt lat="51.00970238" lon="39.13296043">
        <ele>0.0000000</ele>
        <time>2010-01-01T05:47:59Z</time>
      </trkpt>
      <trkpt lat="51.00951336" lon="39.13298189">
        <ele>0.0000000</ele>
        <time>2010-01-01T05:48:07Z</time>
      </trkpt>
      <trkpt lat="51.00925009" lon="39.13290679">
        <ele>0.0000000</ele>
        <time>2010-01-01T05:48:18Z</time>
      </trkpt>
      <trkpt lat="51.00889906" lon="39.13284241">
        <ele>0.0000000</ele>
        <time>2010-01-01T05:48:32Z</time>
      </trkpt>
      <trkpt lat="51.00860204" lon="39.13294970">
        <ele>0.0000000</ele>
        <time>2010-01-01T05:48:44Z</time>
      </trkpt>
      <trkpt lat="51.00830501" lon="39.13319646">
        <ele>0.0000000</ele>
        <time>2010-01-01T05:48:57Z</time>
      </trkpt>
      <trkpt lat="51.00808899" lon="39.13359343">
        <ele>0.0000000</ele>
        <time>2010-01-01T05:49:11Z</time>
      </trkpt>
      <trkpt lat="51.00792697" lon="39.13384019">
        <ele>0.0000000</ele>
        <time>2010-01-01T05:49:20Z</time>
      </trkpt>
      <trkpt lat="51.00760968" lon="39.13423716">
        <ele>0.0000000</ele>
        <time>2010-01-01T05:49:36Z</time>
      </trkpt>
      <trkpt lat="51.00727890" lon="39.13443028">
        <ele>0.0000000</ele>
        <time>2010-01-01T05:49:50Z</time>
      </trkpt>
      <trkpt lat="51.00718438" lon="39.13453757">
        <ele>0.0000000</ele>
        <time>2010-01-01T05:49:55Z</time>
      </trkpt>
      <trkpt lat="51.00678608" lon="39.13484871">
        <ele>0.0000000</ele>
        <time>2010-01-01T05:50:12Z</time>
      </trkpt>
      <trkpt lat="51.00646879" lon="39.13499891">
        <ele>0.0000000</ele>
        <time>2010-01-01T05:50:26Z</time>
      </trkpt>
      <trkpt lat="51.00597597" lon="39.13518130">
        <ele>0.0000000</ele>
        <time>2010-01-01T05:50:46Z</time>
      </trkpt>
      <trkpt lat="51.00557091" lon="39.13544952">
        <ele>0.0000000</ele>
        <time>2010-01-01T05:51:03Z</time>
      </trkpt>
      <trkpt lat="51.00526711" lon="39.13573920">
        <ele>0.0000000</ele>
        <time>2010-01-01T05:51:18Z</time>
      </trkpt>
      <trkpt lat="51.00498356" lon="39.13613617">
        <ele>0.0000000</ele>
        <time>2010-01-01T05:51:33Z</time>
      </trkpt>
      <trkpt lat="51.00475402" lon="39.13646876">
        <ele>0.0000000</ele>
        <time>2010-01-01T05:51:45Z</time>
      </trkpt>
      <trkpt lat="51.00421392" lon="39.13719832">
        <ele>0.0000000</ele>
        <time>2010-01-01T05:52:14Z</time>
      </trkpt>
      <trkpt lat="51.00387636" lon="39.13757383">
        <ele>0.0000000</ele>
        <time>2010-01-01T05:52:30Z</time>
      </trkpt>
      <trkpt lat="51.00359280" lon="39.13803517">
        <ele>0.0000000</ele>
        <time>2010-01-01T05:52:46Z</time>
      </trkpt>
      <trkpt lat="51.00330925" lon="39.13837849">
        <ele>0.0000000</ele>
        <time>2010-01-01T05:53:01Z</time>
      </trkpt>
      <trkpt lat="51.00305944" lon="39.13861453">
        <ele>0.0000000</ele>
        <time>2010-01-01T05:53:12Z</time>
      </trkpt>
      <trkpt lat="51.00283665" lon="39.13911878">
        <ele>0.0000000</ele>
        <time>2010-01-01T05:53:28Z</time>
      </trkpt>
      <trkpt lat="51.00276238" lon="39.13991272">
        <ele>0.0000000</ele>
        <time>2010-01-01T05:53:48Z</time>
      </trkpt>
      <trkpt lat="51.00268811" lon="39.14058863">
        <ele>0.0000000</ele>
        <time>2010-01-01T05:54:05Z</time>
      </trkpt>
      <trkpt lat="51.00249907" lon="39.14165079">
        <ele>0.0000000</ele>
        <time>2010-01-01T05:54:33Z</time>
      </trkpt>
      <trkpt lat="51.00235729" lon="39.14238035">
        <ele>0.0000000</ele>
        <time>2010-01-01T05:54:52Z</time>
      </trkpt>
      <trkpt lat="51.00223576" lon="39.14318501">
        <ele>0.0000000</ele>
        <time>2010-01-01T05:55:13Z</time>
      </trkpt>
      <trkpt lat="51.00215474" lon="39.14366781">
        <ele>0.0000000</ele>
        <time>2010-01-01T05:55:26Z</time>
      </trkpt>
      <trkpt lat="51.00143907" lon="39.14847433">
        <ele>0.0000000</ele>
        <time>2010-01-01T05:57:30Z</time>
      </trkpt>
      <trkpt lat="51.00095970" lon="39.15103852">
        <ele>0.0000000</ele>
        <time>2010-01-01T05:58:37Z</time>
      </trkpt>
      <trkpt lat="50.99979164" lon="39.15667116">
        <ele>0.0000000</ele>
        <time>2010-01-01T06:01:07Z</time>
      </trkpt>
      <trkpt lat="50.99956207" lon="39.15911733">
        <ele>0.0000000</ele>
        <time>2010-01-01T06:02:09Z</time>
      </trkpt>
      <trkpt lat="50.99872482" lon="39.16240036">
        <ele>0.0000000</ele>
        <time>2010-01-01T06:03:38Z</time>
      </trkpt>
      <trkpt lat="50.99713131" lon="39.16656314">
        <ele>0.0000000</ele>
        <time>2010-01-01T06:05:41Z</time>
      </trkpt>
      <trkpt lat="50.99617247" lon="39.16967451">
        <ele>0.0000000</ele>
        <time>2010-01-01T06:07:08Z</time>
      </trkpt>
      <trkpt lat="50.99564578" lon="39.17134821">
        <ele>0.0000000</ele>
        <time>2010-01-01T06:07:56Z</time>
      </trkpt>
      <trkpt lat="50.99532166" lon="39.17216360">
        <ele>0.0000000</ele>
        <time>2010-01-01T06:08:20Z</time>
      </trkpt>
      <trkpt lat="50.99503805" lon="39.17267858">
        <ele>0.0000000</ele>
        <time>2010-01-01T06:08:37Z</time>
      </trkpt>
      <trkpt lat="50.99467341" lon="39.17319357">
        <ele>0.0000000</ele>
        <time>2010-01-01T06:08:57Z</time>
      </trkpt>
      <trkpt lat="50.99424124" lon="39.17351543">
        <ele>0.0000000</ele>
        <time>2010-01-01T06:09:16Z</time>
      </trkpt>
      <trkpt lat="50.99387659" lon="39.17403041">
        <ele>0.0000000</ele>
        <time>2010-01-01T06:09:35Z</time>
      </trkpt>
      <trkpt lat="50.99336338" lon="39.17548954">
        <ele>0.0000000</ele>
        <time>2010-01-01T06:10:17Z</time>
      </trkpt>
      <trkpt lat="50.99183721" lon="39.18096124">
        <ele>0.0000000</ele>
        <time>2010-01-01T06:12:48Z</time>
      </trkpt>
      <trkpt lat="50.99082424" lon="39.18478071">
        <ele>0.0000000</ele>
        <time>2010-01-01T06:14:33Z</time>
      </trkpt>
      <trkpt lat="50.98925747" lon="39.19066011">
        <ele>0.0000000</ele>
        <time>2010-01-01T06:17:14Z</time>
      </trkpt>
      <trkpt lat="50.98842003" lon="39.19359981">
        <ele>0.0000000</ele>
        <time>2010-01-01T06:18:35Z</time>
      </trkpt>
      <trkpt lat="50.98779870" lon="39.19578849">
        <ele>0.0000000</ele>
        <time>2010-01-01T06:19:35Z</time>
      </trkpt>
      <trkpt lat="50.98766363" lon="39.19670044">
        <ele>0.0000000</ele>
        <time>2010-01-01T06:19:59Z</time>
      </trkpt>
      <trkpt lat="50.98767714" lon="39.19717251">
        <ele>0.0000000</ele>
        <time>2010-01-01T06:20:11Z</time>
      </trkpt>
    </trkseg>
  </trk>
</gpx>

